<?xml version="1.0" encoding="UTF-8" standalone="no" ?>
<gpx xmlns="http://www.topografix.com/GPX/1/1" xmlns:xsi="http://www.w3.org/2001/XMLSchema-instance" xsi:schemaLocation="http://www.topografix.com/GPX/1/1 http://www.topografix.com/GPX/1/1/gpx.xsd" version="1.1" creator="VisuGPX - https://www.visugpx.com">
  <metadata>
    <name>pic de Grisonniere par le Mourre de Beaujeu</name>
    <desc><![CDATA[Les copains randonneurs du 04
au depart de Les Beliers]]></desc>
  </metadata>
  <trk>
    <name><![CDATA[SSSSSS5-10 15:13:22]]></name>
    <trkseg>
      <trkpt lat="44.27867" lon="6.40736">
        <ele>1273.88</ele>
        <time>2022-05-10T06:40:42Z</time>
      </trkpt>
      <trkpt lat="44.27867" lon="6.40736">
        <ele>1273.88</ele>
        <time>2022-05-10T06:40:43Z</time>
      </trkpt>
      <trkpt lat="44.27868" lon="6.40736">
        <ele>1280.61</ele>
        <time>2022-05-10T06:40:47Z</time>
      </trkpt>
      <trkpt lat="44.27867" lon="6.40736">
        <ele>1281.57</ele>
        <time>2022-05-10T06:40:50Z</time>
      </trkpt>
      <trkpt lat="44.27871" lon="6.40738">
        <ele>1281.57</ele>
        <time>2022-05-10T06:41:16Z</time>
      </trkpt>
      <trkpt lat="44.27872" lon="6.4074">
        <ele>1281.57</ele>
        <time>2022-05-10T06:41:40Z</time>
      </trkpt>
      <trkpt lat="44.27876" lon="6.40746">
        <ele>1281.57</ele>
        <time>2022-05-10T06:41:55Z</time>
      </trkpt>
      <trkpt lat="44.27873" lon="6.40746">
        <ele>1281.57</ele>
        <time>2022-05-10T06:42:12Z</time>
      </trkpt>
      <trkpt lat="44.27872" lon="6.40742">
        <ele>1281.57</ele>
        <time>2022-05-10T06:42:31Z</time>
      </trkpt>
      <trkpt lat="44.27871" lon="6.4074">
        <ele>1282.06</ele>
        <time>2022-05-10T06:42:56Z</time>
      </trkpt>
      <trkpt lat="44.2787" lon="6.40739">
        <ele>1282.06</ele>
        <time>2022-05-10T06:43:27Z</time>
      </trkpt>
      <trkpt lat="44.27869" lon="6.40741">
        <ele>1282.06</ele>
        <time>2022-05-10T06:43:56Z</time>
      </trkpt>
      <trkpt lat="44.27872" lon="6.40746">
        <ele>1282.54</ele>
        <time>2022-05-10T06:44:31Z</time>
      </trkpt>
      <trkpt lat="44.27875" lon="6.40749">
        <ele>1282.54</ele>
        <time>2022-05-10T06:45:08Z</time>
      </trkpt>
      <trkpt lat="44.2788" lon="6.40747">
        <ele>1282.54</ele>
        <time>2022-05-10T06:45:45Z</time>
      </trkpt>
      <trkpt lat="44.27881" lon="6.40744">
        <ele>1283.02</ele>
        <time>2022-05-10T06:46:23Z</time>
      </trkpt>
      <trkpt lat="44.27875" lon="6.40741">
        <ele>1283.02</ele>
        <time>2022-05-10T06:46:56Z</time>
      </trkpt>
      <trkpt lat="44.27873" lon="6.40743">
        <ele>1283.02</ele>
        <time>2022-05-10T06:47:17Z</time>
      </trkpt>
      <trkpt lat="44.27876" lon="6.4075">
        <ele>1283.5</ele>
        <time>2022-05-10T06:47:35Z</time>
      </trkpt>
      <trkpt lat="44.27878" lon="6.40748">
        <ele>1283.98</ele>
        <time>2022-05-10T06:47:57Z</time>
      </trkpt>
      <trkpt lat="44.2788" lon="6.40747">
        <ele>1284.94</ele>
        <time>2022-05-10T06:48:25Z</time>
      </trkpt>
      <trkpt lat="44.27875" lon="6.40741">
        <ele>1283.5</ele>
        <time>2022-05-10T06:48:40Z</time>
      </trkpt>
      <trkpt lat="44.27871" lon="6.40738">
        <ele>1283.02</ele>
        <time>2022-05-10T06:49:08Z</time>
      </trkpt>
      <trkpt lat="44.27871" lon="6.40737">
        <ele>1283.98</ele>
        <time>2022-05-10T06:49:32Z</time>
      </trkpt>
      <trkpt lat="44.27875" lon="6.40737">
        <ele>1282.54</ele>
        <time>2022-05-10T06:49:35Z</time>
      </trkpt>
      <trkpt lat="44.2788" lon="6.40742">
        <ele>1282.54</ele>
        <time>2022-05-10T06:49:50Z</time>
      </trkpt>
      <trkpt lat="44.27878" lon="6.4073">
        <ele>1282.06</ele>
        <time>2022-05-10T06:50:06Z</time>
      </trkpt>
      <trkpt lat="44.27874" lon="6.40722">
        <ele>1281.57</ele>
        <time>2022-05-10T06:50:23Z</time>
      </trkpt>
      <trkpt lat="44.27876" lon="6.40715">
        <ele>1281.57</ele>
        <time>2022-05-10T06:50:40Z</time>
      </trkpt>
      <trkpt lat="44.27879" lon="6.40689">
        <ele>1280.13</ele>
        <time>2022-05-10T06:50:59Z</time>
      </trkpt>
      <trkpt lat="44.27876" lon="6.40674">
        <ele>1279.17</ele>
        <time>2022-05-10T06:51:10Z</time>
      </trkpt>
      <trkpt lat="44.27876" lon="6.40672">
        <ele>1279.17</ele>
        <time>2022-05-10T06:51:11Z</time>
      </trkpt>
      <trkpt lat="44.27876" lon="6.4067">
        <ele>1279.17</ele>
        <time>2022-05-10T06:51:12Z</time>
      </trkpt>
      <trkpt lat="44.27876" lon="6.40667">
        <ele>1278.69</ele>
        <time>2022-05-10T06:51:13Z</time>
      </trkpt>
      <trkpt lat="44.27876" lon="6.40665">
        <ele>1278.69</ele>
        <time>2022-05-10T06:51:14Z</time>
      </trkpt>
      <trkpt lat="44.27876" lon="6.40662">
        <ele>1278.69</ele>
        <time>2022-05-10T06:51:15Z</time>
      </trkpt>
      <trkpt lat="44.27876" lon="6.4066">
        <ele>1278.69</ele>
        <time>2022-05-10T06:51:16Z</time>
      </trkpt>
      <trkpt lat="44.27877" lon="6.40658">
        <ele>1278.69</ele>
        <time>2022-05-10T06:51:17Z</time>
      </trkpt>
      <trkpt lat="44.27873" lon="6.40629">
        <ele>1277.73</ele>
        <time>2022-05-10T06:51:32Z</time>
      </trkpt>
      <trkpt lat="44.2787" lon="6.40595">
        <ele>1276.29</ele>
        <time>2022-05-10T06:51:51Z</time>
      </trkpt>
      <trkpt lat="44.27862" lon="6.40567">
        <ele>1274.85</ele>
        <time>2022-05-10T06:52:10Z</time>
      </trkpt>
      <trkpt lat="44.27858" lon="6.40541">
        <ele>1273.4</ele>
        <time>2022-05-10T06:52:25Z</time>
      </trkpt>
      <trkpt lat="44.27851" lon="6.40516">
        <ele>1272.44</ele>
        <time>2022-05-10T06:52:41Z</time>
      </trkpt>
      <trkpt lat="44.27845" lon="6.40501">
        <ele>1270.52</ele>
        <time>2022-05-10T06:52:51Z</time>
      </trkpt>
      <trkpt lat="44.27837" lon="6.40474">
        <ele>1268.12</ele>
        <time>2022-05-10T06:53:08Z</time>
      </trkpt>
      <trkpt lat="44.2783" lon="6.40441">
        <ele>1265.71</ele>
        <time>2022-05-10T06:53:27Z</time>
      </trkpt>
      <trkpt lat="44.27825" lon="6.40412">
        <ele>1263.31</ele>
        <time>2022-05-10T06:53:44Z</time>
      </trkpt>
      <trkpt lat="44.27823" lon="6.40391">
        <ele>1262.83</ele>
        <time>2022-05-10T06:53:56Z</time>
      </trkpt>
      <trkpt lat="44.27823" lon="6.40389">
        <ele>1262.35</ele>
        <time>2022-05-10T06:53:57Z</time>
      </trkpt>
      <trkpt lat="44.27823" lon="6.40362">
        <ele>1260.43</ele>
        <time>2022-05-10T06:54:13Z</time>
      </trkpt>
      <trkpt lat="44.2782" lon="6.40325">
        <ele>1258.98</ele>
        <time>2022-05-10T06:54:29Z</time>
      </trkpt>
      <trkpt lat="44.27819" lon="6.40297">
        <ele>1258.02</ele>
        <time>2022-05-10T06:54:46Z</time>
      </trkpt>
      <trkpt lat="44.27819" lon="6.4027">
        <ele>1256.58</ele>
        <time>2022-05-10T06:55:04Z</time>
      </trkpt>
      <trkpt lat="44.27815" lon="6.40254">
        <ele>1255.62</ele>
        <time>2022-05-10T06:55:19Z</time>
      </trkpt>
      <trkpt lat="44.27811" lon="6.40224">
        <ele>1254.66</ele>
        <time>2022-05-10T06:55:34Z</time>
      </trkpt>
      <trkpt lat="44.27809" lon="6.40192">
        <ele>1254.18</ele>
        <time>2022-05-10T06:55:51Z</time>
      </trkpt>
      <trkpt lat="44.27808" lon="6.40166">
        <ele>1252.74</ele>
        <time>2022-05-10T06:56:09Z</time>
      </trkpt>
      <trkpt lat="44.27809" lon="6.40136">
        <ele>1251.29</ele>
        <time>2022-05-10T06:56:25Z</time>
      </trkpt>
      <trkpt lat="44.27808" lon="6.4011">
        <ele>1249.37</ele>
        <time>2022-05-10T06:56:40Z</time>
      </trkpt>
      <trkpt lat="44.27809" lon="6.40096">
        <ele>1248.89</ele>
        <time>2022-05-10T06:56:48Z</time>
      </trkpt>
      <trkpt lat="44.27808" lon="6.40063">
        <ele>1246.97</ele>
        <time>2022-05-10T06:57:05Z</time>
      </trkpt>
      <trkpt lat="44.27803" lon="6.40038">
        <ele>1246.01</ele>
        <time>2022-05-10T06:57:21Z</time>
      </trkpt>
      <trkpt lat="44.27794" lon="6.40011">
        <ele>1244.08</ele>
        <time>2022-05-10T06:57:38Z</time>
      </trkpt>
      <trkpt lat="44.2779" lon="6.39997">
        <ele>1243.6</ele>
        <time>2022-05-10T06:57:44Z</time>
      </trkpt>
      <trkpt lat="44.27789" lon="6.39993">
        <ele>1243.12</ele>
        <time>2022-05-10T06:57:46Z</time>
      </trkpt>
      <trkpt lat="44.27788" lon="6.39955">
        <ele>1242.16</ele>
        <time>2022-05-10T06:58:03Z</time>
      </trkpt>
      <trkpt lat="44.27786" lon="6.39932">
        <ele>1241.2</ele>
        <time>2022-05-10T06:58:18Z</time>
      </trkpt>
      <trkpt lat="44.27787" lon="6.39902">
        <ele>1240.24</ele>
        <time>2022-05-10T06:58:32Z</time>
      </trkpt>
      <trkpt lat="44.27786" lon="6.39896">
        <ele>1239.28</ele>
        <time>2022-05-10T06:58:35Z</time>
      </trkpt>
      <trkpt lat="44.27777" lon="6.39869">
        <ele>1238.32</ele>
        <time>2022-05-10T06:58:51Z</time>
      </trkpt>
      <trkpt lat="44.27772" lon="6.39843">
        <ele>1237.83</ele>
        <time>2022-05-10T06:59:08Z</time>
      </trkpt>
      <trkpt lat="44.27768" lon="6.39818">
        <ele>1237.35</ele>
        <time>2022-05-10T06:59:23Z</time>
      </trkpt>
      <trkpt lat="44.27762" lon="6.39796">
        <ele>1237.35</ele>
        <time>2022-05-10T06:59:37Z</time>
      </trkpt>
      <trkpt lat="44.27756" lon="6.39758">
        <ele>1238.32</ele>
        <time>2022-05-10T06:59:57Z</time>
      </trkpt>
      <trkpt lat="44.27754" lon="6.39739">
        <ele>1236.87</ele>
        <time>2022-05-10T07:00:08Z</time>
      </trkpt>
      <trkpt lat="44.27747" lon="6.3973">
        <ele>1235.91</ele>
        <time>2022-05-10T07:00:21Z</time>
      </trkpt>
      <trkpt lat="44.2775" lon="6.39716">
        <ele>1235.91</ele>
        <time>2022-05-10T07:00:35Z</time>
      </trkpt>
      <trkpt lat="44.27753" lon="6.39688">
        <ele>1233.99</ele>
        <time>2022-05-10T07:00:50Z</time>
      </trkpt>
      <trkpt lat="44.27752" lon="6.39657">
        <ele>1232.55</ele>
        <time>2022-05-10T07:01:05Z</time>
      </trkpt>
      <trkpt lat="44.27749" lon="6.39639">
        <ele>1231.11</ele>
        <time>2022-05-10T07:01:18Z</time>
      </trkpt>
      <trkpt lat="44.27743" lon="6.39605">
        <ele>1229.66</ele>
        <time>2022-05-10T07:01:35Z</time>
      </trkpt>
      <trkpt lat="44.27737" lon="6.39579">
        <ele>1227.74</ele>
        <time>2022-05-10T07:01:51Z</time>
      </trkpt>
      <trkpt lat="44.27733" lon="6.39549">
        <ele>1225.82</ele>
        <time>2022-05-10T07:02:07Z</time>
      </trkpt>
      <trkpt lat="44.27733" lon="6.39545">
        <ele>1225.34</ele>
        <time>2022-05-10T07:02:09Z</time>
      </trkpt>
      <trkpt lat="44.27733" lon="6.39543">
        <ele>1225.34</ele>
        <time>2022-05-10T07:02:10Z</time>
      </trkpt>
      <trkpt lat="44.27724" lon="6.39522">
        <ele>1224.38</ele>
        <time>2022-05-10T07:02:25Z</time>
      </trkpt>
      <trkpt lat="44.2772" lon="6.39509">
        <ele>1223.42</ele>
        <time>2022-05-10T07:02:34Z</time>
      </trkpt>
      <trkpt lat="44.27713" lon="6.39481">
        <ele>1222.45</ele>
        <time>2022-05-10T07:02:48Z</time>
      </trkpt>
      <trkpt lat="44.2771" lon="6.39472">
        <ele>1221.97</ele>
        <time>2022-05-10T07:02:55Z</time>
      </trkpt>
      <trkpt lat="44.2771" lon="6.39471">
        <ele>1221.97</ele>
        <time>2022-05-10T07:02:56Z</time>
      </trkpt>
      <trkpt lat="44.27708" lon="6.39454">
        <ele>1221.01</ele>
        <time>2022-05-10T07:03:08Z</time>
      </trkpt>
      <trkpt lat="44.27701" lon="6.3943">
        <ele>1220.05</ele>
        <time>2022-05-10T07:03:23Z</time>
      </trkpt>
      <trkpt lat="44.27699" lon="6.39417">
        <ele>1219.57</ele>
        <time>2022-05-10T07:03:32Z</time>
      </trkpt>
      <trkpt lat="44.27699" lon="6.39384">
        <ele>1218.61</ele>
        <time>2022-05-10T07:03:49Z</time>
      </trkpt>
      <trkpt lat="44.27696" lon="6.39344">
        <ele>1217.17</ele>
        <time>2022-05-10T07:04:09Z</time>
      </trkpt>
      <trkpt lat="44.27691" lon="6.39322">
        <ele>1216.21</ele>
        <time>2022-05-10T07:04:25Z</time>
      </trkpt>
      <trkpt lat="44.27686" lon="6.39308">
        <ele>1215.24</ele>
        <time>2022-05-10T07:04:44Z</time>
      </trkpt>
      <trkpt lat="44.27685" lon="6.39306">
        <ele>1215.24</ele>
        <time>2022-05-10T07:04:48Z</time>
      </trkpt>
      <trkpt lat="44.27684" lon="6.39305">
        <ele>1214.76</ele>
        <time>2022-05-10T07:04:49Z</time>
      </trkpt>
      <trkpt lat="44.27683" lon="6.39304">
        <ele>1214.76</ele>
        <time>2022-05-10T07:04:50Z</time>
      </trkpt>
      <trkpt lat="44.27682" lon="6.39303">
        <ele>1214.76</ele>
        <time>2022-05-10T07:04:51Z</time>
      </trkpt>
      <trkpt lat="44.27681" lon="6.39302">
        <ele>1214.76</ele>
        <time>2022-05-10T07:04:52Z</time>
      </trkpt>
      <trkpt lat="44.27672" lon="6.39294">
        <ele>1214.28</ele>
        <time>2022-05-10T07:05:04Z</time>
      </trkpt>
      <trkpt lat="44.27654" lon="6.39277">
        <ele>1213.32</ele>
        <time>2022-05-10T07:05:22Z</time>
      </trkpt>
      <trkpt lat="44.27641" lon="6.39257">
        <ele>1213.8</ele>
        <time>2022-05-10T07:05:38Z</time>
      </trkpt>
      <trkpt lat="44.27624" lon="6.39239">
        <ele>1212.36</ele>
        <time>2022-05-10T07:05:54Z</time>
      </trkpt>
      <trkpt lat="44.27601" lon="6.39212">
        <ele>1212.36</ele>
        <time>2022-05-10T07:06:15Z</time>
      </trkpt>
      <trkpt lat="44.27588" lon="6.39195">
        <ele>1212.36</ele>
        <time>2022-05-10T07:06:29Z</time>
      </trkpt>
      <trkpt lat="44.27587" lon="6.39193">
        <ele>1212.36</ele>
        <time>2022-05-10T07:06:30Z</time>
      </trkpt>
      <trkpt lat="44.27586" lon="6.39192">
        <ele>1212.36</ele>
        <time>2022-05-10T07:06:31Z</time>
      </trkpt>
      <trkpt lat="44.27585" lon="6.3919">
        <ele>1212.36</ele>
        <time>2022-05-10T07:06:32Z</time>
      </trkpt>
      <trkpt lat="44.27584" lon="6.39189">
        <ele>1212.36</ele>
        <time>2022-05-10T07:06:33Z</time>
      </trkpt>
      <trkpt lat="44.27584" lon="6.39187">
        <ele>1212.36</ele>
        <time>2022-05-10T07:06:34Z</time>
      </trkpt>
      <trkpt lat="44.27583" lon="6.39186">
        <ele>1212.36</ele>
        <time>2022-05-10T07:06:35Z</time>
      </trkpt>
      <trkpt lat="44.27583" lon="6.39184">
        <ele>1212.36</ele>
        <time>2022-05-10T07:06:36Z</time>
      </trkpt>
      <trkpt lat="44.27575" lon="6.39165">
        <ele>1211.4</ele>
        <time>2022-05-10T07:06:49Z</time>
      </trkpt>
      <trkpt lat="44.27561" lon="6.3914">
        <ele>1210.44</ele>
        <time>2022-05-10T07:07:05Z</time>
      </trkpt>
      <trkpt lat="44.27559" lon="6.39139">
        <ele>1210.92</ele>
        <time>2022-05-10T07:07:11Z</time>
      </trkpt>
      <trkpt lat="44.27552" lon="6.39133">
        <ele>1210.92</ele>
        <time>2022-05-10T07:07:25Z</time>
      </trkpt>
      <trkpt lat="44.2755" lon="6.39131">
        <ele>1210.92</ele>
        <time>2022-05-10T07:07:27Z</time>
      </trkpt>
      <trkpt lat="44.27549" lon="6.3913">
        <ele>1210.92</ele>
        <time>2022-05-10T07:07:28Z</time>
      </trkpt>
      <trkpt lat="44.27546" lon="6.39125">
        <ele>1210.92</ele>
        <time>2022-05-10T07:07:32Z</time>
      </trkpt>
      <trkpt lat="44.27545" lon="6.39124">
        <ele>1210.92</ele>
        <time>2022-05-10T07:07:33Z</time>
      </trkpt>
      <trkpt lat="44.27542" lon="6.39119">
        <ele>1209.96</ele>
        <time>2022-05-10T07:07:36Z</time>
      </trkpt>
      <trkpt lat="44.27539" lon="6.39114">
        <ele>1209.48</ele>
        <time>2022-05-10T07:07:40Z</time>
      </trkpt>
      <trkpt lat="44.27537" lon="6.39112">
        <ele>1209.48</ele>
        <time>2022-05-10T07:07:42Z</time>
      </trkpt>
      <trkpt lat="44.27534" lon="6.39104">
        <ele>1208.51</ele>
        <time>2022-05-10T07:07:55Z</time>
      </trkpt>
      <trkpt lat="44.27533" lon="6.39103">
        <ele>1208.51</ele>
        <time>2022-05-10T07:07:56Z</time>
      </trkpt>
      <trkpt lat="44.27532" lon="6.39102">
        <ele>1207.55</ele>
        <time>2022-05-10T07:07:57Z</time>
      </trkpt>
      <trkpt lat="44.27514" lon="6.39085">
        <ele>1207.55</ele>
        <time>2022-05-10T07:08:18Z</time>
      </trkpt>
      <trkpt lat="44.275" lon="6.39066">
        <ele>1207.55</ele>
        <time>2022-05-10T07:08:34Z</time>
      </trkpt>
      <trkpt lat="44.27485" lon="6.39048">
        <ele>1207.07</ele>
        <time>2022-05-10T07:08:49Z</time>
      </trkpt>
      <trkpt lat="44.27474" lon="6.39039">
        <ele>1207.07</ele>
        <time>2022-05-10T07:09:03Z</time>
      </trkpt>
      <trkpt lat="44.27455" lon="6.39022">
        <ele>1206.59</ele>
        <time>2022-05-10T07:09:21Z</time>
      </trkpt>
      <trkpt lat="44.27439" lon="6.39012">
        <ele>1208.03</ele>
        <time>2022-05-10T07:09:35Z</time>
      </trkpt>
      <trkpt lat="44.27417" lon="6.38997">
        <ele>1208.51</ele>
        <time>2022-05-10T07:09:55Z</time>
      </trkpt>
      <trkpt lat="44.27396" lon="6.38987">
        <ele>1209.48</ele>
        <time>2022-05-10T07:10:14Z</time>
      </trkpt>
      <trkpt lat="44.27389" lon="6.38979">
        <ele>1209.96</ele>
        <time>2022-05-10T07:10:31Z</time>
      </trkpt>
      <trkpt lat="44.27377" lon="6.38975">
        <ele>1210.44</ele>
        <time>2022-05-10T07:10:50Z</time>
      </trkpt>
      <trkpt lat="44.27359" lon="6.38966">
        <ele>1211.4</ele>
        <time>2022-05-10T07:11:07Z</time>
      </trkpt>
      <trkpt lat="44.27338" lon="6.38954">
        <ele>1212.84</ele>
        <time>2022-05-10T07:11:23Z</time>
      </trkpt>
      <trkpt lat="44.27336" lon="6.38953">
        <ele>1212.84</ele>
        <time>2022-05-10T07:11:24Z</time>
      </trkpt>
      <trkpt lat="44.27331" lon="6.3895">
        <ele>1212.84</ele>
        <time>2022-05-10T07:11:28Z</time>
      </trkpt>
      <trkpt lat="44.27329" lon="6.38949">
        <ele>1212.84</ele>
        <time>2022-05-10T07:11:29Z</time>
      </trkpt>
      <trkpt lat="44.27314" lon="6.38949">
        <ele>1213.8</ele>
        <time>2022-05-10T07:11:45Z</time>
      </trkpt>
      <trkpt lat="44.27293" lon="6.38951">
        <ele>1214.28</ele>
        <time>2022-05-10T07:12:02Z</time>
      </trkpt>
      <trkpt lat="44.27273" lon="6.38951">
        <ele>1214.28</ele>
        <time>2022-05-10T07:12:19Z</time>
      </trkpt>
      <trkpt lat="44.27251" lon="6.38951">
        <ele>1214.76</ele>
        <time>2022-05-10T07:12:35Z</time>
      </trkpt>
      <trkpt lat="44.27232" lon="6.38954">
        <ele>1215.24</ele>
        <time>2022-05-10T07:12:52Z</time>
      </trkpt>
      <trkpt lat="44.27217" lon="6.38956">
        <ele>1216.21</ele>
        <time>2022-05-10T07:13:09Z</time>
      </trkpt>
      <trkpt lat="44.27198" lon="6.38956">
        <ele>1216.69</ele>
        <time>2022-05-10T07:13:25Z</time>
      </trkpt>
      <trkpt lat="44.27174" lon="6.38956">
        <ele>1218.13</ele>
        <time>2022-05-10T07:13:44Z</time>
      </trkpt>
      <trkpt lat="44.27151" lon="6.38966">
        <ele>1220.53</ele>
        <time>2022-05-10T07:14:02Z</time>
      </trkpt>
      <trkpt lat="44.27131" lon="6.38979">
        <ele>1221.97</ele>
        <time>2022-05-10T07:14:20Z</time>
      </trkpt>
      <trkpt lat="44.27126" lon="6.3898">
        <ele>1222.45</ele>
        <time>2022-05-10T07:14:25Z</time>
      </trkpt>
      <trkpt lat="44.27125" lon="6.38981">
        <ele>1222.45</ele>
        <time>2022-05-10T07:14:26Z</time>
      </trkpt>
      <trkpt lat="44.27111" lon="6.38976">
        <ele>1223.42</ele>
        <time>2022-05-10T07:14:41Z</time>
      </trkpt>
      <trkpt lat="44.2711" lon="6.38975">
        <ele>1223.42</ele>
        <time>2022-05-10T07:14:42Z</time>
      </trkpt>
      <trkpt lat="44.27096" lon="6.38957">
        <ele>1224.38</ele>
        <time>2022-05-10T07:14:57Z</time>
      </trkpt>
      <trkpt lat="44.27082" lon="6.38935">
        <ele>1225.82</ele>
        <time>2022-05-10T07:15:15Z</time>
      </trkpt>
      <trkpt lat="44.27073" lon="6.38928">
        <ele>1226.78</ele>
        <time>2022-05-10T07:15:27Z</time>
      </trkpt>
      <trkpt lat="44.27066" lon="6.38929">
        <ele>1228.22</ele>
        <time>2022-05-10T07:15:44Z</time>
      </trkpt>
      <trkpt lat="44.27061" lon="6.38928">
        <ele>1229.18</ele>
        <time>2022-05-10T07:15:59Z</time>
      </trkpt>
      <trkpt lat="44.27056" lon="6.38927">
        <ele>1229.18</ele>
        <time>2022-05-10T07:16:18Z</time>
      </trkpt>
      <trkpt lat="44.2705" lon="6.38921">
        <ele>1229.18</ele>
        <time>2022-05-10T07:16:49Z</time>
      </trkpt>
      <trkpt lat="44.27052" lon="6.38925">
        <ele>1229.18</ele>
        <time>2022-05-10T07:17:13Z</time>
      </trkpt>
      <trkpt lat="44.27038" lon="6.38923">
        <ele>1232.55</ele>
        <time>2022-05-10T07:17:30Z</time>
      </trkpt>
      <trkpt lat="44.27026" lon="6.38919">
        <ele>1235.91</ele>
        <time>2022-05-10T07:17:49Z</time>
      </trkpt>
      <trkpt lat="44.27023" lon="6.38903">
        <ele>1238.8</ele>
        <time>2022-05-10T07:18:04Z</time>
      </trkpt>
      <trkpt lat="44.27025" lon="6.38888">
        <ele>1242.16</ele>
        <time>2022-05-10T07:18:23Z</time>
      </trkpt>
      <trkpt lat="44.27029" lon="6.38872">
        <ele>1245.53</ele>
        <time>2022-05-10T07:18:42Z</time>
      </trkpt>
      <trkpt lat="44.2704" lon="6.3886">
        <ele>1247.93</ele>
        <time>2022-05-10T07:19:00Z</time>
      </trkpt>
      <trkpt lat="44.27043" lon="6.38843">
        <ele>1250.81</ele>
        <time>2022-05-10T07:19:16Z</time>
      </trkpt>
      <trkpt lat="44.27041" lon="6.38828">
        <ele>1253.22</ele>
        <time>2022-05-10T07:19:36Z</time>
      </trkpt>
      <trkpt lat="44.27039" lon="6.38809">
        <ele>1256.58</ele>
        <time>2022-05-10T07:19:56Z</time>
      </trkpt>
      <trkpt lat="44.27037" lon="6.38786">
        <ele>1259.94</ele>
        <time>2022-05-10T07:20:15Z</time>
      </trkpt>
      <trkpt lat="44.27038" lon="6.3877">
        <ele>1262.35</ele>
        <time>2022-05-10T07:20:33Z</time>
      </trkpt>
      <trkpt lat="44.27031" lon="6.38754">
        <ele>1264.27</ele>
        <time>2022-05-10T07:20:51Z</time>
      </trkpt>
      <trkpt lat="44.27023" lon="6.38764">
        <ele>1266.67</ele>
        <time>2022-05-10T07:21:09Z</time>
      </trkpt>
      <trkpt lat="44.27009" lon="6.38767">
        <ele>1270.04</ele>
        <time>2022-05-10T07:21:28Z</time>
      </trkpt>
      <trkpt lat="44.26993" lon="6.38774">
        <ele>1271.96</ele>
        <time>2022-05-10T07:21:47Z</time>
      </trkpt>
      <trkpt lat="44.26983" lon="6.38776">
        <ele>1273.4</ele>
        <time>2022-05-10T07:22:06Z</time>
      </trkpt>
      <trkpt lat="44.26968" lon="6.38788">
        <ele>1274.36</ele>
        <time>2022-05-10T07:22:26Z</time>
      </trkpt>
      <trkpt lat="44.26948" lon="6.38797">
        <ele>1275.33</ele>
        <time>2022-05-10T07:22:45Z</time>
      </trkpt>
      <trkpt lat="44.26926" lon="6.38807">
        <ele>1276.29</ele>
        <time>2022-05-10T07:23:07Z</time>
      </trkpt>
      <trkpt lat="44.26911" lon="6.38816">
        <ele>1277.25</ele>
        <time>2022-05-10T07:23:23Z</time>
      </trkpt>
      <trkpt lat="44.26893" lon="6.38824">
        <ele>1278.69</ele>
        <time>2022-05-10T07:23:42Z</time>
      </trkpt>
      <trkpt lat="44.26876" lon="6.38826">
        <ele>1279.65</ele>
        <time>2022-05-10T07:23:58Z</time>
      </trkpt>
      <trkpt lat="44.26863" lon="6.38824">
        <ele>1281.09</ele>
        <time>2022-05-10T07:24:15Z</time>
      </trkpt>
      <trkpt lat="44.26839" lon="6.38812">
        <ele>1282.54</ele>
        <time>2022-05-10T07:24:33Z</time>
      </trkpt>
      <trkpt lat="44.26834" lon="6.38808">
        <ele>1282.54</ele>
        <time>2022-05-10T07:24:39Z</time>
      </trkpt>
      <trkpt lat="44.26815" lon="6.38793">
        <ele>1284.46</ele>
        <time>2022-05-10T07:24:54Z</time>
      </trkpt>
      <trkpt lat="44.26795" lon="6.38789">
        <ele>1284.94</ele>
        <time>2022-05-10T07:25:12Z</time>
      </trkpt>
      <trkpt lat="44.26789" lon="6.38793">
        <ele>1283.5</ele>
        <time>2022-05-10T07:25:28Z</time>
      </trkpt>
      <trkpt lat="44.26788" lon="6.38789">
        <ele>1283.5</ele>
        <time>2022-05-10T07:25:48Z</time>
      </trkpt>
      <trkpt lat="44.26787" lon="6.38783">
        <ele>1283.5</ele>
        <time>2022-05-10T07:26:07Z</time>
      </trkpt>
      <trkpt lat="44.26787" lon="6.38786">
        <ele>1283.5</ele>
        <time>2022-05-10T07:26:30Z</time>
      </trkpt>
      <trkpt lat="44.26789" lon="6.38785">
        <ele>1283.5</ele>
        <time>2022-05-10T07:26:51Z</time>
      </trkpt>
      <trkpt lat="44.26784" lon="6.38784">
        <ele>1283.02</ele>
        <time>2022-05-10T07:27:08Z</time>
      </trkpt>
      <trkpt lat="44.26767" lon="6.3879">
        <ele>1280.13</ele>
        <time>2022-05-10T07:27:25Z</time>
      </trkpt>
      <trkpt lat="44.26745" lon="6.38787">
        <ele>1277.25</ele>
        <time>2022-05-10T07:27:49Z</time>
      </trkpt>
      <trkpt lat="44.26742" lon="6.38788">
        <ele>1277.25</ele>
        <time>2022-05-10T07:28:02Z</time>
      </trkpt>
      <trkpt lat="44.26736" lon="6.38797">
        <ele>1278.69</ele>
        <time>2022-05-10T07:28:12Z</time>
      </trkpt>
      <trkpt lat="44.26717" lon="6.38814">
        <ele>1280.61</ele>
        <time>2022-05-10T07:28:31Z</time>
      </trkpt>
      <trkpt lat="44.26707" lon="6.38812">
        <ele>1282.06</ele>
        <time>2022-05-10T07:28:39Z</time>
      </trkpt>
      <trkpt lat="44.2669" lon="6.38793">
        <ele>1283.02</ele>
        <time>2022-05-10T07:28:57Z</time>
      </trkpt>
      <trkpt lat="44.2668" lon="6.38769">
        <ele>1284.94</ele>
        <time>2022-05-10T07:29:14Z</time>
      </trkpt>
      <trkpt lat="44.2667" lon="6.3874">
        <ele>1286.38</ele>
        <time>2022-05-10T07:29:35Z</time>
      </trkpt>
      <trkpt lat="44.26659" lon="6.38714">
        <ele>1287.82</ele>
        <time>2022-05-10T07:29:54Z</time>
      </trkpt>
      <trkpt lat="44.26648" lon="6.38691">
        <ele>1290.23</ele>
        <time>2022-05-10T07:30:13Z</time>
      </trkpt>
      <trkpt lat="44.26631" lon="6.38662">
        <ele>1292.15</ele>
        <time>2022-05-10T07:30:35Z</time>
      </trkpt>
      <trkpt lat="44.26616" lon="6.38628">
        <ele>1293.11</ele>
        <time>2022-05-10T07:30:54Z</time>
      </trkpt>
      <trkpt lat="44.26616" lon="6.38625">
        <ele>1294.07</ele>
        <time>2022-05-10T07:30:56Z</time>
      </trkpt>
      <trkpt lat="44.26605" lon="6.386">
        <ele>1295.03</ele>
        <time>2022-05-10T07:31:15Z</time>
      </trkpt>
      <trkpt lat="44.26597" lon="6.38568">
        <ele>1295.99</ele>
        <time>2022-05-10T07:31:33Z</time>
      </trkpt>
      <trkpt lat="44.26595" lon="6.38551">
        <ele>1296.48</ele>
        <time>2022-05-10T07:31:49Z</time>
      </trkpt>
      <trkpt lat="44.26592" lon="6.38545">
        <ele>1296.48</ele>
        <time>2022-05-10T07:32:12Z</time>
      </trkpt>
      <trkpt lat="44.2659" lon="6.38537">
        <ele>1296.48</ele>
        <time>2022-05-10T07:32:26Z</time>
      </trkpt>
      <trkpt lat="44.26589" lon="6.38532">
        <ele>1296.48</ele>
        <time>2022-05-10T07:32:35Z</time>
      </trkpt>
      <trkpt lat="44.26588" lon="6.3853">
        <ele>1296.96</ele>
        <time>2022-05-10T07:32:49Z</time>
      </trkpt>
      <trkpt lat="44.26587" lon="6.38529">
        <ele>1296.96</ele>
        <time>2022-05-10T07:32:54Z</time>
      </trkpt>
      <trkpt lat="44.26581" lon="6.38506">
        <ele>1298.4</ele>
        <time>2022-05-10T07:33:14Z</time>
      </trkpt>
      <trkpt lat="44.26575" lon="6.38487">
        <ele>1299.36</ele>
        <time>2022-05-10T07:33:29Z</time>
      </trkpt>
      <trkpt lat="44.26574" lon="6.38483">
        <ele>1299.36</ele>
        <time>2022-05-10T07:33:33Z</time>
      </trkpt>
      <trkpt lat="44.26569" lon="6.3846">
        <ele>1300.8</ele>
        <time>2022-05-10T07:33:48Z</time>
      </trkpt>
      <trkpt lat="44.26566" lon="6.38423">
        <ele>1303.2</ele>
        <time>2022-05-10T07:34:09Z</time>
      </trkpt>
      <trkpt lat="44.26561" lon="6.38396">
        <ele>1305.13</ele>
        <time>2022-05-10T07:34:24Z</time>
      </trkpt>
      <trkpt lat="44.26547" lon="6.3837">
        <ele>1306.57</ele>
        <time>2022-05-10T07:34:44Z</time>
      </trkpt>
      <trkpt lat="44.26547" lon="6.38365">
        <ele>1307.53</ele>
        <time>2022-05-10T07:35:01Z</time>
      </trkpt>
      <trkpt lat="44.26546" lon="6.38365">
        <ele>1307.53</ele>
        <time>2022-05-10T07:35:03Z</time>
      </trkpt>
      <trkpt lat="44.26541" lon="6.38357">
        <ele>1307.53</ele>
        <time>2022-05-10T07:35:17Z</time>
      </trkpt>
      <trkpt lat="44.26537" lon="6.3836">
        <ele>1308.49</ele>
        <time>2022-05-10T07:35:30Z</time>
      </trkpt>
      <trkpt lat="44.26537" lon="6.38363">
        <ele>1308.49</ele>
        <time>2022-05-10T07:35:37Z</time>
      </trkpt>
      <trkpt lat="44.2654" lon="6.38366">
        <ele>1307.05</ele>
        <time>2022-05-10T07:35:40Z</time>
      </trkpt>
      <trkpt lat="44.26545" lon="6.38371">
        <ele>1306.57</ele>
        <time>2022-05-10T07:35:48Z</time>
      </trkpt>
      <trkpt lat="44.26544" lon="6.3839">
        <ele>1308.01</ele>
        <time>2022-05-10T07:36:04Z</time>
      </trkpt>
      <trkpt lat="44.2654" lon="6.38395">
        <ele>1308.49</ele>
        <time>2022-05-10T07:36:09Z</time>
      </trkpt>
      <trkpt lat="44.26526" lon="6.38418">
        <ele>1310.9</ele>
        <time>2022-05-10T07:36:27Z</time>
      </trkpt>
      <trkpt lat="44.26517" lon="6.38429">
        <ele>1312.34</ele>
        <time>2022-05-10T07:36:42Z</time>
      </trkpt>
      <trkpt lat="44.26508" lon="6.38437">
        <ele>1314.26</ele>
        <time>2022-05-10T07:37:04Z</time>
      </trkpt>
      <trkpt lat="44.26497" lon="6.38449">
        <ele>1315.22</ele>
        <time>2022-05-10T07:37:21Z</time>
      </trkpt>
      <trkpt lat="44.26495" lon="6.38453">
        <ele>1315.7</ele>
        <time>2022-05-10T07:37:29Z</time>
      </trkpt>
      <trkpt lat="44.26472" lon="6.38468">
        <ele>1318.1</ele>
        <time>2022-05-10T07:37:49Z</time>
      </trkpt>
      <trkpt lat="44.26465" lon="6.38474">
        <ele>1319.07</ele>
        <time>2022-05-10T07:37:57Z</time>
      </trkpt>
      <trkpt lat="44.26448" lon="6.38493">
        <ele>1320.51</ele>
        <time>2022-05-10T07:38:17Z</time>
      </trkpt>
      <trkpt lat="44.26436" lon="6.38517">
        <ele>1322.91</ele>
        <time>2022-05-10T07:38:34Z</time>
      </trkpt>
      <trkpt lat="44.26422" lon="6.38539">
        <ele>1324.83</ele>
        <time>2022-05-10T07:38:53Z</time>
      </trkpt>
      <trkpt lat="44.26411" lon="6.38557">
        <ele>1327.24</ele>
        <time>2022-05-10T07:39:11Z</time>
      </trkpt>
      <trkpt lat="44.26408" lon="6.38565">
        <ele>1328.2</ele>
        <time>2022-05-10T07:39:25Z</time>
      </trkpt>
      <trkpt lat="44.26404" lon="6.38577">
        <ele>1328.68</ele>
        <time>2022-05-10T07:39:45Z</time>
      </trkpt>
      <trkpt lat="44.26402" lon="6.38583">
        <ele>1328.68</ele>
        <time>2022-05-10T07:39:49Z</time>
      </trkpt>
      <trkpt lat="44.2639" lon="6.38608">
        <ele>1330.12</ele>
        <time>2022-05-10T07:40:07Z</time>
      </trkpt>
      <trkpt lat="44.26383" lon="6.3862">
        <ele>1333.01</ele>
        <time>2022-05-10T07:40:23Z</time>
      </trkpt>
      <trkpt lat="44.26382" lon="6.38621">
        <ele>1331.56</ele>
        <time>2022-05-10T07:40:25Z</time>
      </trkpt>
      <trkpt lat="44.2638" lon="6.38627">
        <ele>1333.01</ele>
        <time>2022-05-10T07:40:33Z</time>
      </trkpt>
      <trkpt lat="44.26372" lon="6.38641">
        <ele>1334.93</ele>
        <time>2022-05-10T07:40:52Z</time>
      </trkpt>
      <trkpt lat="44.26368" lon="6.38646">
        <ele>1335.41</ele>
        <time>2022-05-10T07:41:11Z</time>
      </trkpt>
      <trkpt lat="44.26361" lon="6.38654">
        <ele>1336.85</ele>
        <time>2022-05-10T07:41:30Z</time>
      </trkpt>
      <trkpt lat="44.26357" lon="6.38658">
        <ele>1337.33</ele>
        <time>2022-05-10T07:41:50Z</time>
      </trkpt>
      <trkpt lat="44.26353" lon="6.38661">
        <ele>1337.33</ele>
        <time>2022-05-10T07:42:08Z</time>
      </trkpt>
      <trkpt lat="44.26344" lon="6.38663">
        <ele>1339.25</ele>
        <time>2022-05-10T07:42:27Z</time>
      </trkpt>
      <trkpt lat="44.26337" lon="6.38679">
        <ele>1342.14</ele>
        <time>2022-05-10T07:42:46Z</time>
      </trkpt>
      <trkpt lat="44.26328" lon="6.38689">
        <ele>1343.1</ele>
        <time>2022-05-10T07:43:04Z</time>
      </trkpt>
      <trkpt lat="44.26318" lon="6.38707">
        <ele>1345.98</ele>
        <time>2022-05-10T07:43:26Z</time>
      </trkpt>
      <trkpt lat="44.26303" lon="6.38715">
        <ele>1347.43</ele>
        <time>2022-05-10T07:43:41Z</time>
      </trkpt>
      <trkpt lat="44.26295" lon="6.38719">
        <ele>1348.39</ele>
        <time>2022-05-10T07:43:54Z</time>
      </trkpt>
      <trkpt lat="44.2629" lon="6.38716">
        <ele>1348.87</ele>
        <time>2022-05-10T07:44:14Z</time>
      </trkpt>
      <trkpt lat="44.26286" lon="6.38716">
        <ele>1349.83</ele>
        <time>2022-05-10T07:44:31Z</time>
      </trkpt>
      <trkpt lat="44.26275" lon="6.38721">
        <ele>1351.27</ele>
        <time>2022-05-10T07:44:45Z</time>
      </trkpt>
      <trkpt lat="44.26261" lon="6.38728">
        <ele>1353.67</ele>
        <time>2022-05-10T07:45:03Z</time>
      </trkpt>
      <trkpt lat="44.26246" lon="6.38734">
        <ele>1357.04</ele>
        <time>2022-05-10T07:45:23Z</time>
      </trkpt>
      <trkpt lat="44.26229" lon="6.38744">
        <ele>1358.96</ele>
        <time>2022-05-10T07:45:43Z</time>
      </trkpt>
      <trkpt lat="44.26215" lon="6.38753">
        <ele>1361.84</ele>
        <time>2022-05-10T07:46:02Z</time>
      </trkpt>
      <trkpt lat="44.26204" lon="6.38762">
        <ele>1364.73</ele>
        <time>2022-05-10T07:46:19Z</time>
      </trkpt>
      <trkpt lat="44.26197" lon="6.38768">
        <ele>1366.17</ele>
        <time>2022-05-10T07:46:35Z</time>
      </trkpt>
      <trkpt lat="44.26185" lon="6.38777">
        <ele>1368.57</ele>
        <time>2022-05-10T07:46:51Z</time>
      </trkpt>
      <trkpt lat="44.2617" lon="6.3879">
        <ele>1371.94</ele>
        <time>2022-05-10T07:47:08Z</time>
      </trkpt>
      <trkpt lat="44.26161" lon="6.38793">
        <ele>1373.38</ele>
        <time>2022-05-10T07:47:24Z</time>
      </trkpt>
      <trkpt lat="44.26152" lon="6.38795">
        <ele>1376.26</ele>
        <time>2022-05-10T07:47:38Z</time>
      </trkpt>
      <trkpt lat="44.26142" lon="6.38797">
        <ele>1375.78</ele>
        <time>2022-05-10T07:47:52Z</time>
      </trkpt>
      <trkpt lat="44.26142" lon="6.38797">
        <ele>1380.59</ele>
        <time>2022-05-10T07:47:53Z</time>
      </trkpt>
      <trkpt lat="44.26142" lon="6.38799">
        <ele>1377.23</ele>
        <time>2022-05-10T07:48:04Z</time>
      </trkpt>
      <trkpt lat="44.26136" lon="6.38802">
        <ele>1380.11</ele>
        <time>2022-05-10T07:48:15Z</time>
      </trkpt>
      <trkpt lat="44.26131" lon="6.38805">
        <ele>1382.51</ele>
        <time>2022-05-10T07:48:32Z</time>
      </trkpt>
      <trkpt lat="44.26125" lon="6.38809">
        <ele>1385.4</ele>
        <time>2022-05-10T07:48:54Z</time>
      </trkpt>
      <trkpt lat="44.26122" lon="6.38807">
        <ele>1385.4</ele>
        <time>2022-05-10T07:49:11Z</time>
      </trkpt>
      <trkpt lat="44.26119" lon="6.38812">
        <ele>1383.96</ele>
        <time>2022-05-10T07:49:36Z</time>
      </trkpt>
      <trkpt lat="44.26119" lon="6.38812">
        <ele>1384.44</ele>
        <time>2022-05-10T07:50:16Z</time>
      </trkpt>
      <trkpt lat="44.26121" lon="6.38811">
        <ele>1384.44</ele>
        <time>2022-05-10T07:50:48Z</time>
      </trkpt>
      <trkpt lat="44.26117" lon="6.3881">
        <ele>1384.44</ele>
        <time>2022-05-10T07:51:13Z</time>
      </trkpt>
      <trkpt lat="44.26116" lon="6.38809">
        <ele>1385.88</ele>
        <time>2022-05-10T07:51:15Z</time>
      </trkpt>
      <trkpt lat="44.26111" lon="6.38803">
        <ele>1389.24</ele>
        <time>2022-05-10T07:51:30Z</time>
      </trkpt>
      <trkpt lat="44.26097" lon="6.38808">
        <ele>1392.13</ele>
        <time>2022-05-10T07:51:47Z</time>
      </trkpt>
      <trkpt lat="44.26083" lon="6.38813">
        <ele>1394.53</ele>
        <time>2022-05-10T07:52:04Z</time>
      </trkpt>
      <trkpt lat="44.26069" lon="6.38814">
        <ele>1397.89</ele>
        <time>2022-05-10T07:52:20Z</time>
      </trkpt>
      <trkpt lat="44.26067" lon="6.38814">
        <ele>1398.86</ele>
        <time>2022-05-10T07:52:24Z</time>
      </trkpt>
      <trkpt lat="44.26055" lon="6.38816">
        <ele>1400.3</ele>
        <time>2022-05-10T07:52:40Z</time>
      </trkpt>
      <trkpt lat="44.26042" lon="6.38816">
        <ele>1403.18</ele>
        <time>2022-05-10T07:52:59Z</time>
      </trkpt>
      <trkpt lat="44.26028" lon="6.38812">
        <ele>1405.58</ele>
        <time>2022-05-10T07:53:18Z</time>
      </trkpt>
      <trkpt lat="44.26019" lon="6.3881">
        <ele>1408.95</ele>
        <time>2022-05-10T07:53:33Z</time>
      </trkpt>
      <trkpt lat="44.26008" lon="6.38811">
        <ele>1411.35</ele>
        <time>2022-05-10T07:53:50Z</time>
      </trkpt>
      <trkpt lat="44.25998" lon="6.38819">
        <ele>1414.24</ele>
        <time>2022-05-10T07:54:06Z</time>
      </trkpt>
      <trkpt lat="44.25991" lon="6.3883">
        <ele>1416.16</ele>
        <time>2022-05-10T07:54:24Z</time>
      </trkpt>
      <trkpt lat="44.25978" lon="6.38834">
        <ele>1419.52</ele>
        <time>2022-05-10T07:54:41Z</time>
      </trkpt>
      <trkpt lat="44.25967" lon="6.38839">
        <ele>1420.97</ele>
        <time>2022-05-10T07:54:57Z</time>
      </trkpt>
      <trkpt lat="44.25955" lon="6.38844">
        <ele>1423.85</ele>
        <time>2022-05-10T07:55:16Z</time>
      </trkpt>
      <trkpt lat="44.25944" lon="6.38853">
        <ele>1427.21</ele>
        <time>2022-05-10T07:55:34Z</time>
      </trkpt>
      <trkpt lat="44.25937" lon="6.38856">
        <ele>1428.66</ele>
        <time>2022-05-10T07:55:50Z</time>
      </trkpt>
      <trkpt lat="44.25938" lon="6.38859">
        <ele>1428.66</ele>
        <time>2022-05-10T07:56:09Z</time>
      </trkpt>
      <trkpt lat="44.25934" lon="6.38861">
        <ele>1429.62</ele>
        <time>2022-05-10T07:56:28Z</time>
      </trkpt>
      <trkpt lat="44.25919" lon="6.38868">
        <ele>1432.5</ele>
        <time>2022-05-10T07:56:47Z</time>
      </trkpt>
      <trkpt lat="44.25905" lon="6.38872">
        <ele>1435.87</ele>
        <time>2022-05-10T07:57:04Z</time>
      </trkpt>
      <trkpt lat="44.25893" lon="6.38876">
        <ele>1439.23</ele>
        <time>2022-05-10T07:57:22Z</time>
      </trkpt>
      <trkpt lat="44.25881" lon="6.38885">
        <ele>1442.11</ele>
        <time>2022-05-10T07:57:40Z</time>
      </trkpt>
      <trkpt lat="44.25867" lon="6.38893">
        <ele>1445.48</ele>
        <time>2022-05-10T07:58:00Z</time>
      </trkpt>
      <trkpt lat="44.25856" lon="6.38904">
        <ele>1447.4</ele>
        <time>2022-05-10T07:58:18Z</time>
      </trkpt>
      <trkpt lat="44.25846" lon="6.38916">
        <ele>1449.32</ele>
        <time>2022-05-10T07:58:34Z</time>
      </trkpt>
      <trkpt lat="44.25832" lon="6.38925">
        <ele>1450.77</ele>
        <time>2022-05-10T07:58:51Z</time>
      </trkpt>
      <trkpt lat="44.25828" lon="6.38931">
        <ele>1451.25</ele>
        <time>2022-05-10T07:58:56Z</time>
      </trkpt>
      <trkpt lat="44.25817" lon="6.38938">
        <ele>1452.69</ele>
        <time>2022-05-10T07:59:11Z</time>
      </trkpt>
      <trkpt lat="44.25801" lon="6.38944">
        <ele>1454.61</ele>
        <time>2022-05-10T07:59:29Z</time>
      </trkpt>
      <trkpt lat="44.2579" lon="6.38945">
        <ele>1454.61</ele>
        <time>2022-05-10T07:59:46Z</time>
      </trkpt>
      <trkpt lat="44.25785" lon="6.38943">
        <ele>1454.61</ele>
        <time>2022-05-10T08:00:03Z</time>
      </trkpt>
      <trkpt lat="44.25773" lon="6.38946">
        <ele>1456.05</ele>
        <time>2022-05-10T08:00:18Z</time>
      </trkpt>
      <trkpt lat="44.25758" lon="6.38949">
        <ele>1457.5</ele>
        <time>2022-05-10T08:00:36Z</time>
      </trkpt>
      <trkpt lat="44.25741" lon="6.38954">
        <ele>1458.46</ele>
        <time>2022-05-10T08:00:54Z</time>
      </trkpt>
      <trkpt lat="44.2573" lon="6.38958">
        <ele>1459.42</ele>
        <time>2022-05-10T08:01:10Z</time>
      </trkpt>
      <trkpt lat="44.25716" lon="6.38967">
        <ele>1461.82</ele>
        <time>2022-05-10T08:01:28Z</time>
      </trkpt>
      <trkpt lat="44.257" lon="6.38976">
        <ele>1463.26</ele>
        <time>2022-05-10T08:01:47Z</time>
      </trkpt>
      <trkpt lat="44.25685" lon="6.38985">
        <ele>1461.34</ele>
        <time>2022-05-10T08:02:07Z</time>
      </trkpt>
      <trkpt lat="44.2567" lon="6.39004">
        <ele>1461.34</ele>
        <time>2022-05-10T08:02:24Z</time>
      </trkpt>
      <trkpt lat="44.25654" lon="6.39018">
        <ele>1460.38</ele>
        <time>2022-05-10T08:02:45Z</time>
      </trkpt>
      <trkpt lat="44.2564" lon="6.39027">
        <ele>1461.82</ele>
        <time>2022-05-10T08:03:03Z</time>
      </trkpt>
      <trkpt lat="44.25631" lon="6.39029">
        <ele>1461.82</ele>
        <time>2022-05-10T08:03:22Z</time>
      </trkpt>
      <trkpt lat="44.25623" lon="6.39031">
        <ele>1462.78</ele>
        <time>2022-05-10T08:03:39Z</time>
      </trkpt>
      <trkpt lat="44.25616" lon="6.39028">
        <ele>1466.63</ele>
        <time>2022-05-10T08:03:56Z</time>
      </trkpt>
      <trkpt lat="44.25597" lon="6.39023">
        <ele>1464.23</ele>
        <time>2022-05-10T08:04:16Z</time>
      </trkpt>
      <trkpt lat="44.25591" lon="6.39025">
        <ele>1463.26</ele>
        <time>2022-05-10T08:04:24Z</time>
      </trkpt>
      <trkpt lat="44.25579" lon="6.39027">
        <ele>1461.82</ele>
        <time>2022-05-10T08:04:38Z</time>
      </trkpt>
      <trkpt lat="44.25575" lon="6.39019">
        <ele>1461.34</ele>
        <time>2022-05-10T08:04:49Z</time>
      </trkpt>
      <trkpt lat="44.25574" lon="6.39013">
        <ele>1462.78</ele>
        <time>2022-05-10T08:04:57Z</time>
      </trkpt>
      <trkpt lat="44.25571" lon="6.39001">
        <ele>1465.67</ele>
        <time>2022-05-10T08:05:15Z</time>
      </trkpt>
      <trkpt lat="44.25562" lon="6.39007">
        <ele>1468.55</ele>
        <time>2022-05-10T08:05:34Z</time>
      </trkpt>
      <trkpt lat="44.25554" lon="6.39013">
        <ele>1471.92</ele>
        <time>2022-05-10T08:05:54Z</time>
      </trkpt>
      <trkpt lat="44.25547" lon="6.39021">
        <ele>1474.32</ele>
        <time>2022-05-10T08:06:11Z</time>
      </trkpt>
      <trkpt lat="44.25541" lon="6.39012">
        <ele>1475.28</ele>
        <time>2022-05-10T08:06:26Z</time>
      </trkpt>
      <trkpt lat="44.25532" lon="6.38991">
        <ele>1476.72</ele>
        <time>2022-05-10T08:06:44Z</time>
      </trkpt>
      <trkpt lat="44.25527" lon="6.38977">
        <ele>1476.72</ele>
        <time>2022-05-10T08:06:59Z</time>
      </trkpt>
      <trkpt lat="44.25523" lon="6.38965">
        <ele>1475.76</ele>
        <time>2022-05-10T08:07:14Z</time>
      </trkpt>
      <trkpt lat="44.25525" lon="6.38949">
        <ele>1478.65</ele>
        <time>2022-05-10T08:07:28Z</time>
      </trkpt>
      <trkpt lat="44.25524" lon="6.38936">
        <ele>1480.09</ele>
        <time>2022-05-10T08:07:44Z</time>
      </trkpt>
      <trkpt lat="44.25519" lon="6.38926">
        <ele>1482.01</ele>
        <time>2022-05-10T08:08:00Z</time>
      </trkpt>
      <trkpt lat="44.25517" lon="6.38938">
        <ele>1484.89</ele>
        <time>2022-05-10T08:08:18Z</time>
      </trkpt>
      <trkpt lat="44.25511" lon="6.38944">
        <ele>1486.82</ele>
        <time>2022-05-10T08:08:36Z</time>
      </trkpt>
      <trkpt lat="44.2551" lon="6.38934">
        <ele>1490.18</ele>
        <time>2022-05-10T08:08:49Z</time>
      </trkpt>
      <trkpt lat="44.25509" lon="6.38933">
        <ele>1490.18</ele>
        <time>2022-05-10T08:08:50Z</time>
      </trkpt>
      <trkpt lat="44.25506" lon="6.38937">
        <ele>1491.14</ele>
        <time>2022-05-10T08:09:06Z</time>
      </trkpt>
      <trkpt lat="44.25502" lon="6.38944">
        <ele>1493.06</ele>
        <time>2022-05-10T08:09:22Z</time>
      </trkpt>
      <trkpt lat="44.25498" lon="6.38941">
        <ele>1495.95</ele>
        <time>2022-05-10T08:09:39Z</time>
      </trkpt>
      <trkpt lat="44.25493" lon="6.38931">
        <ele>1497.39</ele>
        <time>2022-05-10T08:09:53Z</time>
      </trkpt>
      <trkpt lat="44.25489" lon="6.38929">
        <ele>1499.31</ele>
        <time>2022-05-10T08:10:10Z</time>
      </trkpt>
      <trkpt lat="44.25487" lon="6.38939">
        <ele>1502.2</ele>
        <time>2022-05-10T08:10:26Z</time>
      </trkpt>
      <trkpt lat="44.25481" lon="6.38956">
        <ele>1505.08</ele>
        <time>2022-05-10T08:10:48Z</time>
      </trkpt>
      <trkpt lat="44.25483" lon="6.38967">
        <ele>1506.52</ele>
        <time>2022-05-10T08:11:03Z</time>
      </trkpt>
      <trkpt lat="44.25482" lon="6.38976">
        <ele>1509.41</ele>
        <time>2022-05-10T08:11:22Z</time>
      </trkpt>
      <trkpt lat="44.25475" lon="6.38961">
        <ele>1512.29</ele>
        <time>2022-05-10T08:11:39Z</time>
      </trkpt>
      <trkpt lat="44.25472" lon="6.38957">
        <ele>1514.21</ele>
        <time>2022-05-10T08:11:55Z</time>
      </trkpt>
      <trkpt lat="44.25469" lon="6.38946">
        <ele>1516.14</ele>
        <time>2022-05-10T08:12:09Z</time>
      </trkpt>
      <trkpt lat="44.25467" lon="6.3896">
        <ele>1519.98</ele>
        <time>2022-05-10T08:12:25Z</time>
      </trkpt>
      <trkpt lat="44.25463" lon="6.38967">
        <ele>1522.39</ele>
        <time>2022-05-10T08:12:46Z</time>
      </trkpt>
      <trkpt lat="44.25456" lon="6.38965">
        <ele>1525.27</ele>
        <time>2022-05-10T08:13:02Z</time>
      </trkpt>
      <trkpt lat="44.25448" lon="6.38971">
        <ele>1527.67</ele>
        <time>2022-05-10T08:13:23Z</time>
      </trkpt>
      <trkpt lat="44.25442" lon="6.38971">
        <ele>1529.59</ele>
        <time>2022-05-10T08:13:48Z</time>
      </trkpt>
      <trkpt lat="44.25433" lon="6.38971">
        <ele>1530.08</ele>
        <time>2022-05-10T08:14:02Z</time>
      </trkpt>
      <trkpt lat="44.25432" lon="6.38955">
        <ele>1530.08</ele>
        <time>2022-05-10T08:14:16Z</time>
      </trkpt>
      <trkpt lat="44.25428" lon="6.38942">
        <ele>1529.59</ele>
        <time>2022-05-10T08:14:30Z</time>
      </trkpt>
      <trkpt lat="44.25423" lon="6.38934">
        <ele>1531.04</ele>
        <time>2022-05-10T08:14:39Z</time>
      </trkpt>
      <trkpt lat="44.25415" lon="6.38916">
        <ele>1531.52</ele>
        <time>2022-05-10T08:14:56Z</time>
      </trkpt>
      <trkpt lat="44.25412" lon="6.389">
        <ele>1530.08</ele>
        <time>2022-05-10T08:15:07Z</time>
      </trkpt>
      <trkpt lat="44.25414" lon="6.38879">
        <ele>1527.67</ele>
        <time>2022-05-10T08:15:22Z</time>
      </trkpt>
      <trkpt lat="44.25412" lon="6.38874">
        <ele>1526.23</ele>
        <time>2022-05-10T08:15:39Z</time>
      </trkpt>
      <trkpt lat="44.25412" lon="6.38857">
        <ele>1523.83</ele>
        <time>2022-05-10T08:15:58Z</time>
      </trkpt>
      <trkpt lat="44.25406" lon="6.38835">
        <ele>1521.42</ele>
        <time>2022-05-10T08:16:15Z</time>
      </trkpt>
      <trkpt lat="44.25401" lon="6.38806">
        <ele>1520.94</ele>
        <time>2022-05-10T08:16:31Z</time>
      </trkpt>
      <trkpt lat="44.25387" lon="6.38786">
        <ele>1520.94</ele>
        <time>2022-05-10T08:16:48Z</time>
      </trkpt>
      <trkpt lat="44.25373" lon="6.38787">
        <ele>1520.46</ele>
        <time>2022-05-10T08:17:03Z</time>
      </trkpt>
      <trkpt lat="44.25371" lon="6.38788">
        <ele>1519.5</ele>
        <time>2022-05-10T08:17:05Z</time>
      </trkpt>
      <trkpt lat="44.25363" lon="6.38777">
        <ele>1519.98</ele>
        <time>2022-05-10T08:17:20Z</time>
      </trkpt>
      <trkpt lat="44.25371" lon="6.38766">
        <ele>1521.42</ele>
        <time>2022-05-10T08:17:36Z</time>
      </trkpt>
      <trkpt lat="44.25373" lon="6.38741">
        <ele>1521.42</ele>
        <time>2022-05-10T08:17:51Z</time>
      </trkpt>
      <trkpt lat="44.25369" lon="6.38717">
        <ele>1521.9</ele>
        <time>2022-05-10T08:18:07Z</time>
      </trkpt>
      <trkpt lat="44.25362" lon="6.3869">
        <ele>1520.94</ele>
        <time>2022-05-10T08:18:27Z</time>
      </trkpt>
      <trkpt lat="44.25361" lon="6.38686">
        <ele>1521.9</ele>
        <time>2022-05-10T08:18:31Z</time>
      </trkpt>
      <trkpt lat="44.25351" lon="6.38668">
        <ele>1522.39</ele>
        <time>2022-05-10T08:18:47Z</time>
      </trkpt>
      <trkpt lat="44.25345" lon="6.38656">
        <ele>1523.83</ele>
        <time>2022-05-10T08:19:00Z</time>
      </trkpt>
      <trkpt lat="44.25344" lon="6.38655">
        <ele>1522.87</ele>
        <time>2022-05-10T08:19:02Z</time>
      </trkpt>
      <trkpt lat="44.25341" lon="6.38638">
        <ele>1522.87</ele>
        <time>2022-05-10T08:19:17Z</time>
      </trkpt>
      <trkpt lat="44.25334" lon="6.38619">
        <ele>1522.39</ele>
        <time>2022-05-10T08:19:34Z</time>
      </trkpt>
      <trkpt lat="44.25332" lon="6.38616">
        <ele>1521.9</ele>
        <time>2022-05-10T08:19:37Z</time>
      </trkpt>
      <trkpt lat="44.25321" lon="6.38603">
        <ele>1521.42</ele>
        <time>2022-05-10T08:19:54Z</time>
      </trkpt>
      <trkpt lat="44.25311" lon="6.38593">
        <ele>1521.42</ele>
        <time>2022-05-10T08:20:07Z</time>
      </trkpt>
      <trkpt lat="44.25307" lon="6.3858">
        <ele>1521.42</ele>
        <time>2022-05-10T08:20:17Z</time>
      </trkpt>
      <trkpt lat="44.25294" lon="6.38556">
        <ele>1521.42</ele>
        <time>2022-05-10T08:20:35Z</time>
      </trkpt>
      <trkpt lat="44.25283" lon="6.38538">
        <ele>1521.42</ele>
        <time>2022-05-10T08:20:52Z</time>
      </trkpt>
      <trkpt lat="44.25265" lon="6.38515">
        <ele>1520.46</ele>
        <time>2022-05-10T08:21:10Z</time>
      </trkpt>
      <trkpt lat="44.25243" lon="6.385">
        <ele>1520.46</ele>
        <time>2022-05-10T08:21:29Z</time>
      </trkpt>
      <trkpt lat="44.25241" lon="6.38498">
        <ele>1520.46</ele>
        <time>2022-05-10T08:21:48Z</time>
      </trkpt>
      <trkpt lat="44.25239" lon="6.38499">
        <ele>1519.98</ele>
        <time>2022-05-10T08:22:00Z</time>
      </trkpt>
      <trkpt lat="44.25238" lon="6.38496">
        <ele>1519.98</ele>
        <time>2022-05-10T08:22:16Z</time>
      </trkpt>
      <trkpt lat="44.25247" lon="6.38501">
        <ele>1519.98</ele>
        <time>2022-05-10T08:22:33Z</time>
      </trkpt>
      <trkpt lat="44.25247" lon="6.38501">
        <ele>1519.98</ele>
        <time>2022-05-10T08:22:48Z</time>
      </trkpt>
      <trkpt lat="44.25247" lon="6.385">
        <ele>1519.98</ele>
        <time>2022-05-10T08:23:01Z</time>
      </trkpt>
      <trkpt lat="44.25247" lon="6.385">
        <ele>1519.98</ele>
        <time>2022-05-10T08:23:22Z</time>
      </trkpt>
      <trkpt lat="44.25251" lon="6.38503">
        <ele>1522.39</ele>
        <time>2022-05-10T08:23:38Z</time>
      </trkpt>
      <trkpt lat="44.25257" lon="6.38512">
        <ele>1525.27</ele>
        <time>2022-05-10T08:23:52Z</time>
      </trkpt>
      <trkpt lat="44.25263" lon="6.38534">
        <ele>1527.67</ele>
        <time>2022-05-10T08:24:11Z</time>
      </trkpt>
      <trkpt lat="44.2527" lon="6.38547">
        <ele>1529.11</ele>
        <time>2022-05-10T08:24:26Z</time>
      </trkpt>
      <trkpt lat="44.25274" lon="6.38555">
        <ele>1531.04</ele>
        <time>2022-05-10T08:24:40Z</time>
      </trkpt>
      <trkpt lat="44.25284" lon="6.38572">
        <ele>1533.44</ele>
        <time>2022-05-10T08:25:01Z</time>
      </trkpt>
      <trkpt lat="44.25288" lon="6.38593">
        <ele>1536.32</ele>
        <time>2022-05-10T08:25:21Z</time>
      </trkpt>
      <trkpt lat="44.25286" lon="6.38612">
        <ele>1538.73</ele>
        <time>2022-05-10T08:25:44Z</time>
      </trkpt>
      <trkpt lat="44.25284" lon="6.3863">
        <ele>1540.65</ele>
        <time>2022-05-10T08:25:59Z</time>
      </trkpt>
      <trkpt lat="44.25282" lon="6.3865">
        <ele>1544.01</ele>
        <time>2022-05-10T08:26:21Z</time>
      </trkpt>
      <trkpt lat="44.25282" lon="6.3867">
        <ele>1545.94</ele>
        <time>2022-05-10T08:26:42Z</time>
      </trkpt>
      <trkpt lat="44.2529" lon="6.38683">
        <ele>1548.34</ele>
        <time>2022-05-10T08:27:05Z</time>
      </trkpt>
      <trkpt lat="44.25298" lon="6.38694">
        <ele>1549.3</ele>
        <time>2022-05-10T08:27:21Z</time>
      </trkpt>
      <trkpt lat="44.253" lon="6.38704">
        <ele>1551.22</ele>
        <time>2022-05-10T08:27:37Z</time>
      </trkpt>
      <trkpt lat="44.253" lon="6.38717">
        <ele>1553.15</ele>
        <time>2022-05-10T08:27:54Z</time>
      </trkpt>
      <trkpt lat="44.25299" lon="6.38735">
        <ele>1555.07</ele>
        <time>2022-05-10T08:28:13Z</time>
      </trkpt>
      <trkpt lat="44.25293" lon="6.38749">
        <ele>1557.47</ele>
        <time>2022-05-10T08:28:33Z</time>
      </trkpt>
      <trkpt lat="44.25289" lon="6.38764">
        <ele>1558.43</ele>
        <time>2022-05-10T08:28:58Z</time>
      </trkpt>
      <trkpt lat="44.25279" lon="6.38782">
        <ele>1560.84</ele>
        <time>2022-05-10T08:29:17Z</time>
      </trkpt>
      <trkpt lat="44.25274" lon="6.38797">
        <ele>1562.76</ele>
        <time>2022-05-10T08:29:37Z</time>
      </trkpt>
      <trkpt lat="44.25271" lon="6.38808">
        <ele>1565.64</ele>
        <time>2022-05-10T08:29:53Z</time>
      </trkpt>
      <trkpt lat="44.2527" lon="6.3883">
        <ele>1567.09</ele>
        <time>2022-05-10T08:30:16Z</time>
      </trkpt>
      <trkpt lat="44.2526" lon="6.38849">
        <ele>1569.97</ele>
        <time>2022-05-10T08:30:37Z</time>
      </trkpt>
      <trkpt lat="44.25257" lon="6.3886">
        <ele>1573.33</ele>
        <time>2022-05-10T08:30:56Z</time>
      </trkpt>
      <trkpt lat="44.25255" lon="6.38838">
        <ele>1575.74</ele>
        <time>2022-05-10T08:31:16Z</time>
      </trkpt>
      <trkpt lat="44.25251" lon="6.38818">
        <ele>1578.62</ele>
        <time>2022-05-10T08:31:37Z</time>
      </trkpt>
      <trkpt lat="44.25241" lon="6.38803">
        <ele>1581.51</ele>
        <time>2022-05-10T08:31:57Z</time>
      </trkpt>
      <trkpt lat="44.25231" lon="6.38791">
        <ele>1583.91</ele>
        <time>2022-05-10T08:32:17Z</time>
      </trkpt>
      <trkpt lat="44.2523" lon="6.38792">
        <ele>1584.39</ele>
        <time>2022-05-10T08:32:45Z</time>
      </trkpt>
      <trkpt lat="44.25218" lon="6.38795">
        <ele>1585.83</ele>
        <time>2022-05-10T08:33:02Z</time>
      </trkpt>
      <trkpt lat="44.25221" lon="6.38813">
        <ele>1587.27</ele>
        <time>2022-05-10T08:33:21Z</time>
      </trkpt>
      <trkpt lat="44.25227" lon="6.38833">
        <ele>1590.16</ele>
        <time>2022-05-10T08:33:42Z</time>
      </trkpt>
      <trkpt lat="44.25225" lon="6.38851">
        <ele>1593.04</ele>
        <time>2022-05-10T08:34:04Z</time>
      </trkpt>
      <trkpt lat="44.25223" lon="6.38865">
        <ele>1595.45</ele>
        <time>2022-05-10T08:34:23Z</time>
      </trkpt>
      <trkpt lat="44.2522" lon="6.38876">
        <ele>1598.81</ele>
        <time>2022-05-10T08:34:42Z</time>
      </trkpt>
      <trkpt lat="44.25215" lon="6.38874">
        <ele>1602.17</ele>
        <time>2022-05-10T08:35:00Z</time>
      </trkpt>
      <trkpt lat="44.25202" lon="6.38864">
        <ele>1604.58</ele>
        <time>2022-05-10T08:35:19Z</time>
      </trkpt>
      <trkpt lat="44.25189" lon="6.38865">
        <ele>1606.5</ele>
        <time>2022-05-10T08:35:40Z</time>
      </trkpt>
      <trkpt lat="44.25195" lon="6.38883">
        <ele>1610.35</ele>
        <time>2022-05-10T08:36:02Z</time>
      </trkpt>
      <trkpt lat="44.2519" lon="6.38883">
        <ele>1612.75</ele>
        <time>2022-05-10T08:36:22Z</time>
      </trkpt>
      <trkpt lat="44.25186" lon="6.38887">
        <ele>1615.15</ele>
        <time>2022-05-10T08:36:38Z</time>
      </trkpt>
      <trkpt lat="44.2519" lon="6.389">
        <ele>1618.04</ele>
        <time>2022-05-10T08:36:59Z</time>
      </trkpt>
      <trkpt lat="44.25196" lon="6.38909">
        <ele>1619.48</ele>
        <time>2022-05-10T08:37:15Z</time>
      </trkpt>
      <trkpt lat="44.252" lon="6.3891">
        <ele>1619.48</ele>
        <time>2022-05-10T08:37:38Z</time>
      </trkpt>
      <trkpt lat="44.25197" lon="6.38906">
        <ele>1619.48</ele>
        <time>2022-05-10T08:38:02Z</time>
      </trkpt>
      <trkpt lat="44.25191" lon="6.38901">
        <ele>1619.48</ele>
        <time>2022-05-10T08:38:20Z</time>
      </trkpt>
      <trkpt lat="44.25179" lon="6.389">
        <ele>1621.4</ele>
        <time>2022-05-10T08:38:38Z</time>
      </trkpt>
      <trkpt lat="44.25169" lon="6.38902">
        <ele>1623.8</ele>
        <time>2022-05-10T08:38:56Z</time>
      </trkpt>
      <trkpt lat="44.25153" lon="6.38899">
        <ele>1626.69</ele>
        <time>2022-05-10T08:39:18Z</time>
      </trkpt>
      <trkpt lat="44.25141" lon="6.38902">
        <ele>1629.09</ele>
        <time>2022-05-10T08:39:37Z</time>
      </trkpt>
      <trkpt lat="44.25125" lon="6.38911">
        <ele>1631.98</ele>
        <time>2022-05-10T08:40:01Z</time>
      </trkpt>
      <trkpt lat="44.25117" lon="6.38918">
        <ele>1633.9</ele>
        <time>2022-05-10T08:40:21Z</time>
      </trkpt>
      <trkpt lat="44.25103" lon="6.38928">
        <ele>1636.3</ele>
        <time>2022-05-10T08:40:42Z</time>
      </trkpt>
      <trkpt lat="44.25095" lon="6.38936">
        <ele>1638.7</ele>
        <time>2022-05-10T08:41:02Z</time>
      </trkpt>
      <trkpt lat="44.25088" lon="6.38943">
        <ele>1640.63</ele>
        <time>2022-05-10T08:41:19Z</time>
      </trkpt>
      <trkpt lat="44.25089" lon="6.38953">
        <ele>1641.59</ele>
        <time>2022-05-10T08:41:47Z</time>
      </trkpt>
      <trkpt lat="44.25083" lon="6.38951">
        <ele>1641.59</ele>
        <time>2022-05-10T08:42:00Z</time>
      </trkpt>
      <trkpt lat="44.25082" lon="6.38953">
        <ele>1644.47</ele>
        <time>2022-05-10T08:42:15Z</time>
      </trkpt>
      <trkpt lat="44.25094" lon="6.38958">
        <ele>1647.36</ele>
        <time>2022-05-10T08:42:32Z</time>
      </trkpt>
      <trkpt lat="44.25107" lon="6.38961">
        <ele>1650.24</ele>
        <time>2022-05-10T08:42:52Z</time>
      </trkpt>
      <trkpt lat="44.25121" lon="6.38964">
        <ele>1652.64</ele>
        <time>2022-05-10T08:43:13Z</time>
      </trkpt>
      <trkpt lat="44.25135" lon="6.38969">
        <ele>1654.57</ele>
        <time>2022-05-10T08:43:33Z</time>
      </trkpt>
      <trkpt lat="44.25148" lon="6.38975">
        <ele>1657.93</ele>
        <time>2022-05-10T08:43:55Z</time>
      </trkpt>
      <trkpt lat="44.25161" lon="6.38986">
        <ele>1660.33</ele>
        <time>2022-05-10T08:44:16Z</time>
      </trkpt>
      <trkpt lat="44.25171" lon="6.38998">
        <ele>1661.78</ele>
        <time>2022-05-10T08:44:38Z</time>
      </trkpt>
      <trkpt lat="44.25177" lon="6.39012">
        <ele>1664.18</ele>
        <time>2022-05-10T08:44:56Z</time>
      </trkpt>
      <trkpt lat="44.25182" lon="6.3903">
        <ele>1666.1</ele>
        <time>2022-05-10T08:45:16Z</time>
      </trkpt>
      <trkpt lat="44.25189" lon="6.39049">
        <ele>1668.99</ele>
        <time>2022-05-10T08:45:38Z</time>
      </trkpt>
      <trkpt lat="44.25191" lon="6.39066">
        <ele>1671.39</ele>
        <time>2022-05-10T08:45:58Z</time>
      </trkpt>
      <trkpt lat="44.25194" lon="6.39083">
        <ele>1672.83</ele>
        <time>2022-05-10T08:46:19Z</time>
      </trkpt>
      <trkpt lat="44.25197" lon="6.39085">
        <ele>1673.31</ele>
        <time>2022-05-10T08:46:37Z</time>
      </trkpt>
      <trkpt lat="44.25193" lon="6.39077">
        <ele>1674.75</ele>
        <time>2022-05-10T08:46:51Z</time>
      </trkpt>
      <trkpt lat="44.25184" lon="6.39068">
        <ele>1676.68</ele>
        <time>2022-05-10T08:47:09Z</time>
      </trkpt>
      <trkpt lat="44.25177" lon="6.3906">
        <ele>1678.6</ele>
        <time>2022-05-10T08:47:21Z</time>
      </trkpt>
      <trkpt lat="44.25169" lon="6.39048">
        <ele>1680.04</ele>
        <time>2022-05-10T08:47:38Z</time>
      </trkpt>
      <trkpt lat="44.25161" lon="6.39042">
        <ele>1682.44</ele>
        <time>2022-05-10T08:47:53Z</time>
      </trkpt>
      <trkpt lat="44.25152" lon="6.39036">
        <ele>1683.41</ele>
        <time>2022-05-10T08:48:09Z</time>
      </trkpt>
      <trkpt lat="44.2514" lon="6.39033">
        <ele>1685.33</ele>
        <time>2022-05-10T08:48:25Z</time>
      </trkpt>
      <trkpt lat="44.25137" lon="6.39032">
        <ele>1687.25</ele>
        <time>2022-05-10T08:48:31Z</time>
      </trkpt>
      <trkpt lat="44.25124" lon="6.39031">
        <ele>1687.73</ele>
        <time>2022-05-10T08:48:49Z</time>
      </trkpt>
      <trkpt lat="44.2511" lon="6.39032">
        <ele>1689.65</ele>
        <time>2022-05-10T08:49:07Z</time>
      </trkpt>
      <trkpt lat="44.25096" lon="6.39039">
        <ele>1691.1</ele>
        <time>2022-05-10T08:49:27Z</time>
      </trkpt>
      <trkpt lat="44.25084" lon="6.39041">
        <ele>1692.06</ele>
        <time>2022-05-10T08:49:42Z</time>
      </trkpt>
      <trkpt lat="44.2508" lon="6.39041">
        <ele>1693.02</ele>
        <time>2022-05-10T08:49:54Z</time>
      </trkpt>
      <trkpt lat="44.25076" lon="6.39042">
        <ele>1693.02</ele>
        <time>2022-05-10T08:50:09Z</time>
      </trkpt>
      <trkpt lat="44.25075" lon="6.39043">
        <ele>1693.98</ele>
        <time>2022-05-10T08:50:25Z</time>
      </trkpt>
      <trkpt lat="44.25075" lon="6.39044">
        <ele>1692.54</ele>
        <time>2022-05-10T08:50:31Z</time>
      </trkpt>
      <trkpt lat="44.25076" lon="6.39048">
        <ele>1695.9</ele>
        <time>2022-05-10T08:50:42Z</time>
      </trkpt>
      <trkpt lat="44.25079" lon="6.3905">
        <ele>1695.9</ele>
        <time>2022-05-10T08:51:02Z</time>
      </trkpt>
      <trkpt lat="44.25081" lon="6.39051">
        <ele>1695.42</ele>
        <time>2022-05-10T08:51:30Z</time>
      </trkpt>
      <trkpt lat="44.2508" lon="6.39053">
        <ele>1696.86</ele>
        <time>2022-05-10T08:51:45Z</time>
      </trkpt>
      <trkpt lat="44.25076" lon="6.39057">
        <ele>1700.23</ele>
        <time>2022-05-10T08:51:56Z</time>
      </trkpt>
      <trkpt lat="44.25075" lon="6.3906">
        <ele>1703.11</ele>
        <time>2022-05-10T08:52:11Z</time>
      </trkpt>
      <trkpt lat="44.25078" lon="6.3906">
        <ele>1703.59</ele>
        <time>2022-05-10T08:52:25Z</time>
      </trkpt>
      <trkpt lat="44.2508" lon="6.39065">
        <ele>1706</ele>
        <time>2022-05-10T08:52:45Z</time>
      </trkpt>
      <trkpt lat="44.25089" lon="6.39066">
        <ele>1706</ele>
        <time>2022-05-10T08:53:02Z</time>
      </trkpt>
      <trkpt lat="44.25094" lon="6.39067">
        <ele>1706.96</ele>
        <time>2022-05-10T08:53:22Z</time>
      </trkpt>
      <trkpt lat="44.25102" lon="6.3907">
        <ele>1707.44</ele>
        <time>2022-05-10T08:53:38Z</time>
      </trkpt>
      <trkpt lat="44.25103" lon="6.39071">
        <ele>1706.96</ele>
        <time>2022-05-10T08:53:42Z</time>
      </trkpt>
      <trkpt lat="44.2511" lon="6.39076">
        <ele>1706.48</ele>
        <time>2022-05-10T08:53:58Z</time>
      </trkpt>
      <trkpt lat="44.2511" lon="6.39077">
        <ele>1707.92</ele>
        <time>2022-05-10T08:54:00Z</time>
      </trkpt>
      <trkpt lat="44.2512" lon="6.39084">
        <ele>1709.36</ele>
        <time>2022-05-10T08:54:18Z</time>
      </trkpt>
      <trkpt lat="44.25124" lon="6.39081">
        <ele>1707.92</ele>
        <time>2022-05-10T08:54:28Z</time>
      </trkpt>
      <trkpt lat="44.25131" lon="6.39087">
        <ele>1709.36</ele>
        <time>2022-05-10T08:54:47Z</time>
      </trkpt>
      <trkpt lat="44.25134" lon="6.39088">
        <ele>1709.36</ele>
        <time>2022-05-10T08:55:05Z</time>
      </trkpt>
      <trkpt lat="44.25131" lon="6.39089">
        <ele>1710.32</ele>
        <time>2022-05-10T08:55:25Z</time>
      </trkpt>
      <trkpt lat="44.25127" lon="6.39089">
        <ele>1713.69</ele>
        <time>2022-05-10T08:55:40Z</time>
      </trkpt>
      <trkpt lat="44.25126" lon="6.3909">
        <ele>1715.13</ele>
        <time>2022-05-10T08:55:59Z</time>
      </trkpt>
      <trkpt lat="44.25127" lon="6.39095">
        <ele>1717.53</ele>
        <time>2022-05-10T08:56:23Z</time>
      </trkpt>
      <trkpt lat="44.25124" lon="6.39098">
        <ele>1719.94</ele>
        <time>2022-05-10T08:56:45Z</time>
      </trkpt>
      <trkpt lat="44.25126" lon="6.39097">
        <ele>1721.86</ele>
        <time>2022-05-10T08:57:08Z</time>
      </trkpt>
      <trkpt lat="44.25127" lon="6.39103">
        <ele>1722.82</ele>
        <time>2022-05-10T08:57:29Z</time>
      </trkpt>
      <trkpt lat="44.25125" lon="6.39105">
        <ele>1722.82</ele>
        <time>2022-05-10T08:57:35Z</time>
      </trkpt>
      <trkpt lat="44.25122" lon="6.39107">
        <ele>1725.22</ele>
        <time>2022-05-10T08:57:55Z</time>
      </trkpt>
      <trkpt lat="44.2512" lon="6.39107">
        <ele>1729.07</ele>
        <time>2022-05-10T08:58:08Z</time>
      </trkpt>
      <trkpt lat="44.25119" lon="6.39109">
        <ele>1729.55</ele>
        <time>2022-05-10T08:58:25Z</time>
      </trkpt>
      <trkpt lat="44.25118" lon="6.3911">
        <ele>1729.55</ele>
        <time>2022-05-10T08:58:43Z</time>
      </trkpt>
      <trkpt lat="44.25114" lon="6.39104">
        <ele>1731.95</ele>
        <time>2022-05-10T08:59:00Z</time>
      </trkpt>
      <trkpt lat="44.25111" lon="6.39104">
        <ele>1733.39</ele>
        <time>2022-05-10T08:59:18Z</time>
      </trkpt>
      <trkpt lat="44.25109" lon="6.39108">
        <ele>1736.28</ele>
        <time>2022-05-10T08:59:34Z</time>
      </trkpt>
      <trkpt lat="44.25108" lon="6.39114">
        <ele>1738.2</ele>
        <time>2022-05-10T08:59:43Z</time>
      </trkpt>
      <trkpt lat="44.25106" lon="6.3912">
        <ele>1741.57</ele>
        <time>2022-05-10T08:59:58Z</time>
      </trkpt>
      <trkpt lat="44.25105" lon="6.39122">
        <ele>1741.57</ele>
        <time>2022-05-10T09:00:05Z</time>
      </trkpt>
      <trkpt lat="44.25107" lon="6.39121">
        <ele>1742.53</ele>
        <time>2022-05-10T09:00:23Z</time>
      </trkpt>
      <trkpt lat="44.25106" lon="6.3912">
        <ele>1742.53</ele>
        <time>2022-05-10T09:00:44Z</time>
      </trkpt>
      <trkpt lat="44.25104" lon="6.39124">
        <ele>1745.89</ele>
        <time>2022-05-10T09:01:07Z</time>
      </trkpt>
      <trkpt lat="44.25104" lon="6.39124">
        <ele>1745.89</ele>
        <time>2022-05-10T09:01:08Z</time>
      </trkpt>
      <trkpt lat="44.25104" lon="6.39125">
        <ele>1744.93</ele>
        <time>2022-05-10T09:01:12Z</time>
      </trkpt>
      <trkpt lat="44.25104" lon="6.39125">
        <ele>1745.89</ele>
        <time>2022-05-10T09:01:14Z</time>
      </trkpt>
      <trkpt lat="44.25107" lon="6.39129">
        <ele>1747.33</ele>
        <time>2022-05-10T09:01:32Z</time>
      </trkpt>
      <trkpt lat="44.25106" lon="6.39133">
        <ele>1750.22</ele>
        <time>2022-05-10T09:01:51Z</time>
      </trkpt>
      <trkpt lat="44.25104" lon="6.39131">
        <ele>1752.62</ele>
        <time>2022-05-10T09:02:09Z</time>
      </trkpt>
      <trkpt lat="44.25103" lon="6.39132">
        <ele>1755.02</ele>
        <time>2022-05-10T09:02:23Z</time>
      </trkpt>
      <trkpt lat="44.25102" lon="6.39132">
        <ele>1755.02</ele>
        <time>2022-05-10T09:02:41Z</time>
      </trkpt>
      <trkpt lat="44.25099" lon="6.39133">
        <ele>1757.43</ele>
        <time>2022-05-10T09:02:56Z</time>
      </trkpt>
      <trkpt lat="44.25099" lon="6.3914">
        <ele>1759.83</ele>
        <time>2022-05-10T09:03:13Z</time>
      </trkpt>
      <trkpt lat="44.251" lon="6.39147">
        <ele>1759.83</ele>
        <time>2022-05-10T09:03:33Z</time>
      </trkpt>
      <trkpt lat="44.25102" lon="6.39153">
        <ele>1762.71</ele>
        <time>2022-05-10T09:03:50Z</time>
      </trkpt>
      <trkpt lat="44.25094" lon="6.39148">
        <ele>1765.12</ele>
        <time>2022-05-10T09:04:06Z</time>
      </trkpt>
      <trkpt lat="44.2509" lon="6.39133">
        <ele>1768</ele>
        <time>2022-05-10T09:04:22Z</time>
      </trkpt>
      <trkpt lat="44.25088" lon="6.39129">
        <ele>1768.48</ele>
        <time>2022-05-10T09:04:40Z</time>
      </trkpt>
      <trkpt lat="44.25089" lon="6.3913">
        <ele>1768.48</ele>
        <time>2022-05-10T09:05:04Z</time>
      </trkpt>
      <trkpt lat="44.25087" lon="6.39127">
        <ele>1768.48</ele>
        <time>2022-05-10T09:05:19Z</time>
      </trkpt>
      <trkpt lat="44.25088" lon="6.39127">
        <ele>1768.48</ele>
        <time>2022-05-10T09:05:35Z</time>
      </trkpt>
      <trkpt lat="44.25088" lon="6.39127">
        <ele>1768.48</ele>
        <time>2022-05-10T09:05:56Z</time>
      </trkpt>
      <trkpt lat="44.25087" lon="6.39127">
        <ele>1768.96</ele>
        <time>2022-05-10T09:06:23Z</time>
      </trkpt>
      <trkpt lat="44.25086" lon="6.39126">
        <ele>1768.96</ele>
        <time>2022-05-10T09:06:49Z</time>
      </trkpt>
      <trkpt lat="44.25088" lon="6.39127">
        <ele>1768.96</ele>
        <time>2022-05-10T09:07:13Z</time>
      </trkpt>
      <trkpt lat="44.2509" lon="6.3913">
        <ele>1768.96</ele>
        <time>2022-05-10T09:07:34Z</time>
      </trkpt>
      <trkpt lat="44.2509" lon="6.39132">
        <ele>1769.44</ele>
        <time>2022-05-10T09:07:58Z</time>
      </trkpt>
      <trkpt lat="44.25088" lon="6.39135">
        <ele>1769.44</ele>
        <time>2022-05-10T09:08:24Z</time>
      </trkpt>
      <trkpt lat="44.25089" lon="6.39134">
        <ele>1769.44</ele>
        <time>2022-05-10T09:08:58Z</time>
      </trkpt>
      <trkpt lat="44.2509" lon="6.39129">
        <ele>1769.44</ele>
        <time>2022-05-10T09:09:26Z</time>
      </trkpt>
      <trkpt lat="44.25089" lon="6.39129">
        <ele>1769.44</ele>
        <time>2022-05-10T09:09:41Z</time>
      </trkpt>
      <trkpt lat="44.2509" lon="6.39129">
        <ele>1768.48</ele>
        <time>2022-05-10T09:09:59Z</time>
      </trkpt>
      <trkpt lat="44.25091" lon="6.39128">
        <ele>1768.48</ele>
        <time>2022-05-10T09:10:29Z</time>
      </trkpt>
      <trkpt lat="44.25093" lon="6.39128">
        <ele>1768.96</ele>
        <time>2022-05-10T09:11:03Z</time>
      </trkpt>
      <trkpt lat="44.25093" lon="6.39128">
        <ele>1768.96</ele>
        <time>2022-05-10T09:11:38Z</time>
      </trkpt>
      <trkpt lat="44.25092" lon="6.39127">
        <ele>1768.96</ele>
        <time>2022-05-10T09:12:14Z</time>
      </trkpt>
      <trkpt lat="44.25091" lon="6.39129">
        <ele>1768.96</ele>
        <time>2022-05-10T09:12:54Z</time>
      </trkpt>
      <trkpt lat="44.25091" lon="6.39128">
        <ele>1769.44</ele>
        <time>2022-05-10T09:13:28Z</time>
      </trkpt>
      <trkpt lat="44.25092" lon="6.39128">
        <ele>1770.41</ele>
        <time>2022-05-10T09:14:03Z</time>
      </trkpt>
      <trkpt lat="44.25092" lon="6.39128">
        <ele>1768.96</ele>
        <time>2022-05-10T09:14:29Z</time>
      </trkpt>
      <trkpt lat="44.2509" lon="6.39129">
        <ele>1769.44</ele>
        <time>2022-05-10T09:15:02Z</time>
      </trkpt>
      <trkpt lat="44.25091" lon="6.39129">
        <ele>1769.44</ele>
        <time>2022-05-10T09:15:36Z</time>
      </trkpt>
      <trkpt lat="44.25092" lon="6.39129">
        <ele>1769.44</ele>
        <time>2022-05-10T09:16:13Z</time>
      </trkpt>
      <trkpt lat="44.25094" lon="6.39128">
        <ele>1770.89</ele>
        <time>2022-05-10T09:16:47Z</time>
      </trkpt>
      <trkpt lat="44.25093" lon="6.39128">
        <ele>1770.89</ele>
        <time>2022-05-10T09:16:48Z</time>
      </trkpt>
      <trkpt lat="44.25094" lon="6.39131">
        <ele>1770.89</ele>
        <time>2022-05-10T09:17:04Z</time>
      </trkpt>
      <trkpt lat="44.25093" lon="6.39131">
        <ele>1771.37</ele>
        <time>2022-05-10T09:17:06Z</time>
      </trkpt>
      <trkpt lat="44.25093" lon="6.39132">
        <ele>1771.85</ele>
        <time>2022-05-10T09:17:31Z</time>
      </trkpt>
      <trkpt lat="44.25092" lon="6.3913">
        <ele>1771.85</ele>
        <time>2022-05-10T09:17:55Z</time>
      </trkpt>
      <trkpt lat="44.25089" lon="6.39128">
        <ele>1771.85</ele>
        <time>2022-05-10T09:18:15Z</time>
      </trkpt>
      <trkpt lat="44.25094" lon="6.39128">
        <ele>1771.85</ele>
        <time>2022-05-10T09:18:30Z</time>
      </trkpt>
      <trkpt lat="44.25093" lon="6.3913">
        <ele>1771.85</ele>
        <time>2022-05-10T09:18:58Z</time>
      </trkpt>
      <trkpt lat="44.25092" lon="6.39127">
        <ele>1770.41</ele>
        <time>2022-05-10T09:19:19Z</time>
      </trkpt>
      <trkpt lat="44.25091" lon="6.39128">
        <ele>1770.41</ele>
        <time>2022-05-10T09:19:49Z</time>
      </trkpt>
      <trkpt lat="44.2509" lon="6.39129">
        <ele>1769.44</ele>
        <time>2022-05-10T09:20:08Z</time>
      </trkpt>
      <trkpt lat="44.25093" lon="6.39138">
        <ele>1770.41</ele>
        <time>2022-05-10T09:20:21Z</time>
      </trkpt>
      <trkpt lat="44.25095" lon="6.39152">
        <ele>1770.89</ele>
        <time>2022-05-10T09:20:35Z</time>
      </trkpt>
      <trkpt lat="44.25095" lon="6.39168">
        <ele>1773.29</ele>
        <time>2022-05-10T09:20:51Z</time>
      </trkpt>
      <trkpt lat="44.251" lon="6.3918">
        <ele>1774.25</ele>
        <time>2022-05-10T09:21:09Z</time>
      </trkpt>
      <trkpt lat="44.25095" lon="6.39192">
        <ele>1776.65</ele>
        <time>2022-05-10T09:21:29Z</time>
      </trkpt>
      <trkpt lat="44.25089" lon="6.39203">
        <ele>1780.02</ele>
        <time>2022-05-10T09:21:48Z</time>
      </trkpt>
      <trkpt lat="44.25083" lon="6.39212">
        <ele>1781.94</ele>
        <time>2022-05-10T09:22:05Z</time>
      </trkpt>
      <trkpt lat="44.25086" lon="6.39218">
        <ele>1784.82</ele>
        <time>2022-05-10T09:22:23Z</time>
      </trkpt>
      <trkpt lat="44.25093" lon="6.39218">
        <ele>1784.82</ele>
        <time>2022-05-10T09:22:38Z</time>
      </trkpt>
      <trkpt lat="44.25102" lon="6.39225">
        <ele>1786.75</ele>
        <time>2022-05-10T09:22:57Z</time>
      </trkpt>
      <trkpt lat="44.25102" lon="6.39233">
        <ele>1789.15</ele>
        <time>2022-05-10T09:23:16Z</time>
      </trkpt>
      <trkpt lat="44.25099" lon="6.39237">
        <ele>1792.52</ele>
        <time>2022-05-10T09:23:29Z</time>
      </trkpt>
      <trkpt lat="44.25099" lon="6.39238">
        <ele>1790.11</ele>
        <time>2022-05-10T09:23:32Z</time>
      </trkpt>
      <trkpt lat="44.25099" lon="6.39239">
        <ele>1791.55</ele>
        <time>2022-05-10T09:23:34Z</time>
      </trkpt>
      <trkpt lat="44.25101" lon="6.39244">
        <ele>1794.44</ele>
        <time>2022-05-10T09:23:50Z</time>
      </trkpt>
      <trkpt lat="44.25106" lon="6.39252">
        <ele>1796.84</ele>
        <time>2022-05-10T09:24:09Z</time>
      </trkpt>
      <trkpt lat="44.25111" lon="6.39258">
        <ele>1799.73</ele>
        <time>2022-05-10T09:24:26Z</time>
      </trkpt>
      <trkpt lat="44.25114" lon="6.39263">
        <ele>1802.13</ele>
        <time>2022-05-10T09:24:43Z</time>
      </trkpt>
      <trkpt lat="44.25112" lon="6.39268">
        <ele>1803.57</ele>
        <time>2022-05-10T09:25:00Z</time>
      </trkpt>
      <trkpt lat="44.25111" lon="6.3927">
        <ele>1805.01</ele>
        <time>2022-05-10T09:25:18Z</time>
      </trkpt>
      <trkpt lat="44.25115" lon="6.39275">
        <ele>1807.9</ele>
        <time>2022-05-10T09:25:37Z</time>
      </trkpt>
      <trkpt lat="44.25116" lon="6.39282">
        <ele>1809.34</ele>
        <time>2022-05-10T09:25:56Z</time>
      </trkpt>
      <trkpt lat="44.25119" lon="6.39287">
        <ele>1812.7</ele>
        <time>2022-05-10T09:26:12Z</time>
      </trkpt>
      <trkpt lat="44.2512" lon="6.39293">
        <ele>1814.15</ele>
        <time>2022-05-10T09:26:30Z</time>
      </trkpt>
      <trkpt lat="44.25123" lon="6.39299">
        <ele>1817.51</ele>
        <time>2022-05-10T09:26:47Z</time>
      </trkpt>
      <trkpt lat="44.25123" lon="6.39304">
        <ele>1818.95</ele>
        <time>2022-05-10T09:27:07Z</time>
      </trkpt>
      <trkpt lat="44.25123" lon="6.3931">
        <ele>1821.35</ele>
        <time>2022-05-10T09:27:26Z</time>
      </trkpt>
      <trkpt lat="44.25124" lon="6.39319">
        <ele>1824.72</ele>
        <time>2022-05-10T09:27:46Z</time>
      </trkpt>
      <trkpt lat="44.25124" lon="6.39324">
        <ele>1826.64</ele>
        <time>2022-05-10T09:28:03Z</time>
      </trkpt>
      <trkpt lat="44.25121" lon="6.39326">
        <ele>1828.56</ele>
        <time>2022-05-10T09:28:19Z</time>
      </trkpt>
      <trkpt lat="44.2512" lon="6.39331">
        <ele>1831.45</ele>
        <time>2022-05-10T09:28:38Z</time>
      </trkpt>
      <trkpt lat="44.25121" lon="6.39338">
        <ele>1834.33</ele>
        <time>2022-05-10T09:28:56Z</time>
      </trkpt>
      <trkpt lat="44.2512" lon="6.39341">
        <ele>1836.74</ele>
        <time>2022-05-10T09:29:14Z</time>
      </trkpt>
      <trkpt lat="44.25116" lon="6.39346">
        <ele>1838.18</ele>
        <time>2022-05-10T09:29:30Z</time>
      </trkpt>
      <trkpt lat="44.25116" lon="6.39351">
        <ele>1840.1</ele>
        <time>2022-05-10T09:29:48Z</time>
      </trkpt>
      <trkpt lat="44.25118" lon="6.39355">
        <ele>1841.06</ele>
        <time>2022-05-10T09:30:04Z</time>
      </trkpt>
      <trkpt lat="44.25118" lon="6.39358">
        <ele>1842.98</ele>
        <time>2022-05-10T09:30:20Z</time>
      </trkpt>
      <trkpt lat="44.25118" lon="6.39363">
        <ele>1845.39</ele>
        <time>2022-05-10T09:30:35Z</time>
      </trkpt>
      <trkpt lat="44.25114" lon="6.39363">
        <ele>1847.31</ele>
        <time>2022-05-10T09:30:51Z</time>
      </trkpt>
      <trkpt lat="44.25112" lon="6.39364">
        <ele>1847.79</ele>
        <time>2022-05-10T09:31:12Z</time>
      </trkpt>
      <trkpt lat="44.2511" lon="6.39363">
        <ele>1849.23</ele>
        <time>2022-05-10T09:31:27Z</time>
      </trkpt>
      <trkpt lat="44.25109" lon="6.39365">
        <ele>1851.16</ele>
        <time>2022-05-10T09:31:47Z</time>
      </trkpt>
      <trkpt lat="44.25107" lon="6.39366">
        <ele>1852.6</ele>
        <time>2022-05-10T09:32:04Z</time>
      </trkpt>
      <trkpt lat="44.25105" lon="6.39368">
        <ele>1855.48</ele>
        <time>2022-05-10T09:32:20Z</time>
      </trkpt>
      <trkpt lat="44.25105" lon="6.3937">
        <ele>1857.4</ele>
        <time>2022-05-10T09:32:35Z</time>
      </trkpt>
      <trkpt lat="44.25101" lon="6.39371">
        <ele>1857.89</ele>
        <time>2022-05-10T09:33:00Z</time>
      </trkpt>
      <trkpt lat="44.25105" lon="6.39381">
        <ele>1860.29</ele>
        <time>2022-05-10T09:33:14Z</time>
      </trkpt>
      <trkpt lat="44.25108" lon="6.39387">
        <ele>1861.73</ele>
        <time>2022-05-10T09:33:29Z</time>
      </trkpt>
      <trkpt lat="44.25104" lon="6.39386">
        <ele>1863.65</ele>
        <time>2022-05-10T09:33:41Z</time>
      </trkpt>
      <trkpt lat="44.25102" lon="6.39383">
        <ele>1865.09</ele>
        <time>2022-05-10T09:33:55Z</time>
      </trkpt>
      <trkpt lat="44.251" lon="6.39387">
        <ele>1867.5</ele>
        <time>2022-05-10T09:34:11Z</time>
      </trkpt>
      <trkpt lat="44.251" lon="6.3939">
        <ele>1868.94</ele>
        <time>2022-05-10T09:34:25Z</time>
      </trkpt>
      <trkpt lat="44.25098" lon="6.39393">
        <ele>1870.86</ele>
        <time>2022-05-10T09:34:41Z</time>
      </trkpt>
      <trkpt lat="44.25096" lon="6.39396">
        <ele>1874.23</ele>
        <time>2022-05-10T09:34:57Z</time>
      </trkpt>
      <trkpt lat="44.25091" lon="6.39397">
        <ele>1874.71</ele>
        <time>2022-05-10T09:35:14Z</time>
      </trkpt>
      <trkpt lat="44.25091" lon="6.39402">
        <ele>1877.59</ele>
        <time>2022-05-10T09:35:28Z</time>
      </trkpt>
      <trkpt lat="44.25094" lon="6.3941">
        <ele>1880</ele>
        <time>2022-05-10T09:35:45Z</time>
      </trkpt>
      <trkpt lat="44.25094" lon="6.39414">
        <ele>1882.4</ele>
        <time>2022-05-10T09:36:02Z</time>
      </trkpt>
      <trkpt lat="44.25091" lon="6.39414">
        <ele>1883.36</ele>
        <time>2022-05-10T09:36:18Z</time>
      </trkpt>
      <trkpt lat="44.2509" lon="6.39418">
        <ele>1885.28</ele>
        <time>2022-05-10T09:36:30Z</time>
      </trkpt>
      <trkpt lat="44.25087" lon="6.3942">
        <ele>1887.69</ele>
        <time>2022-05-10T09:36:46Z</time>
      </trkpt>
      <trkpt lat="44.25086" lon="6.39424">
        <ele>1890.09</ele>
        <time>2022-05-10T09:37:00Z</time>
      </trkpt>
      <trkpt lat="44.25084" lon="6.39425">
        <ele>1891.53</ele>
        <time>2022-05-10T09:37:14Z</time>
      </trkpt>
      <trkpt lat="44.25084" lon="6.39429">
        <ele>1892.97</ele>
        <time>2022-05-10T09:37:28Z</time>
      </trkpt>
      <trkpt lat="44.25084" lon="6.39437">
        <ele>1896.34</ele>
        <time>2022-05-10T09:37:43Z</time>
      </trkpt>
      <trkpt lat="44.25084" lon="6.39443">
        <ele>1898.26</ele>
        <time>2022-05-10T09:37:59Z</time>
      </trkpt>
      <trkpt lat="44.25082" lon="6.39446">
        <ele>1900.18</ele>
        <time>2022-05-10T09:38:13Z</time>
      </trkpt>
      <trkpt lat="44.25082" lon="6.39444">
        <ele>1901.63</ele>
        <time>2022-05-10T09:38:38Z</time>
      </trkpt>
      <trkpt lat="44.25082" lon="6.39452">
        <ele>1904.99</ele>
        <time>2022-05-10T09:38:52Z</time>
      </trkpt>
      <trkpt lat="44.25082" lon="6.39453">
        <ele>1904.99</ele>
        <time>2022-05-10T09:38:53Z</time>
      </trkpt>
      <trkpt lat="44.25082" lon="6.39458">
        <ele>1906.43</ele>
        <time>2022-05-10T09:39:06Z</time>
      </trkpt>
      <trkpt lat="44.25084" lon="6.39467">
        <ele>1908.35</ele>
        <time>2022-05-10T09:39:23Z</time>
      </trkpt>
      <trkpt lat="44.25081" lon="6.39466">
        <ele>1909.32</ele>
        <time>2022-05-10T09:39:38Z</time>
      </trkpt>
      <trkpt lat="44.2508" lon="6.39466">
        <ele>1910.76</ele>
        <time>2022-05-10T09:39:41Z</time>
      </trkpt>
      <trkpt lat="44.25081" lon="6.39473">
        <ele>1912.2</ele>
        <time>2022-05-10T09:39:55Z</time>
      </trkpt>
      <trkpt lat="44.25082" lon="6.39482">
        <ele>1915.08</ele>
        <time>2022-05-10T09:40:12Z</time>
      </trkpt>
      <trkpt lat="44.25082" lon="6.39487">
        <ele>1916.04</ele>
        <time>2022-05-10T09:40:31Z</time>
      </trkpt>
      <trkpt lat="44.25082" lon="6.39493">
        <ele>1917.97</ele>
        <time>2022-05-10T09:40:47Z</time>
      </trkpt>
      <trkpt lat="44.25082" lon="6.39502">
        <ele>1919.41</ele>
        <time>2022-05-10T09:41:03Z</time>
      </trkpt>
      <trkpt lat="44.25083" lon="6.39505">
        <ele>1921.33</ele>
        <time>2022-05-10T09:41:22Z</time>
      </trkpt>
      <trkpt lat="44.25084" lon="6.39504">
        <ele>1922.77</ele>
        <time>2022-05-10T09:41:41Z</time>
      </trkpt>
      <trkpt lat="44.2508" lon="6.39502">
        <ele>1923.25</ele>
        <time>2022-05-10T09:42:01Z</time>
      </trkpt>
      <trkpt lat="44.25075" lon="6.39501">
        <ele>1926.62</ele>
        <time>2022-05-10T09:42:15Z</time>
      </trkpt>
      <trkpt lat="44.2507" lon="6.395">
        <ele>1929.02</ele>
        <time>2022-05-10T09:42:31Z</time>
      </trkpt>
      <trkpt lat="44.25066" lon="6.395">
        <ele>1931.91</ele>
        <time>2022-05-10T09:42:47Z</time>
      </trkpt>
      <trkpt lat="44.25065" lon="6.39505">
        <ele>1935.27</ele>
        <time>2022-05-10T09:43:01Z</time>
      </trkpt>
      <trkpt lat="44.25065" lon="6.39508">
        <ele>1935.75</ele>
        <time>2022-05-10T09:43:10Z</time>
      </trkpt>
      <trkpt lat="44.25065" lon="6.39513">
        <ele>1936.23</ele>
        <time>2022-05-10T09:43:34Z</time>
      </trkpt>
      <trkpt lat="44.25066" lon="6.39523">
        <ele>1939.12</ele>
        <time>2022-05-10T09:43:48Z</time>
      </trkpt>
      <trkpt lat="44.25067" lon="6.39533">
        <ele>1942</ele>
        <time>2022-05-10T09:44:05Z</time>
      </trkpt>
      <trkpt lat="44.25067" lon="6.39536">
        <ele>1943.92</ele>
        <time>2022-05-10T09:44:11Z</time>
      </trkpt>
      <trkpt lat="44.25067" lon="6.39544">
        <ele>1945.36</ele>
        <time>2022-05-10T09:44:28Z</time>
      </trkpt>
      <trkpt lat="44.25066" lon="6.39551">
        <ele>1947.29</ele>
        <time>2022-05-10T09:44:46Z</time>
      </trkpt>
      <trkpt lat="44.25067" lon="6.39556">
        <ele>1949.21</ele>
        <time>2022-05-10T09:45:03Z</time>
      </trkpt>
      <trkpt lat="44.25066" lon="6.39566">
        <ele>1952.09</ele>
        <time>2022-05-10T09:45:22Z</time>
      </trkpt>
      <trkpt lat="44.25067" lon="6.39573">
        <ele>1953.54</ele>
        <time>2022-05-10T09:45:38Z</time>
      </trkpt>
      <trkpt lat="44.25068" lon="6.3958">
        <ele>1955.46</ele>
        <time>2022-05-10T09:45:55Z</time>
      </trkpt>
      <trkpt lat="44.25068" lon="6.39586">
        <ele>1957.38</ele>
        <time>2022-05-10T09:46:13Z</time>
      </trkpt>
      <trkpt lat="44.25065" lon="6.39589">
        <ele>1959.3</ele>
        <time>2022-05-10T09:46:28Z</time>
      </trkpt>
      <trkpt lat="44.25063" lon="6.39593">
        <ele>1961.23</ele>
        <time>2022-05-10T09:46:45Z</time>
      </trkpt>
      <trkpt lat="44.25061" lon="6.39598">
        <ele>1963.63</ele>
        <time>2022-05-10T09:47:01Z</time>
      </trkpt>
      <trkpt lat="44.25061" lon="6.39601">
        <ele>1965.55</ele>
        <time>2022-05-10T09:47:14Z</time>
      </trkpt>
      <trkpt lat="44.2506" lon="6.39605">
        <ele>1966.99</ele>
        <time>2022-05-10T09:47:29Z</time>
      </trkpt>
      <trkpt lat="44.25056" lon="6.39603">
        <ele>1968.92</ele>
        <time>2022-05-10T09:47:45Z</time>
      </trkpt>
      <trkpt lat="44.25056" lon="6.39608">
        <ele>1970.36</ele>
        <time>2022-05-10T09:48:01Z</time>
      </trkpt>
      <trkpt lat="44.25052" lon="6.39608">
        <ele>1971.8</ele>
        <time>2022-05-10T09:48:15Z</time>
      </trkpt>
      <trkpt lat="44.25052" lon="6.3961">
        <ele>1972.28</ele>
        <time>2022-05-10T09:48:29Z</time>
      </trkpt>
      <trkpt lat="44.25052" lon="6.39611">
        <ele>1973.24</ele>
        <time>2022-05-10T09:48:56Z</time>
      </trkpt>
      <trkpt lat="44.25052" lon="6.39612">
        <ele>1973.24</ele>
        <time>2022-05-10T09:49:12Z</time>
      </trkpt>
      <trkpt lat="44.25056" lon="6.39623">
        <ele>1972.28</ele>
        <time>2022-05-10T09:49:25Z</time>
      </trkpt>
      <trkpt lat="44.25057" lon="6.39632">
        <ele>1972.28</ele>
        <time>2022-05-10T09:49:36Z</time>
      </trkpt>
      <trkpt lat="44.25059" lon="6.3965">
        <ele>1970.36</ele>
        <time>2022-05-10T09:49:51Z</time>
      </trkpt>
      <trkpt lat="44.25061" lon="6.39658">
        <ele>1969.4</ele>
        <time>2022-05-10T09:50:04Z</time>
      </trkpt>
      <trkpt lat="44.25062" lon="6.39676">
        <ele>1967.48</ele>
        <time>2022-05-10T09:50:18Z</time>
      </trkpt>
      <trkpt lat="44.2506" lon="6.39693">
        <ele>1969.4</ele>
        <time>2022-05-10T09:50:34Z</time>
      </trkpt>
      <trkpt lat="44.2506" lon="6.39704">
        <ele>1971.32</ele>
        <time>2022-05-10T09:50:49Z</time>
      </trkpt>
      <trkpt lat="44.25061" lon="6.39711">
        <ele>1971.8</ele>
        <time>2022-05-10T09:50:57Z</time>
      </trkpt>
      <trkpt lat="44.25064" lon="6.3972">
        <ele>1971.8</ele>
        <time>2022-05-10T09:51:13Z</time>
      </trkpt>
      <trkpt lat="44.25066" lon="6.39724">
        <ele>1973.24</ele>
        <time>2022-05-10T09:51:30Z</time>
      </trkpt>
      <trkpt lat="44.25067" lon="6.39724">
        <ele>1973.24</ele>
        <time>2022-05-10T09:51:31Z</time>
      </trkpt>
      <trkpt lat="44.25069" lon="6.39725">
        <ele>1973.24</ele>
        <time>2022-05-10T09:51:34Z</time>
      </trkpt>
      <trkpt lat="44.2508" lon="6.39731">
        <ele>1974.2</ele>
        <time>2022-05-10T09:51:49Z</time>
      </trkpt>
      <trkpt lat="44.25086" lon="6.39735">
        <ele>1976.13</ele>
        <time>2022-05-10T09:52:05Z</time>
      </trkpt>
      <trkpt lat="44.2509" lon="6.3974">
        <ele>1976.61</ele>
        <time>2022-05-10T09:52:20Z</time>
      </trkpt>
      <trkpt lat="44.25095" lon="6.3975">
        <ele>1977.09</ele>
        <time>2022-05-10T09:52:34Z</time>
      </trkpt>
      <trkpt lat="44.25103" lon="6.39765">
        <ele>1978.05</ele>
        <time>2022-05-10T09:52:48Z</time>
      </trkpt>
      <trkpt lat="44.25112" lon="6.39779">
        <ele>1979.49</ele>
        <time>2022-05-10T09:53:05Z</time>
      </trkpt>
      <trkpt lat="44.25116" lon="6.3979">
        <ele>1981.41</ele>
        <time>2022-05-10T09:53:20Z</time>
      </trkpt>
      <trkpt lat="44.25122" lon="6.39801">
        <ele>1982.38</ele>
        <time>2022-05-10T09:53:36Z</time>
      </trkpt>
      <trkpt lat="44.25131" lon="6.39818">
        <ele>1985.26</ele>
        <time>2022-05-10T09:53:53Z</time>
      </trkpt>
      <trkpt lat="44.25133" lon="6.39824">
        <ele>1986.7</ele>
        <time>2022-05-10T09:54:09Z</time>
      </trkpt>
      <trkpt lat="44.25136" lon="6.39835">
        <ele>1989.59</ele>
        <time>2022-05-10T09:54:25Z</time>
      </trkpt>
      <trkpt lat="44.25138" lon="6.39845">
        <ele>1992.95</ele>
        <time>2022-05-10T09:54:43Z</time>
      </trkpt>
      <trkpt lat="44.25142" lon="6.39855">
        <ele>1995.83</ele>
        <time>2022-05-10T09:54:58Z</time>
      </trkpt>
      <trkpt lat="44.2515" lon="6.39864">
        <ele>1998.24</ele>
        <time>2022-05-10T09:55:16Z</time>
      </trkpt>
      <trkpt lat="44.25153" lon="6.39867">
        <ele>1998.72</ele>
        <time>2022-05-10T09:55:32Z</time>
      </trkpt>
      <trkpt lat="44.25158" lon="6.39872">
        <ele>1998.72</ele>
        <time>2022-05-10T09:55:46Z</time>
      </trkpt>
      <trkpt lat="44.25164" lon="6.39878">
        <ele>1997.76</ele>
        <time>2022-05-10T09:56:00Z</time>
      </trkpt>
      <trkpt lat="44.25167" lon="6.39881">
        <ele>1997.76</ele>
        <time>2022-05-10T09:56:14Z</time>
      </trkpt>
      <trkpt lat="44.25168" lon="6.39882">
        <ele>1997.76</ele>
        <time>2022-05-10T09:56:33Z</time>
      </trkpt>
      <trkpt lat="44.25172" lon="6.39886">
        <ele>1997.76</ele>
        <time>2022-05-10T09:56:54Z</time>
      </trkpt>
      <trkpt lat="44.25176" lon="6.39889">
        <ele>1997.76</ele>
        <time>2022-05-10T09:57:08Z</time>
      </trkpt>
      <trkpt lat="44.25179" lon="6.39891">
        <ele>1997.76</ele>
        <time>2022-05-10T09:57:15Z</time>
      </trkpt>
      <trkpt lat="44.2519" lon="6.39902">
        <ele>1997.28</ele>
        <time>2022-05-10T09:57:32Z</time>
      </trkpt>
      <trkpt lat="44.25196" lon="6.39907">
        <ele>1995.83</ele>
        <time>2022-05-10T09:57:46Z</time>
      </trkpt>
      <trkpt lat="44.25198" lon="6.39916">
        <ele>1994.39</ele>
        <time>2022-05-10T09:58:06Z</time>
      </trkpt>
      <trkpt lat="44.25205" lon="6.39924">
        <ele>1992.47</ele>
        <time>2022-05-10T09:58:26Z</time>
      </trkpt>
      <trkpt lat="44.25213" lon="6.39936">
        <ele>1992.47</ele>
        <time>2022-05-10T09:58:43Z</time>
      </trkpt>
      <trkpt lat="44.2522" lon="6.39944">
        <ele>1991.03</ele>
        <time>2022-05-10T09:59:04Z</time>
      </trkpt>
      <trkpt lat="44.25223" lon="6.39949">
        <ele>1990.07</ele>
        <time>2022-05-10T09:59:10Z</time>
      </trkpt>
      <trkpt lat="44.25226" lon="6.39953">
        <ele>1989.1</ele>
        <time>2022-05-10T09:59:14Z</time>
      </trkpt>
      <trkpt lat="44.25238" lon="6.39959">
        <ele>1988.14</ele>
        <time>2022-05-10T09:59:28Z</time>
      </trkpt>
      <trkpt lat="44.2525" lon="6.39969">
        <ele>1987.18</ele>
        <time>2022-05-10T09:59:42Z</time>
      </trkpt>
      <trkpt lat="44.25256" lon="6.39973">
        <ele>1987.18</ele>
        <time>2022-05-10T10:00:00Z</time>
      </trkpt>
      <trkpt lat="44.25256" lon="6.39973">
        <ele>1987.18</ele>
        <time>2022-05-10T10:00:31Z</time>
      </trkpt>
      <trkpt lat="44.25258" lon="6.39975">
        <ele>1986.7</ele>
        <time>2022-05-10T10:00:52Z</time>
      </trkpt>
      <trkpt lat="44.25258" lon="6.39975">
        <ele>1988.14</ele>
        <time>2022-05-10T10:01:05Z</time>
      </trkpt>
      <trkpt lat="44.25264" lon="6.39985">
        <ele>1986.7</ele>
        <time>2022-05-10T10:01:14Z</time>
      </trkpt>
      <trkpt lat="44.25273" lon="6.39991">
        <ele>1986.22</ele>
        <time>2022-05-10T10:01:23Z</time>
      </trkpt>
      <trkpt lat="44.25287" lon="6.40007">
        <ele>1983.82</ele>
        <time>2022-05-10T10:01:39Z</time>
      </trkpt>
      <trkpt lat="44.25288" lon="6.40012">
        <ele>1983.34</ele>
        <time>2022-05-10T10:01:42Z</time>
      </trkpt>
      <trkpt lat="44.25291" lon="6.40018">
        <ele>1982.86</ele>
        <time>2022-05-10T10:01:47Z</time>
      </trkpt>
      <trkpt lat="44.25304" lon="6.40038">
        <ele>1980.93</ele>
        <time>2022-05-10T10:02:05Z</time>
      </trkpt>
      <trkpt lat="44.25308" lon="6.40046">
        <ele>1980.45</ele>
        <time>2022-05-10T10:02:19Z</time>
      </trkpt>
      <trkpt lat="44.25309" lon="6.40047">
        <ele>1980.45</ele>
        <time>2022-05-10T10:02:20Z</time>
      </trkpt>
      <trkpt lat="44.25322" lon="6.40068">
        <ele>1980.45</ele>
        <time>2022-05-10T10:02:41Z</time>
      </trkpt>
      <trkpt lat="44.25335" lon="6.40083">
        <ele>1979.49</ele>
        <time>2022-05-10T10:02:59Z</time>
      </trkpt>
      <trkpt lat="44.25347" lon="6.40098">
        <ele>1979.01</ele>
        <time>2022-05-10T10:03:15Z</time>
      </trkpt>
      <trkpt lat="44.25357" lon="6.40111">
        <ele>1978.53</ele>
        <time>2022-05-10T10:03:30Z</time>
      </trkpt>
      <trkpt lat="44.25367" lon="6.40125">
        <ele>1978.53</ele>
        <time>2022-05-10T10:03:47Z</time>
      </trkpt>
      <trkpt lat="44.25374" lon="6.40133">
        <ele>1977.57</ele>
        <time>2022-05-10T10:03:57Z</time>
      </trkpt>
      <trkpt lat="44.2538" lon="6.40147">
        <ele>1977.09</ele>
        <time>2022-05-10T10:04:09Z</time>
      </trkpt>
      <trkpt lat="44.25392" lon="6.40165">
        <ele>1976.13</ele>
        <time>2022-05-10T10:04:27Z</time>
      </trkpt>
      <trkpt lat="44.25396" lon="6.40171">
        <ele>1975.17</ele>
        <time>2022-05-10T10:04:41Z</time>
      </trkpt>
      <trkpt lat="44.25398" lon="6.40174">
        <ele>1975.17</ele>
        <time>2022-05-10T10:04:45Z</time>
      </trkpt>
      <trkpt lat="44.25409" lon="6.40192">
        <ele>1974.69</ele>
        <time>2022-05-10T10:05:03Z</time>
      </trkpt>
      <trkpt lat="44.25418" lon="6.40205">
        <ele>1974.69</ele>
        <time>2022-05-10T10:05:18Z</time>
      </trkpt>
      <trkpt lat="44.25426" lon="6.40221">
        <ele>1975.65</ele>
        <time>2022-05-10T10:05:32Z</time>
      </trkpt>
      <trkpt lat="44.25437" lon="6.40238">
        <ele>1978.05</ele>
        <time>2022-05-10T10:05:50Z</time>
      </trkpt>
      <trkpt lat="44.25445" lon="6.40249">
        <ele>1979.49</ele>
        <time>2022-05-10T10:06:05Z</time>
      </trkpt>
      <trkpt lat="44.25454" lon="6.40265">
        <ele>1979.01</ele>
        <time>2022-05-10T10:06:21Z</time>
      </trkpt>
      <trkpt lat="44.25459" lon="6.40278">
        <ele>1978.05</ele>
        <time>2022-05-10T10:06:31Z</time>
      </trkpt>
      <trkpt lat="44.2546" lon="6.4028">
        <ele>1977.57</ele>
        <time>2022-05-10T10:06:35Z</time>
      </trkpt>
      <trkpt lat="44.25472" lon="6.40295">
        <ele>1979.01</ele>
        <time>2022-05-10T10:06:52Z</time>
      </trkpt>
      <trkpt lat="44.25479" lon="6.40309">
        <ele>1979.97</ele>
        <time>2022-05-10T10:07:08Z</time>
      </trkpt>
      <trkpt lat="44.2549" lon="6.40324">
        <ele>1980.93</ele>
        <time>2022-05-10T10:07:25Z</time>
      </trkpt>
      <trkpt lat="44.25498" lon="6.40337">
        <ele>1980.93</ele>
        <time>2022-05-10T10:07:41Z</time>
      </trkpt>
      <trkpt lat="44.25505" lon="6.40347">
        <ele>1981.9</ele>
        <time>2022-05-10T10:07:55Z</time>
      </trkpt>
      <trkpt lat="44.25509" lon="6.40357">
        <ele>1981.41</ele>
        <time>2022-05-10T10:08:09Z</time>
      </trkpt>
      <trkpt lat="44.25511" lon="6.40361">
        <ele>1979.97</ele>
        <time>2022-05-10T10:08:24Z</time>
      </trkpt>
      <trkpt lat="44.2551" lon="6.40361">
        <ele>1979.97</ele>
        <time>2022-05-10T10:08:41Z</time>
      </trkpt>
      <trkpt lat="44.25513" lon="6.40364">
        <ele>1979.97</ele>
        <time>2022-05-10T10:08:59Z</time>
      </trkpt>
      <trkpt lat="44.2552" lon="6.40368">
        <ele>1981.41</ele>
        <time>2022-05-10T10:09:08Z</time>
      </trkpt>
      <trkpt lat="44.25522" lon="6.40368">
        <ele>1981.9</ele>
        <time>2022-05-10T10:09:13Z</time>
      </trkpt>
      <trkpt lat="44.25534" lon="6.40383">
        <ele>1984.3</ele>
        <time>2022-05-10T10:09:31Z</time>
      </trkpt>
      <trkpt lat="44.25544" lon="6.40396">
        <ele>1985.26</ele>
        <time>2022-05-10T10:09:48Z</time>
      </trkpt>
      <trkpt lat="44.25555" lon="6.40411">
        <ele>1987.18</ele>
        <time>2022-05-10T10:10:05Z</time>
      </trkpt>
      <trkpt lat="44.25565" lon="6.40424">
        <ele>1987.66</ele>
        <time>2022-05-10T10:10:20Z</time>
      </trkpt>
      <trkpt lat="44.25578" lon="6.40439">
        <ele>1988.62</ele>
        <time>2022-05-10T10:10:38Z</time>
      </trkpt>
      <trkpt lat="44.2558" lon="6.40442">
        <ele>1989.1</ele>
        <time>2022-05-10T10:10:41Z</time>
      </trkpt>
      <trkpt lat="44.25591" lon="6.40455">
        <ele>1991.51</ele>
        <time>2022-05-10T10:10:59Z</time>
      </trkpt>
      <trkpt lat="44.25602" lon="6.40474">
        <ele>1990.07</ele>
        <time>2022-05-10T10:11:19Z</time>
      </trkpt>
      <trkpt lat="44.25604" lon="6.40481">
        <ele>1989.1</ele>
        <time>2022-05-10T10:11:37Z</time>
      </trkpt>
      <trkpt lat="44.25607" lon="6.40495">
        <ele>1985.74</ele>
        <time>2022-05-10T10:11:52Z</time>
      </trkpt>
      <trkpt lat="44.25613" lon="6.40509">
        <ele>1983.34</ele>
        <time>2022-05-10T10:12:06Z</time>
      </trkpt>
      <trkpt lat="44.25623" lon="6.40526">
        <ele>1981.41</ele>
        <time>2022-05-10T10:12:21Z</time>
      </trkpt>
      <trkpt lat="44.25627" lon="6.40529">
        <ele>1981.41</ele>
        <time>2022-05-10T10:12:26Z</time>
      </trkpt>
      <trkpt lat="44.25631" lon="6.40534">
        <ele>1982.86</ele>
        <time>2022-05-10T10:12:31Z</time>
      </trkpt>
      <trkpt lat="44.25631" lon="6.40535">
        <ele>1982.86</ele>
        <time>2022-05-10T10:12:32Z</time>
      </trkpt>
      <trkpt lat="44.25644" lon="6.40543">
        <ele>1986.7</ele>
        <time>2022-05-10T10:12:50Z</time>
      </trkpt>
      <trkpt lat="44.25654" lon="6.40542">
        <ele>1988.62</ele>
        <time>2022-05-10T10:13:10Z</time>
      </trkpt>
      <trkpt lat="44.25655" lon="6.40542">
        <ele>1988.62</ele>
        <time>2022-05-10T10:13:31Z</time>
      </trkpt>
      <trkpt lat="44.25656" lon="6.40542">
        <ele>1988.62</ele>
        <time>2022-05-10T10:13:57Z</time>
      </trkpt>
      <trkpt lat="44.25655" lon="6.40545">
        <ele>1989.59</ele>
        <time>2022-05-10T10:14:22Z</time>
      </trkpt>
      <trkpt lat="44.25658" lon="6.40555">
        <ele>1987.66</ele>
        <time>2022-05-10T10:14:40Z</time>
      </trkpt>
      <trkpt lat="44.2566" lon="6.40561">
        <ele>1987.18</ele>
        <time>2022-05-10T10:14:59Z</time>
      </trkpt>
      <trkpt lat="44.25663" lon="6.40568">
        <ele>1985.26</ele>
        <time>2022-05-10T10:15:12Z</time>
      </trkpt>
      <trkpt lat="44.25667" lon="6.40575">
        <ele>1983.34</ele>
        <time>2022-05-10T10:15:31Z</time>
      </trkpt>
      <trkpt lat="44.25676" lon="6.40587">
        <ele>1980.45</ele>
        <time>2022-05-10T10:15:45Z</time>
      </trkpt>
      <trkpt lat="44.25686" lon="6.406">
        <ele>1978.53</ele>
        <time>2022-05-10T10:15:57Z</time>
      </trkpt>
      <trkpt lat="44.25699" lon="6.40618">
        <ele>1977.57</ele>
        <time>2022-05-10T10:16:14Z</time>
      </trkpt>
      <trkpt lat="44.25707" lon="6.40631">
        <ele>1977.57</ele>
        <time>2022-05-10T10:16:29Z</time>
      </trkpt>
      <trkpt lat="44.25716" lon="6.40641">
        <ele>1976.61</ele>
        <time>2022-05-10T10:16:40Z</time>
      </trkpt>
      <trkpt lat="44.25725" lon="6.40649">
        <ele>1976.13</ele>
        <time>2022-05-10T10:16:55Z</time>
      </trkpt>
      <trkpt lat="44.25726" lon="6.40649">
        <ele>1975.65</ele>
        <time>2022-05-10T10:17:05Z</time>
      </trkpt>
      <trkpt lat="44.2574" lon="6.40653">
        <ele>1972.28</ele>
        <time>2022-05-10T10:17:19Z</time>
      </trkpt>
      <trkpt lat="44.25753" lon="6.40661">
        <ele>1969.88</ele>
        <time>2022-05-10T10:17:35Z</time>
      </trkpt>
      <trkpt lat="44.25762" lon="6.40669">
        <ele>1966.99</ele>
        <time>2022-05-10T10:17:49Z</time>
      </trkpt>
      <trkpt lat="44.25762" lon="6.40671">
        <ele>1966.99</ele>
        <time>2022-05-10T10:17:51Z</time>
      </trkpt>
      <trkpt lat="44.2577" lon="6.4068">
        <ele>1963.63</ele>
        <time>2022-05-10T10:18:02Z</time>
      </trkpt>
      <trkpt lat="44.25771" lon="6.40683">
        <ele>1962.19</ele>
        <time>2022-05-10T10:18:05Z</time>
      </trkpt>
      <trkpt lat="44.25773" lon="6.40689">
        <ele>1960.75</ele>
        <time>2022-05-10T10:18:12Z</time>
      </trkpt>
      <trkpt lat="44.25787" lon="6.40702">
        <ele>1959.3</ele>
        <time>2022-05-10T10:18:30Z</time>
      </trkpt>
      <trkpt lat="44.25787" lon="6.40702">
        <ele>1958.82</ele>
        <time>2022-05-10T10:18:31Z</time>
      </trkpt>
      <trkpt lat="44.258" lon="6.40719">
        <ele>1959.3</ele>
        <time>2022-05-10T10:18:48Z</time>
      </trkpt>
      <trkpt lat="44.25804" lon="6.40723">
        <ele>1957.86</ele>
        <time>2022-05-10T10:18:53Z</time>
      </trkpt>
      <trkpt lat="44.25815" lon="6.40732">
        <ele>1956.9</ele>
        <time>2022-05-10T10:19:08Z</time>
      </trkpt>
      <trkpt lat="44.25825" lon="6.40737">
        <ele>1955.46</ele>
        <time>2022-05-10T10:19:23Z</time>
      </trkpt>
      <trkpt lat="44.25832" lon="6.40747">
        <ele>1953.06</ele>
        <time>2022-05-10T10:19:39Z</time>
      </trkpt>
      <trkpt lat="44.25842" lon="6.40754">
        <ele>1949.69</ele>
        <time>2022-05-10T10:19:54Z</time>
      </trkpt>
      <trkpt lat="44.25854" lon="6.40765">
        <ele>1950.65</ele>
        <time>2022-05-10T10:20:11Z</time>
      </trkpt>
      <trkpt lat="44.25863" lon="6.40778">
        <ele>1953.54</ele>
        <time>2022-05-10T10:20:28Z</time>
      </trkpt>
      <trkpt lat="44.25872" lon="6.40787">
        <ele>1955.46</ele>
        <time>2022-05-10T10:20:42Z</time>
      </trkpt>
      <trkpt lat="44.25885" lon="6.40799">
        <ele>1958.34</ele>
        <time>2022-05-10T10:21:01Z</time>
      </trkpt>
      <trkpt lat="44.25892" lon="6.40813">
        <ele>1957.38</ele>
        <time>2022-05-10T10:21:20Z</time>
      </trkpt>
      <trkpt lat="44.25899" lon="6.40828">
        <ele>1954.98</ele>
        <time>2022-05-10T10:21:35Z</time>
      </trkpt>
      <trkpt lat="44.25907" lon="6.40843">
        <ele>1954.02</ele>
        <time>2022-05-10T10:21:50Z</time>
      </trkpt>
      <trkpt lat="44.25918" lon="6.40864">
        <ele>1952.09</ele>
        <time>2022-05-10T10:22:09Z</time>
      </trkpt>
      <trkpt lat="44.25926" lon="6.40877">
        <ele>1951.13</ele>
        <time>2022-05-10T10:22:23Z</time>
      </trkpt>
      <trkpt lat="44.25931" lon="6.40888">
        <ele>1954.98</ele>
        <time>2022-05-10T10:22:37Z</time>
      </trkpt>
      <trkpt lat="44.25937" lon="6.40901">
        <ele>1957.86</ele>
        <time>2022-05-10T10:22:53Z</time>
      </trkpt>
      <trkpt lat="44.25941" lon="6.40912">
        <ele>1959.3</ele>
        <time>2022-05-10T10:23:08Z</time>
      </trkpt>
      <trkpt lat="44.25948" lon="6.40928">
        <ele>1960.27</ele>
        <time>2022-05-10T10:23:24Z</time>
      </trkpt>
      <trkpt lat="44.25953" lon="6.40942">
        <ele>1961.71</ele>
        <time>2022-05-10T10:23:40Z</time>
      </trkpt>
      <trkpt lat="44.25959" lon="6.40953">
        <ele>1964.59</ele>
        <time>2022-05-10T10:23:56Z</time>
      </trkpt>
      <trkpt lat="44.25962" lon="6.40961">
        <ele>1967.96</ele>
        <time>2022-05-10T10:24:12Z</time>
      </trkpt>
      <trkpt lat="44.25967" lon="6.40968">
        <ele>1971.32</ele>
        <time>2022-05-10T10:24:27Z</time>
      </trkpt>
      <trkpt lat="44.25973" lon="6.40976">
        <ele>1974.2</ele>
        <time>2022-05-10T10:24:43Z</time>
      </trkpt>
      <trkpt lat="44.25977" lon="6.40987">
        <ele>1976.61</ele>
        <time>2022-05-10T10:25:00Z</time>
      </trkpt>
      <trkpt lat="44.25977" lon="6.4099">
        <ele>1977.57</ele>
        <time>2022-05-10T10:25:16Z</time>
      </trkpt>
      <trkpt lat="44.25977" lon="6.40991">
        <ele>1977.57</ele>
        <time>2022-05-10T10:25:34Z</time>
      </trkpt>
      <trkpt lat="44.25981" lon="6.40997">
        <ele>1977.57</ele>
        <time>2022-05-10T10:25:59Z</time>
      </trkpt>
      <trkpt lat="44.25983" lon="6.41007">
        <ele>1977.57</ele>
        <time>2022-05-10T10:26:17Z</time>
      </trkpt>
      <trkpt lat="44.25982" lon="6.41008">
        <ele>1978.53</ele>
        <time>2022-05-10T10:26:47Z</time>
      </trkpt>
      <trkpt lat="44.25982" lon="6.41008">
        <ele>1978.53</ele>
        <time>2022-05-10T10:27:13Z</time>
      </trkpt>
      <trkpt lat="44.25983" lon="6.41013">
        <ele>1978.53</ele>
        <time>2022-05-10T10:27:36Z</time>
      </trkpt>
      <trkpt lat="44.25985" lon="6.41019">
        <ele>1978.53</ele>
        <time>2022-05-10T10:27:50Z</time>
      </trkpt>
      <trkpt lat="44.2599" lon="6.41029">
        <ele>1978.53</ele>
        <time>2022-05-10T10:28:07Z</time>
      </trkpt>
      <trkpt lat="44.25995" lon="6.41039">
        <ele>1980.93</ele>
        <time>2022-05-10T10:28:23Z</time>
      </trkpt>
      <trkpt lat="44.25997" lon="6.4104">
        <ele>1980.93</ele>
        <time>2022-05-10T10:28:45Z</time>
      </trkpt>
      <trkpt lat="44.25997" lon="6.41041">
        <ele>1980.93</ele>
        <time>2022-05-10T10:29:15Z</time>
      </trkpt>
      <trkpt lat="44.25997" lon="6.41043">
        <ele>1981.41</ele>
        <time>2022-05-10T10:29:30Z</time>
      </trkpt>
      <trkpt lat="44.26003" lon="6.4105">
        <ele>1983.34</ele>
        <time>2022-05-10T10:29:46Z</time>
      </trkpt>
      <trkpt lat="44.26006" lon="6.41058">
        <ele>1983.34</ele>
        <time>2022-05-10T10:29:53Z</time>
      </trkpt>
      <trkpt lat="44.2601" lon="6.4107">
        <ele>1985.74</ele>
        <time>2022-05-10T10:30:07Z</time>
      </trkpt>
      <trkpt lat="44.26013" lon="6.41082">
        <ele>1987.66</ele>
        <time>2022-05-10T10:30:22Z</time>
      </trkpt>
      <trkpt lat="44.26014" lon="6.41097">
        <ele>1990.07</ele>
        <time>2022-05-10T10:30:37Z</time>
      </trkpt>
      <trkpt lat="44.2602" lon="6.41111">
        <ele>1991.03</ele>
        <time>2022-05-10T10:30:54Z</time>
      </trkpt>
      <trkpt lat="44.26023" lon="6.4112">
        <ele>1991.51</ele>
        <time>2022-05-10T10:31:10Z</time>
      </trkpt>
      <trkpt lat="44.26026" lon="6.41134">
        <ele>1992.47</ele>
        <time>2022-05-10T10:31:25Z</time>
      </trkpt>
      <trkpt lat="44.2603" lon="6.41145">
        <ele>1993.91</ele>
        <time>2022-05-10T10:31:38Z</time>
      </trkpt>
      <trkpt lat="44.26035" lon="6.41161">
        <ele>1994.39</ele>
        <time>2022-05-10T10:31:54Z</time>
      </trkpt>
      <trkpt lat="44.26036" lon="6.41162">
        <ele>1994.39</ele>
        <time>2022-05-10T10:31:56Z</time>
      </trkpt>
      <trkpt lat="44.2604" lon="6.41174">
        <ele>1992.95</ele>
        <time>2022-05-10T10:32:06Z</time>
      </trkpt>
      <trkpt lat="44.26043" lon="6.41186">
        <ele>1991.51</ele>
        <time>2022-05-10T10:32:20Z</time>
      </trkpt>
      <trkpt lat="44.26045" lon="6.41199">
        <ele>1989.59</ele>
        <time>2022-05-10T10:32:35Z</time>
      </trkpt>
      <trkpt lat="44.26049" lon="6.41208">
        <ele>1989.59</ele>
        <time>2022-05-10T10:32:54Z</time>
      </trkpt>
      <trkpt lat="44.26051" lon="6.41216">
        <ele>1990.55</ele>
        <time>2022-05-10T10:33:13Z</time>
      </trkpt>
      <trkpt lat="44.26052" lon="6.41219">
        <ele>1990.55</ele>
        <time>2022-05-10T10:33:16Z</time>
      </trkpt>
      <trkpt lat="44.26052" lon="6.41223">
        <ele>1991.03</ele>
        <time>2022-05-10T10:33:19Z</time>
      </trkpt>
      <trkpt lat="44.26054" lon="6.41228">
        <ele>1991.51</ele>
        <time>2022-05-10T10:33:23Z</time>
      </trkpt>
      <trkpt lat="44.26056" lon="6.4125">
        <ele>1991.51</ele>
        <time>2022-05-10T10:33:40Z</time>
      </trkpt>
      <trkpt lat="44.26058" lon="6.41266">
        <ele>1992.95</ele>
        <time>2022-05-10T10:33:56Z</time>
      </trkpt>
      <trkpt lat="44.26061" lon="6.41287">
        <ele>1995.35</ele>
        <time>2022-05-10T10:34:15Z</time>
      </trkpt>
      <trkpt lat="44.26065" lon="6.41301">
        <ele>1998.24</ele>
        <time>2022-05-10T10:34:31Z</time>
      </trkpt>
      <trkpt lat="44.26069" lon="6.41317">
        <ele>2000.16</ele>
        <time>2022-05-10T10:34:48Z</time>
      </trkpt>
      <trkpt lat="44.26073" lon="6.41332">
        <ele>2004.01</ele>
        <time>2022-05-10T10:35:04Z</time>
      </trkpt>
      <trkpt lat="44.26077" lon="6.41347">
        <ele>2005.45</ele>
        <time>2022-05-10T10:35:25Z</time>
      </trkpt>
      <trkpt lat="44.26077" lon="6.41349">
        <ele>2005.93</ele>
        <time>2022-05-10T10:35:39Z</time>
      </trkpt>
      <trkpt lat="44.26077" lon="6.41351">
        <ele>2007.37</ele>
        <time>2022-05-10T10:36:03Z</time>
      </trkpt>
      <trkpt lat="44.26076" lon="6.41352">
        <ele>2007.37</ele>
        <time>2022-05-10T10:36:22Z</time>
      </trkpt>
      <trkpt lat="44.26079" lon="6.41352">
        <ele>2005.93</ele>
        <time>2022-05-10T10:36:37Z</time>
      </trkpt>
      <trkpt lat="44.26077" lon="6.4135">
        <ele>2005.93</ele>
        <time>2022-05-10T10:36:55Z</time>
      </trkpt>
      <trkpt lat="44.26078" lon="6.41355">
        <ele>2005.93</ele>
        <time>2022-05-10T10:37:09Z</time>
      </trkpt>
      <trkpt lat="44.26078" lon="6.41352">
        <ele>2006.41</ele>
        <time>2022-05-10T10:37:34Z</time>
      </trkpt>
      <trkpt lat="44.26074" lon="6.41353">
        <ele>2005.93</ele>
        <time>2022-05-10T10:37:53Z</time>
      </trkpt>
      <trkpt lat="44.26074" lon="6.41358">
        <ele>2005.93</ele>
        <time>2022-05-10T10:38:07Z</time>
      </trkpt>
      <trkpt lat="44.26075" lon="6.41357">
        <ele>2005.93</ele>
        <time>2022-05-10T10:38:30Z</time>
      </trkpt>
      <trkpt lat="44.26077" lon="6.41354">
        <ele>2005.93</ele>
        <time>2022-05-10T10:38:46Z</time>
      </trkpt>
      <trkpt lat="44.26078" lon="6.41357">
        <ele>2006.89</ele>
        <time>2022-05-10T10:39:08Z</time>
      </trkpt>
      <trkpt lat="44.26078" lon="6.4135">
        <ele>2007.37</ele>
        <time>2022-05-10T10:39:23Z</time>
      </trkpt>
      <trkpt lat="44.26077" lon="6.4135">
        <ele>2007.37</ele>
        <time>2022-05-10T10:39:47Z</time>
      </trkpt>
      <trkpt lat="44.26076" lon="6.41349">
        <ele>2007.37</ele>
        <time>2022-05-10T10:40:14Z</time>
      </trkpt>
      <trkpt lat="44.26075" lon="6.41353">
        <ele>2007.37</ele>
        <time>2022-05-10T10:40:37Z</time>
      </trkpt>
      <trkpt lat="44.26077" lon="6.41356">
        <ele>2007.85</ele>
        <time>2022-05-10T10:41:02Z</time>
      </trkpt>
      <trkpt lat="44.26076" lon="6.41355">
        <ele>2007.85</ele>
        <time>2022-05-10T10:41:44Z</time>
      </trkpt>
      <trkpt lat="44.26077" lon="6.4135">
        <ele>2007.85</ele>
        <time>2022-05-10T10:42:04Z</time>
      </trkpt>
      <trkpt lat="44.26077" lon="6.41351">
        <ele>2006.89</ele>
        <time>2022-05-10T10:42:19Z</time>
      </trkpt>
      <trkpt lat="44.26077" lon="6.4135">
        <ele>2007.37</ele>
        <time>2022-05-10T11:15:53Z</time>
      </trkpt>
      <trkpt lat="44.26077" lon="6.4135">
        <ele>2007.85</ele>
        <time>2022-05-10T11:15:54Z</time>
      </trkpt>
      <trkpt lat="44.26077" lon="6.4135">
        <ele>2009.29</ele>
        <time>2022-05-10T11:16:09Z</time>
      </trkpt>
      <trkpt lat="44.26077" lon="6.4135">
        <ele>2006.41</ele>
        <time>2022-05-10T11:16:19Z</time>
      </trkpt>
      <trkpt lat="44.26077" lon="6.4135">
        <ele>2010.25</ele>
        <time>2022-05-10T11:16:20Z</time>
      </trkpt>
      <trkpt lat="44.26077" lon="6.4135">
        <ele>2010.25</ele>
        <time>2022-05-10T11:16:35Z</time>
      </trkpt>
      <trkpt lat="44.26078" lon="6.4135">
        <ele>2010.25</ele>
        <time>2022-05-10T11:17:03Z</time>
      </trkpt>
      <trkpt lat="44.26079" lon="6.41351">
        <ele>2010.25</ele>
        <time>2022-05-10T11:17:18Z</time>
      </trkpt>
      <trkpt lat="44.26078" lon="6.41351">
        <ele>2010.73</ele>
        <time>2022-05-10T11:17:50Z</time>
      </trkpt>
      <trkpt lat="44.2608" lon="6.41354">
        <ele>2010.73</ele>
        <time>2022-05-10T11:18:06Z</time>
      </trkpt>
      <trkpt lat="44.26081" lon="6.41354">
        <ele>2009.29</ele>
        <time>2022-05-10T11:18:12Z</time>
      </trkpt>
      <trkpt lat="44.26082" lon="6.41355">
        <ele>2008.33</ele>
        <time>2022-05-10T11:18:32Z</time>
      </trkpt>
      <trkpt lat="44.26087" lon="6.41354">
        <ele>2005.93</ele>
        <time>2022-05-10T11:18:48Z</time>
      </trkpt>
      <trkpt lat="44.26089" lon="6.41355">
        <ele>2004.01</ele>
        <time>2022-05-10T11:18:59Z</time>
      </trkpt>
      <trkpt lat="44.26092" lon="6.41355">
        <ele>2002.08</ele>
        <time>2022-05-10T11:19:11Z</time>
      </trkpt>
      <trkpt lat="44.26095" lon="6.41353">
        <ele>1999.68</ele>
        <time>2022-05-10T11:19:24Z</time>
      </trkpt>
      <trkpt lat="44.26098" lon="6.41352">
        <ele>1997.76</ele>
        <time>2022-05-10T11:19:42Z</time>
      </trkpt>
      <trkpt lat="44.26102" lon="6.41352">
        <ele>1994.39</ele>
        <time>2022-05-10T11:19:55Z</time>
      </trkpt>
      <trkpt lat="44.26104" lon="6.41352">
        <ele>1991.51</ele>
        <time>2022-05-10T11:20:09Z</time>
      </trkpt>
      <trkpt lat="44.26106" lon="6.41353">
        <ele>1991.03</ele>
        <time>2022-05-10T11:20:34Z</time>
      </trkpt>
      <trkpt lat="44.26111" lon="6.41354">
        <ele>1987.66</ele>
        <time>2022-05-10T11:20:48Z</time>
      </trkpt>
      <trkpt lat="44.26115" lon="6.41355">
        <ele>1984.78</ele>
        <time>2022-05-10T11:21:02Z</time>
      </trkpt>
      <trkpt lat="44.26119" lon="6.41357">
        <ele>1981.41</ele>
        <time>2022-05-10T11:21:12Z</time>
      </trkpt>
      <trkpt lat="44.26119" lon="6.41356">
        <ele>1981.41</ele>
        <time>2022-05-10T11:21:13Z</time>
      </trkpt>
      <trkpt lat="44.26124" lon="6.41355">
        <ele>1977.57</ele>
        <time>2022-05-10T11:21:27Z</time>
      </trkpt>
      <trkpt lat="44.26125" lon="6.41354">
        <ele>1978.05</ele>
        <time>2022-05-10T11:21:28Z</time>
      </trkpt>
      <trkpt lat="44.26128" lon="6.41356">
        <ele>1975.65</ele>
        <time>2022-05-10T11:21:36Z</time>
      </trkpt>
      <trkpt lat="44.26132" lon="6.41356">
        <ele>1972.76</ele>
        <time>2022-05-10T11:21:48Z</time>
      </trkpt>
      <trkpt lat="44.26136" lon="6.41363">
        <ele>1969.4</ele>
        <time>2022-05-10T11:22:00Z</time>
      </trkpt>
      <trkpt lat="44.26141" lon="6.4136">
        <ele>1966.99</ele>
        <time>2022-05-10T11:22:09Z</time>
      </trkpt>
      <trkpt lat="44.26146" lon="6.41359">
        <ele>1964.11</ele>
        <time>2022-05-10T11:22:22Z</time>
      </trkpt>
      <trkpt lat="44.2615" lon="6.41359">
        <ele>1960.75</ele>
        <time>2022-05-10T11:22:34Z</time>
      </trkpt>
      <trkpt lat="44.26155" lon="6.41361">
        <ele>1957.86</ele>
        <time>2022-05-10T11:22:45Z</time>
      </trkpt>
      <trkpt lat="44.2616" lon="6.4136">
        <ele>1954.02</ele>
        <time>2022-05-10T11:22:58Z</time>
      </trkpt>
      <trkpt lat="44.26163" lon="6.41363">
        <ele>1952.09</ele>
        <time>2022-05-10T11:23:10Z</time>
      </trkpt>
      <trkpt lat="44.26166" lon="6.41368">
        <ele>1949.69</ele>
        <time>2022-05-10T11:23:20Z</time>
      </trkpt>
      <trkpt lat="44.26171" lon="6.41366">
        <ele>1946.33</ele>
        <time>2022-05-10T11:23:34Z</time>
      </trkpt>
      <trkpt lat="44.26175" lon="6.41367">
        <ele>1943.92</ele>
        <time>2022-05-10T11:23:47Z</time>
      </trkpt>
      <trkpt lat="44.26179" lon="6.41366">
        <ele>1940.56</ele>
        <time>2022-05-10T11:23:58Z</time>
      </trkpt>
      <trkpt lat="44.26183" lon="6.41362">
        <ele>1937.19</ele>
        <time>2022-05-10T11:24:10Z</time>
      </trkpt>
      <trkpt lat="44.26187" lon="6.41367">
        <ele>1934.79</ele>
        <time>2022-05-10T11:24:22Z</time>
      </trkpt>
      <trkpt lat="44.26192" lon="6.41363">
        <ele>1931.91</ele>
        <time>2022-05-10T11:24:34Z</time>
      </trkpt>
      <trkpt lat="44.26196" lon="6.41365">
        <ele>1928.54</ele>
        <time>2022-05-10T11:24:44Z</time>
      </trkpt>
      <trkpt lat="44.26196" lon="6.41366">
        <ele>1928.54</ele>
        <time>2022-05-10T11:24:45Z</time>
      </trkpt>
      <trkpt lat="44.262" lon="6.41364">
        <ele>1925.66</ele>
        <time>2022-05-10T11:24:58Z</time>
      </trkpt>
      <trkpt lat="44.26205" lon="6.41367">
        <ele>1923.25</ele>
        <time>2022-05-10T11:25:12Z</time>
      </trkpt>
      <trkpt lat="44.26209" lon="6.41368">
        <ele>1919.89</ele>
        <time>2022-05-10T11:25:25Z</time>
      </trkpt>
      <trkpt lat="44.26214" lon="6.41366">
        <ele>1917.49</ele>
        <time>2022-05-10T11:25:36Z</time>
      </trkpt>
      <trkpt lat="44.26219" lon="6.4137">
        <ele>1914.6</ele>
        <time>2022-05-10T11:25:49Z</time>
      </trkpt>
      <trkpt lat="44.2622" lon="6.4137">
        <ele>1913.64</ele>
        <time>2022-05-10T11:25:52Z</time>
      </trkpt>
      <trkpt lat="44.26226" lon="6.41371">
        <ele>1909.8</ele>
        <time>2022-05-10T11:26:06Z</time>
      </trkpt>
      <trkpt lat="44.26231" lon="6.41374">
        <ele>1907.39</ele>
        <time>2022-05-10T11:26:19Z</time>
      </trkpt>
      <trkpt lat="44.26236" lon="6.4137">
        <ele>1904.03</ele>
        <time>2022-05-10T11:26:30Z</time>
      </trkpt>
      <trkpt lat="44.2624" lon="6.41372">
        <ele>1901.14</ele>
        <time>2022-05-10T11:26:43Z</time>
      </trkpt>
      <trkpt lat="44.26245" lon="6.41373">
        <ele>1897.3</ele>
        <time>2022-05-10T11:26:54Z</time>
      </trkpt>
      <trkpt lat="44.26249" lon="6.41373">
        <ele>1895.38</ele>
        <time>2022-05-10T11:27:03Z</time>
      </trkpt>
      <trkpt lat="44.26255" lon="6.41375">
        <ele>1892.49</ele>
        <time>2022-05-10T11:27:16Z</time>
      </trkpt>
      <trkpt lat="44.2626" lon="6.41373">
        <ele>1888.65</ele>
        <time>2022-05-10T11:27:29Z</time>
      </trkpt>
      <trkpt lat="44.26262" lon="6.41374">
        <ele>1887.69</ele>
        <time>2022-05-10T11:27:43Z</time>
      </trkpt>
      <trkpt lat="44.26265" lon="6.41374">
        <ele>1885.28</ele>
        <time>2022-05-10T11:27:55Z</time>
      </trkpt>
      <trkpt lat="44.26268" lon="6.41375">
        <ele>1883.36</ele>
        <time>2022-05-10T11:28:07Z</time>
      </trkpt>
      <trkpt lat="44.26273" lon="6.41372">
        <ele>1880.48</ele>
        <time>2022-05-10T11:28:19Z</time>
      </trkpt>
      <trkpt lat="44.26277" lon="6.41375">
        <ele>1877.59</ele>
        <time>2022-05-10T11:28:30Z</time>
      </trkpt>
      <trkpt lat="44.26281" lon="6.41375">
        <ele>1875.19</ele>
        <time>2022-05-10T11:28:41Z</time>
      </trkpt>
      <trkpt lat="44.26286" lon="6.41373">
        <ele>1871.82</ele>
        <time>2022-05-10T11:28:55Z</time>
      </trkpt>
      <trkpt lat="44.26288" lon="6.41371">
        <ele>1869.9</ele>
        <time>2022-05-10T11:29:08Z</time>
      </trkpt>
      <trkpt lat="44.26292" lon="6.41374">
        <ele>1866.06</ele>
        <time>2022-05-10T11:29:21Z</time>
      </trkpt>
      <trkpt lat="44.263" lon="6.41371">
        <ele>1863.17</ele>
        <time>2022-05-10T11:29:35Z</time>
      </trkpt>
      <trkpt lat="44.26307" lon="6.41372">
        <ele>1859.33</ele>
        <time>2022-05-10T11:29:48Z</time>
      </trkpt>
      <trkpt lat="44.2631" lon="6.41377">
        <ele>1857.4</ele>
        <time>2022-05-10T11:29:55Z</time>
      </trkpt>
      <trkpt lat="44.26318" lon="6.41379">
        <ele>1855</ele>
        <time>2022-05-10T11:30:06Z</time>
      </trkpt>
      <trkpt lat="44.26322" lon="6.41382">
        <ele>1852.6</ele>
        <time>2022-05-10T11:30:13Z</time>
      </trkpt>
      <trkpt lat="44.26329" lon="6.41382">
        <ele>1849.71</ele>
        <time>2022-05-10T11:30:26Z</time>
      </trkpt>
      <trkpt lat="44.26334" lon="6.41384">
        <ele>1846.35</ele>
        <time>2022-05-10T11:30:36Z</time>
      </trkpt>
      <trkpt lat="44.26339" lon="6.41386">
        <ele>1844.43</ele>
        <time>2022-05-10T11:30:43Z</time>
      </trkpt>
      <trkpt lat="44.26346" lon="6.41389">
        <ele>1840.58</ele>
        <time>2022-05-10T11:30:55Z</time>
      </trkpt>
      <trkpt lat="44.2635" lon="6.41393">
        <ele>1839.62</ele>
        <time>2022-05-10T11:31:01Z</time>
      </trkpt>
      <trkpt lat="44.26357" lon="6.41401">
        <ele>1836.26</ele>
        <time>2022-05-10T11:31:15Z</time>
      </trkpt>
      <trkpt lat="44.26363" lon="6.41402">
        <ele>1833.85</ele>
        <time>2022-05-10T11:31:22Z</time>
      </trkpt>
      <trkpt lat="44.26366" lon="6.41405">
        <ele>1832.89</ele>
        <time>2022-05-10T11:31:26Z</time>
      </trkpt>
      <trkpt lat="44.26376" lon="6.41413">
        <ele>1829.53</ele>
        <time>2022-05-10T11:31:39Z</time>
      </trkpt>
      <trkpt lat="44.26378" lon="6.41414">
        <ele>1829.53</ele>
        <time>2022-05-10T11:31:41Z</time>
      </trkpt>
      <trkpt lat="44.26384" lon="6.41417">
        <ele>1827.12</ele>
        <time>2022-05-10T11:31:51Z</time>
      </trkpt>
      <trkpt lat="44.26387" lon="6.41421">
        <ele>1825.68</ele>
        <time>2022-05-10T11:31:57Z</time>
      </trkpt>
      <trkpt lat="44.26392" lon="6.41422">
        <ele>1824.24</ele>
        <time>2022-05-10T11:32:02Z</time>
      </trkpt>
      <trkpt lat="44.26394" lon="6.41423">
        <ele>1823.28</ele>
        <time>2022-05-10T11:32:04Z</time>
      </trkpt>
      <trkpt lat="44.26401" lon="6.41428">
        <ele>1820.39</ele>
        <time>2022-05-10T11:32:16Z</time>
      </trkpt>
      <trkpt lat="44.26409" lon="6.41432">
        <ele>1817.51</ele>
        <time>2022-05-10T11:32:28Z</time>
      </trkpt>
      <trkpt lat="44.26411" lon="6.41435">
        <ele>1817.03</ele>
        <time>2022-05-10T11:32:32Z</time>
      </trkpt>
      <trkpt lat="44.26422" lon="6.41442">
        <ele>1814.15</ele>
        <time>2022-05-10T11:32:46Z</time>
      </trkpt>
      <trkpt lat="44.26434" lon="6.41451">
        <ele>1813.18</ele>
        <time>2022-05-10T11:33:02Z</time>
      </trkpt>
      <trkpt lat="44.26434" lon="6.41451">
        <ele>1812.7</ele>
        <time>2022-05-10T11:33:13Z</time>
      </trkpt>
      <trkpt lat="44.2643" lon="6.41447">
        <ele>1812.7</ele>
        <time>2022-05-10T11:33:17Z</time>
      </trkpt>
      <trkpt lat="44.26427" lon="6.41446">
        <ele>1812.7</ele>
        <time>2022-05-10T11:33:25Z</time>
      </trkpt>
      <trkpt lat="44.26433" lon="6.41449">
        <ele>1812.22</ele>
        <time>2022-05-10T11:33:43Z</time>
      </trkpt>
      <trkpt lat="44.26433" lon="6.41447">
        <ele>1811.74</ele>
        <time>2022-05-10T11:34:16Z</time>
      </trkpt>
      <trkpt lat="44.26433" lon="6.41448">
        <ele>1811.74</ele>
        <time>2022-05-10T11:34:59Z</time>
      </trkpt>
      <trkpt lat="44.26434" lon="6.41447">
        <ele>1811.26</ele>
        <time>2022-05-10T11:35:44Z</time>
      </trkpt>
      <trkpt lat="44.26433" lon="6.41448">
        <ele>1813.66</ele>
        <time>2022-05-10T11:36:02Z</time>
      </trkpt>
      <trkpt lat="44.26434" lon="6.41448">
        <ele>1812.22</ele>
        <time>2022-05-10T11:36:12Z</time>
      </trkpt>
      <trkpt lat="44.26433" lon="6.41448">
        <ele>1812.22</ele>
        <time>2022-05-10T11:36:31Z</time>
      </trkpt>
      <trkpt lat="44.26433" lon="6.4145">
        <ele>1812.22</ele>
        <time>2022-05-10T11:36:46Z</time>
      </trkpt>
      <trkpt lat="44.26434" lon="6.41452">
        <ele>1812.22</ele>
        <time>2022-05-10T11:36:48Z</time>
      </trkpt>
      <trkpt lat="44.26447" lon="6.41473">
        <ele>1813.18</ele>
        <time>2022-05-10T11:37:06Z</time>
      </trkpt>
      <trkpt lat="44.2647" lon="6.41489">
        <ele>1815.11</ele>
        <time>2022-05-10T11:37:28Z</time>
      </trkpt>
      <trkpt lat="44.26492" lon="6.41494">
        <ele>1813.66</ele>
        <time>2022-05-10T11:37:48Z</time>
      </trkpt>
      <trkpt lat="44.26493" lon="6.41494">
        <ele>1813.66</ele>
        <time>2022-05-10T11:37:49Z</time>
      </trkpt>
      <trkpt lat="44.26511" lon="6.41499">
        <ele>1814.63</ele>
        <time>2022-05-10T11:38:06Z</time>
      </trkpt>
      <trkpt lat="44.26519" lon="6.41508">
        <ele>1816.07</ele>
        <time>2022-05-10T11:38:20Z</time>
      </trkpt>
      <trkpt lat="44.26525" lon="6.41505">
        <ele>1816.07</ele>
        <time>2022-05-10T11:38:35Z</time>
      </trkpt>
      <trkpt lat="44.26535" lon="6.41503">
        <ele>1814.15</ele>
        <time>2022-05-10T11:38:44Z</time>
      </trkpt>
      <trkpt lat="44.26552" lon="6.41503">
        <ele>1813.66</ele>
        <time>2022-05-10T11:39:01Z</time>
      </trkpt>
      <trkpt lat="44.26561" lon="6.41514">
        <ele>1813.18</ele>
        <time>2022-05-10T11:39:16Z</time>
      </trkpt>
      <trkpt lat="44.26561" lon="6.41514">
        <ele>1814.15</ele>
        <time>2022-05-10T11:39:33Z</time>
      </trkpt>
      <trkpt lat="44.26561" lon="6.41514">
        <ele>1814.15</ele>
        <time>2022-05-10T11:39:38Z</time>
      </trkpt>
      <trkpt lat="44.26564" lon="6.41518">
        <ele>1814.15</ele>
        <time>2022-05-10T11:39:42Z</time>
      </trkpt>
      <trkpt lat="44.26573" lon="6.41532">
        <ele>1813.18</ele>
        <time>2022-05-10T11:39:54Z</time>
      </trkpt>
      <trkpt lat="44.26592" lon="6.41544">
        <ele>1814.15</ele>
        <time>2022-05-10T11:40:15Z</time>
      </trkpt>
      <trkpt lat="44.26592" lon="6.41548">
        <ele>1814.15</ele>
        <time>2022-05-10T11:40:21Z</time>
      </trkpt>
      <trkpt lat="44.266" lon="6.41564">
        <ele>1812.22</ele>
        <time>2022-05-10T11:40:36Z</time>
      </trkpt>
      <trkpt lat="44.26611" lon="6.41591">
        <ele>1810.3</ele>
        <time>2022-05-10T11:40:57Z</time>
      </trkpt>
      <trkpt lat="44.26615" lon="6.41618">
        <ele>1809.82</ele>
        <time>2022-05-10T11:41:16Z</time>
      </trkpt>
      <trkpt lat="44.26617" lon="6.41619">
        <ele>1809.82</ele>
        <time>2022-05-10T11:41:28Z</time>
      </trkpt>
      <trkpt lat="44.26622" lon="6.41629">
        <ele>1809.82</ele>
        <time>2022-05-10T11:41:42Z</time>
      </trkpt>
      <trkpt lat="44.26624" lon="6.41631">
        <ele>1811.26</ele>
        <time>2022-05-10T11:41:44Z</time>
      </trkpt>
      <trkpt lat="44.26626" lon="6.41634">
        <ele>1811.74</ele>
        <time>2022-05-10T11:41:59Z</time>
      </trkpt>
      <trkpt lat="44.26624" lon="6.4163">
        <ele>1811.74</ele>
        <time>2022-05-10T11:42:15Z</time>
      </trkpt>
      <trkpt lat="44.26625" lon="6.4163">
        <ele>1811.74</ele>
        <time>2022-05-10T11:42:38Z</time>
      </trkpt>
      <trkpt lat="44.26628" lon="6.41637">
        <ele>1812.22</ele>
        <time>2022-05-10T11:42:54Z</time>
      </trkpt>
      <trkpt lat="44.2664" lon="6.41651">
        <ele>1815.11</ele>
        <time>2022-05-10T11:43:11Z</time>
      </trkpt>
      <trkpt lat="44.26652" lon="6.41652">
        <ele>1818.47</ele>
        <time>2022-05-10T11:43:26Z</time>
      </trkpt>
      <trkpt lat="44.26659" lon="6.41654">
        <ele>1818.47</ele>
        <time>2022-05-10T11:43:40Z</time>
      </trkpt>
      <trkpt lat="44.26657" lon="6.41654">
        <ele>1818.95</ele>
        <time>2022-05-10T11:43:56Z</time>
      </trkpt>
      <trkpt lat="44.26656" lon="6.41656">
        <ele>1817.99</ele>
        <time>2022-05-10T11:44:05Z</time>
      </trkpt>
      <trkpt lat="44.2666" lon="6.41671">
        <ele>1815.11</ele>
        <time>2022-05-10T11:44:20Z</time>
      </trkpt>
      <trkpt lat="44.26667" lon="6.41676">
        <ele>1814.63</ele>
        <time>2022-05-10T11:44:38Z</time>
      </trkpt>
      <trkpt lat="44.2667" lon="6.41681">
        <ele>1814.15</ele>
        <time>2022-05-10T11:44:51Z</time>
      </trkpt>
      <trkpt lat="44.26676" lon="6.41686">
        <ele>1815.11</ele>
        <time>2022-05-10T11:45:05Z</time>
      </trkpt>
      <trkpt lat="44.26684" lon="6.41698">
        <ele>1812.22</ele>
        <time>2022-05-10T11:45:20Z</time>
      </trkpt>
      <trkpt lat="44.26687" lon="6.41707">
        <ele>1809.82</ele>
        <time>2022-05-10T11:45:36Z</time>
      </trkpt>
      <trkpt lat="44.26691" lon="6.41714">
        <ele>1808.38</ele>
        <time>2022-05-10T11:45:58Z</time>
      </trkpt>
      <trkpt lat="44.26692" lon="6.4172">
        <ele>1807.42</ele>
        <time>2022-05-10T11:46:13Z</time>
      </trkpt>
      <trkpt lat="44.26696" lon="6.41728">
        <ele>1805.49</ele>
        <time>2022-05-10T11:46:32Z</time>
      </trkpt>
      <trkpt lat="44.26707" lon="6.41742">
        <ele>1805.01</ele>
        <time>2022-05-10T11:46:46Z</time>
      </trkpt>
      <trkpt lat="44.26714" lon="6.41762">
        <ele>1803.57</ele>
        <time>2022-05-10T11:47:02Z</time>
      </trkpt>
      <trkpt lat="44.26719" lon="6.41771">
        <ele>1805.01</ele>
        <time>2022-05-10T11:47:12Z</time>
      </trkpt>
      <trkpt lat="44.26725" lon="6.4177">
        <ele>1806.45</ele>
        <time>2022-05-10T11:47:25Z</time>
      </trkpt>
      <trkpt lat="44.26726" lon="6.41771">
        <ele>1806.45</ele>
        <time>2022-05-10T11:47:57Z</time>
      </trkpt>
      <trkpt lat="44.26726" lon="6.41775">
        <ele>1805.01</ele>
        <time>2022-05-10T11:48:01Z</time>
      </trkpt>
      <trkpt lat="44.26734" lon="6.41793">
        <ele>1806.45</ele>
        <time>2022-05-10T11:48:18Z</time>
      </trkpt>
      <trkpt lat="44.26742" lon="6.4181">
        <ele>1807.42</ele>
        <time>2022-05-10T11:48:35Z</time>
      </trkpt>
      <trkpt lat="44.26752" lon="6.41828">
        <ele>1808.86</ele>
        <time>2022-05-10T11:48:53Z</time>
      </trkpt>
      <trkpt lat="44.26762" lon="6.41848">
        <ele>1809.82</ele>
        <time>2022-05-10T11:49:12Z</time>
      </trkpt>
      <trkpt lat="44.26773" lon="6.41866">
        <ele>1811.26</ele>
        <time>2022-05-10T11:49:31Z</time>
      </trkpt>
      <trkpt lat="44.26778" lon="6.4188">
        <ele>1811.74</ele>
        <time>2022-05-10T11:49:48Z</time>
      </trkpt>
      <trkpt lat="44.26786" lon="6.41903">
        <ele>1812.7</ele>
        <time>2022-05-10T11:50:08Z</time>
      </trkpt>
      <trkpt lat="44.26791" lon="6.41923">
        <ele>1812.7</ele>
        <time>2022-05-10T11:50:24Z</time>
      </trkpt>
      <trkpt lat="44.26798" lon="6.41947">
        <ele>1814.15</ele>
        <time>2022-05-10T11:50:44Z</time>
      </trkpt>
      <trkpt lat="44.26806" lon="6.41969">
        <ele>1815.59</ele>
        <time>2022-05-10T11:51:02Z</time>
      </trkpt>
      <trkpt lat="44.26809" lon="6.41978">
        <ele>1817.03</ele>
        <time>2022-05-10T11:51:22Z</time>
      </trkpt>
      <trkpt lat="44.26817" lon="6.41993">
        <ele>1817.03</ele>
        <time>2022-05-10T11:51:39Z</time>
      </trkpt>
      <trkpt lat="44.26827" lon="6.42006">
        <ele>1817.99</ele>
        <time>2022-05-10T11:51:54Z</time>
      </trkpt>
      <trkpt lat="44.26839" lon="6.42018">
        <ele>1817.99</ele>
        <time>2022-05-10T11:52:12Z</time>
      </trkpt>
      <trkpt lat="44.26856" lon="6.42035">
        <ele>1818.95</ele>
        <time>2022-05-10T11:52:31Z</time>
      </trkpt>
      <trkpt lat="44.2687" lon="6.42051">
        <ele>1818.95</ele>
        <time>2022-05-10T11:52:50Z</time>
      </trkpt>
      <trkpt lat="44.26873" lon="6.4206">
        <ele>1817.51</ele>
        <time>2022-05-10T11:53:03Z</time>
      </trkpt>
      <trkpt lat="44.26873" lon="6.42061">
        <ele>1817.51</ele>
        <time>2022-05-10T11:53:04Z</time>
      </trkpt>
      <trkpt lat="44.2688" lon="6.42077">
        <ele>1816.07</ele>
        <time>2022-05-10T11:53:19Z</time>
      </trkpt>
      <trkpt lat="44.26882" lon="6.42089">
        <ele>1815.11</ele>
        <time>2022-05-10T11:53:34Z</time>
      </trkpt>
      <trkpt lat="44.26887" lon="6.42109">
        <ele>1812.7</ele>
        <time>2022-05-10T11:53:51Z</time>
      </trkpt>
      <trkpt lat="44.26893" lon="6.42126">
        <ele>1811.74</ele>
        <time>2022-05-10T11:54:07Z</time>
      </trkpt>
      <trkpt lat="44.26896" lon="6.42143">
        <ele>1808.86</ele>
        <time>2022-05-10T11:54:24Z</time>
      </trkpt>
      <trkpt lat="44.26899" lon="6.42149">
        <ele>1808.38</ele>
        <time>2022-05-10T11:54:29Z</time>
      </trkpt>
      <trkpt lat="44.26913" lon="6.42162">
        <ele>1807.42</ele>
        <time>2022-05-10T11:54:47Z</time>
      </trkpt>
      <trkpt lat="44.26918" lon="6.42167">
        <ele>1806.45</ele>
        <time>2022-05-10T11:55:04Z</time>
      </trkpt>
      <trkpt lat="44.2692" lon="6.42173">
        <ele>1804.53</ele>
        <time>2022-05-10T11:55:29Z</time>
      </trkpt>
      <trkpt lat="44.2694" lon="6.42176">
        <ele>1802.13</ele>
        <time>2022-05-10T11:55:46Z</time>
      </trkpt>
      <trkpt lat="44.26949" lon="6.42178">
        <ele>1800.69</ele>
        <time>2022-05-10T11:55:55Z</time>
      </trkpt>
      <trkpt lat="44.26959" lon="6.4218">
        <ele>1798.28</ele>
        <time>2022-05-10T11:56:06Z</time>
      </trkpt>
      <trkpt lat="44.26971" lon="6.4218">
        <ele>1795.88</ele>
        <time>2022-05-10T11:56:18Z</time>
      </trkpt>
      <trkpt lat="44.26985" lon="6.42183">
        <ele>1791.55</ele>
        <time>2022-05-10T11:56:32Z</time>
      </trkpt>
      <trkpt lat="44.26999" lon="6.42188">
        <ele>1788.19</ele>
        <time>2022-05-10T11:56:47Z</time>
      </trkpt>
      <trkpt lat="44.27003" lon="6.4219">
        <ele>1787.23</ele>
        <time>2022-05-10T11:57:01Z</time>
      </trkpt>
      <trkpt lat="44.27015" lon="6.42193">
        <ele>1783.86</ele>
        <time>2022-05-10T11:57:14Z</time>
      </trkpt>
      <trkpt lat="44.27021" lon="6.422">
        <ele>1780.5</ele>
        <time>2022-05-10T11:57:25Z</time>
      </trkpt>
      <trkpt lat="44.27027" lon="6.42205">
        <ele>1778.58</ele>
        <time>2022-05-10T11:57:43Z</time>
      </trkpt>
      <trkpt lat="44.27032" lon="6.4221">
        <ele>1775.69</ele>
        <time>2022-05-10T11:58:01Z</time>
      </trkpt>
      <trkpt lat="44.27039" lon="6.42216">
        <ele>1772.81</ele>
        <time>2022-05-10T11:58:12Z</time>
      </trkpt>
      <trkpt lat="44.27051" lon="6.42217">
        <ele>1769.92</ele>
        <time>2022-05-10T11:58:26Z</time>
      </trkpt>
      <trkpt lat="44.27049" lon="6.42216">
        <ele>1769.44</ele>
        <time>2022-05-10T11:58:46Z</time>
      </trkpt>
      <trkpt lat="44.27052" lon="6.42219">
        <ele>1769.44</ele>
        <time>2022-05-10T11:58:58Z</time>
      </trkpt>
      <trkpt lat="44.27059" lon="6.42226">
        <ele>1766.08</ele>
        <time>2022-05-10T11:59:12Z</time>
      </trkpt>
      <trkpt lat="44.27066" lon="6.42232">
        <ele>1762.71</ele>
        <time>2022-05-10T11:59:24Z</time>
      </trkpt>
      <trkpt lat="44.27073" lon="6.42232">
        <ele>1761.27</ele>
        <time>2022-05-10T11:59:31Z</time>
      </trkpt>
      <trkpt lat="44.27077" lon="6.42235">
        <ele>1760.79</ele>
        <time>2022-05-10T11:59:48Z</time>
      </trkpt>
      <trkpt lat="44.27088" lon="6.42239">
        <ele>1757.91</ele>
        <time>2022-05-10T12:00:03Z</time>
      </trkpt>
      <trkpt lat="44.27103" lon="6.42244">
        <ele>1753.58</ele>
        <time>2022-05-10T12:00:20Z</time>
      </trkpt>
      <trkpt lat="44.27112" lon="6.42246">
        <ele>1752.14</ele>
        <time>2022-05-10T12:00:34Z</time>
      </trkpt>
      <trkpt lat="44.27123" lon="6.42251">
        <ele>1749.26</ele>
        <time>2022-05-10T12:00:49Z</time>
      </trkpt>
      <trkpt lat="44.2713" lon="6.42257">
        <ele>1746.37</ele>
        <time>2022-05-10T12:01:02Z</time>
      </trkpt>
      <trkpt lat="44.27136" lon="6.42263">
        <ele>1743.01</ele>
        <time>2022-05-10T12:01:12Z</time>
      </trkpt>
      <trkpt lat="44.27143" lon="6.4227">
        <ele>1739.64</ele>
        <time>2022-05-10T12:01:27Z</time>
      </trkpt>
      <trkpt lat="44.27147" lon="6.42274">
        <ele>1736.76</ele>
        <time>2022-05-10T12:01:39Z</time>
      </trkpt>
      <trkpt lat="44.27147" lon="6.42284">
        <ele>1733.39</ele>
        <time>2022-05-10T12:01:54Z</time>
      </trkpt>
      <trkpt lat="44.27155" lon="6.42288">
        <ele>1730.03</ele>
        <time>2022-05-10T12:02:04Z</time>
      </trkpt>
      <trkpt lat="44.27165" lon="6.42286">
        <ele>1727.15</ele>
        <time>2022-05-10T12:02:18Z</time>
      </trkpt>
      <trkpt lat="44.27169" lon="6.42289">
        <ele>1723.78</ele>
        <time>2022-05-10T12:02:30Z</time>
      </trkpt>
      <trkpt lat="44.27169" lon="6.4229">
        <ele>1723.78</ele>
        <time>2022-05-10T12:02:31Z</time>
      </trkpt>
      <trkpt lat="44.27172" lon="6.42294">
        <ele>1721.86</ele>
        <time>2022-05-10T12:02:46Z</time>
      </trkpt>
      <trkpt lat="44.27179" lon="6.42291">
        <ele>1718.49</ele>
        <time>2022-05-10T12:02:56Z</time>
      </trkpt>
      <trkpt lat="44.27191" lon="6.4229">
        <ele>1714.65</ele>
        <time>2022-05-10T12:03:10Z</time>
      </trkpt>
      <trkpt lat="44.27198" lon="6.42297">
        <ele>1711.76</ele>
        <time>2022-05-10T12:03:20Z</time>
      </trkpt>
      <trkpt lat="44.27204" lon="6.42304">
        <ele>1708.4</ele>
        <time>2022-05-10T12:03:31Z</time>
      </trkpt>
      <trkpt lat="44.27207" lon="6.42307">
        <ele>1707.92</ele>
        <time>2022-05-10T12:03:35Z</time>
      </trkpt>
      <trkpt lat="44.27211" lon="6.4231">
        <ele>1705.52</ele>
        <time>2022-05-10T12:03:38Z</time>
      </trkpt>
      <trkpt lat="44.27232" lon="6.42323">
        <ele>1704.07</ele>
        <time>2022-05-10T12:03:55Z</time>
      </trkpt>
      <trkpt lat="44.27246" lon="6.42331">
        <ele>1704.55</ele>
        <time>2022-05-10T12:04:12Z</time>
      </trkpt>
      <trkpt lat="44.27254" lon="6.42343">
        <ele>1706.96</ele>
        <time>2022-05-10T12:04:30Z</time>
      </trkpt>
      <trkpt lat="44.27264" lon="6.42353">
        <ele>1706.96</ele>
        <time>2022-05-10T12:04:45Z</time>
      </trkpt>
      <trkpt lat="44.27274" lon="6.42367">
        <ele>1705.52</ele>
        <time>2022-05-10T12:05:02Z</time>
      </trkpt>
      <trkpt lat="44.27283" lon="6.42385">
        <ele>1702.63</ele>
        <time>2022-05-10T12:05:18Z</time>
      </trkpt>
      <trkpt lat="44.2729" lon="6.424">
        <ele>1699.75</ele>
        <time>2022-05-10T12:05:35Z</time>
      </trkpt>
      <trkpt lat="44.27293" lon="6.42405">
        <ele>1698.79</ele>
        <time>2022-05-10T12:05:41Z</time>
      </trkpt>
      <trkpt lat="44.27304" lon="6.42426">
        <ele>1697.34</ele>
        <time>2022-05-10T12:05:58Z</time>
      </trkpt>
      <trkpt lat="44.27307" lon="6.42435">
        <ele>1696.38</ele>
        <time>2022-05-10T12:06:17Z</time>
      </trkpt>
      <trkpt lat="44.27316" lon="6.42455">
        <ele>1695.9</ele>
        <time>2022-05-10T12:06:37Z</time>
      </trkpt>
      <trkpt lat="44.27325" lon="6.42474">
        <ele>1695.9</ele>
        <time>2022-05-10T12:06:53Z</time>
      </trkpt>
      <trkpt lat="44.27328" lon="6.42495">
        <ele>1695.42</ele>
        <time>2022-05-10T12:07:11Z</time>
      </trkpt>
      <trkpt lat="44.27332" lon="6.42526">
        <ele>1693.98</ele>
        <time>2022-05-10T12:07:28Z</time>
      </trkpt>
      <trkpt lat="44.27341" lon="6.42544">
        <ele>1695.9</ele>
        <time>2022-05-10T12:07:49Z</time>
      </trkpt>
      <trkpt lat="44.27343" lon="6.42565">
        <ele>1697.34</ele>
        <time>2022-05-10T12:08:10Z</time>
      </trkpt>
      <trkpt lat="44.27343" lon="6.42577">
        <ele>1697.34</ele>
        <time>2022-05-10T12:08:27Z</time>
      </trkpt>
      <trkpt lat="44.27345" lon="6.42584">
        <ele>1695.42</ele>
        <time>2022-05-10T12:08:38Z</time>
      </trkpt>
      <trkpt lat="44.27344" lon="6.42609">
        <ele>1697.34</ele>
        <time>2022-05-10T12:08:58Z</time>
      </trkpt>
      <trkpt lat="44.27345" lon="6.4263">
        <ele>1698.79</ele>
        <time>2022-05-10T12:09:15Z</time>
      </trkpt>
      <trkpt lat="44.27343" lon="6.42636">
        <ele>1698.31</ele>
        <time>2022-05-10T12:09:33Z</time>
      </trkpt>
      <trkpt lat="44.27344" lon="6.42642">
        <ele>1698.31</ele>
        <time>2022-05-10T12:09:55Z</time>
      </trkpt>
      <trkpt lat="44.27345" lon="6.42645">
        <ele>1697.34</ele>
        <time>2022-05-10T12:09:59Z</time>
      </trkpt>
      <trkpt lat="44.27349" lon="6.42663">
        <ele>1694.94</ele>
        <time>2022-05-10T12:10:15Z</time>
      </trkpt>
      <trkpt lat="44.27352" lon="6.42687">
        <ele>1693.5</ele>
        <time>2022-05-10T12:10:30Z</time>
      </trkpt>
      <trkpt lat="44.27352" lon="6.42726">
        <ele>1694.94</ele>
        <time>2022-05-10T12:10:50Z</time>
      </trkpt>
      <trkpt lat="44.27355" lon="6.42751">
        <ele>1693.98</ele>
        <time>2022-05-10T12:11:08Z</time>
      </trkpt>
      <trkpt lat="44.27359" lon="6.42768">
        <ele>1693.02</ele>
        <time>2022-05-10T12:11:22Z</time>
      </trkpt>
      <trkpt lat="44.27362" lon="6.428">
        <ele>1694.46</ele>
        <time>2022-05-10T12:11:41Z</time>
      </trkpt>
      <trkpt lat="44.27367" lon="6.42812">
        <ele>1693.5</ele>
        <time>2022-05-10T12:11:51Z</time>
      </trkpt>
      <trkpt lat="44.2737" lon="6.42841">
        <ele>1693.5</ele>
        <time>2022-05-10T12:12:10Z</time>
      </trkpt>
      <trkpt lat="44.27375" lon="6.42854">
        <ele>1693.5</ele>
        <time>2022-05-10T12:12:20Z</time>
      </trkpt>
      <trkpt lat="44.2738" lon="6.42884">
        <ele>1694.46</ele>
        <time>2022-05-10T12:12:40Z</time>
      </trkpt>
      <trkpt lat="44.27385" lon="6.4291">
        <ele>1694.94</ele>
        <time>2022-05-10T12:12:58Z</time>
      </trkpt>
      <trkpt lat="44.27387" lon="6.42924">
        <ele>1692.54</ele>
        <time>2022-05-10T12:13:16Z</time>
      </trkpt>
      <trkpt lat="44.2739" lon="6.42935">
        <ele>1691.1</ele>
        <time>2022-05-10T12:13:46Z</time>
      </trkpt>
      <trkpt lat="44.27388" lon="6.4295">
        <ele>1688.21</ele>
        <time>2022-05-10T12:13:59Z</time>
      </trkpt>
      <trkpt lat="44.27387" lon="6.42963">
        <ele>1684.85</ele>
        <time>2022-05-10T12:14:15Z</time>
      </trkpt>
      <trkpt lat="44.27389" lon="6.42972">
        <ele>1681.48</ele>
        <time>2022-05-10T12:14:27Z</time>
      </trkpt>
      <trkpt lat="44.27392" lon="6.42979">
        <ele>1678.6</ele>
        <time>2022-05-10T12:14:42Z</time>
      </trkpt>
      <trkpt lat="44.27395" lon="6.42986">
        <ele>1675.23</ele>
        <time>2022-05-10T12:14:53Z</time>
      </trkpt>
      <trkpt lat="44.27395" lon="6.42994">
        <ele>1671.87</ele>
        <time>2022-05-10T12:15:05Z</time>
      </trkpt>
      <trkpt lat="44.27398" lon="6.43002">
        <ele>1668.51</ele>
        <time>2022-05-10T12:15:15Z</time>
      </trkpt>
      <trkpt lat="44.27406" lon="6.4301">
        <ele>1665.14</ele>
        <time>2022-05-10T12:15:26Z</time>
      </trkpt>
      <trkpt lat="44.27413" lon="6.43014">
        <ele>1661.78</ele>
        <time>2022-05-10T12:15:39Z</time>
      </trkpt>
      <trkpt lat="44.27413" lon="6.43023">
        <ele>1658.41</ele>
        <time>2022-05-10T12:15:51Z</time>
      </trkpt>
      <trkpt lat="44.27416" lon="6.4303">
        <ele>1655.05</ele>
        <time>2022-05-10T12:16:03Z</time>
      </trkpt>
      <trkpt lat="44.27421" lon="6.43034">
        <ele>1651.68</ele>
        <time>2022-05-10T12:16:21Z</time>
      </trkpt>
      <trkpt lat="44.27427" lon="6.43036">
        <ele>1648.8</ele>
        <time>2022-05-10T12:16:39Z</time>
      </trkpt>
      <trkpt lat="44.27436" lon="6.43035">
        <ele>1644.95</ele>
        <time>2022-05-10T12:16:54Z</time>
      </trkpt>
      <trkpt lat="44.27444" lon="6.43027">
        <ele>1641.59</ele>
        <time>2022-05-10T12:17:06Z</time>
      </trkpt>
      <trkpt lat="44.27453" lon="6.43016">
        <ele>1638.22</ele>
        <time>2022-05-10T12:17:19Z</time>
      </trkpt>
      <trkpt lat="44.2746" lon="6.43003">
        <ele>1634.86</ele>
        <time>2022-05-10T12:17:32Z</time>
      </trkpt>
      <trkpt lat="44.27465" lon="6.43002">
        <ele>1631.98</ele>
        <time>2022-05-10T12:17:47Z</time>
      </trkpt>
      <trkpt lat="44.27469" lon="6.43">
        <ele>1628.61</ele>
        <time>2022-05-10T12:18:00Z</time>
      </trkpt>
      <trkpt lat="44.2747" lon="6.42997">
        <ele>1627.17</ele>
        <time>2022-05-10T12:18:03Z</time>
      </trkpt>
      <trkpt lat="44.27477" lon="6.42986">
        <ele>1624.28</ele>
        <time>2022-05-10T12:18:13Z</time>
      </trkpt>
      <trkpt lat="44.27484" lon="6.42974">
        <ele>1620.92</ele>
        <time>2022-05-10T12:18:26Z</time>
      </trkpt>
      <trkpt lat="44.27489" lon="6.4297">
        <ele>1617.07</ele>
        <time>2022-05-10T12:18:38Z</time>
      </trkpt>
      <trkpt lat="44.27501" lon="6.42959">
        <ele>1614.19</ele>
        <time>2022-05-10T12:18:53Z</time>
      </trkpt>
      <trkpt lat="44.27506" lon="6.42951">
        <ele>1611.31</ele>
        <time>2022-05-10T12:19:03Z</time>
      </trkpt>
      <trkpt lat="44.27512" lon="6.42942">
        <ele>1607.94</ele>
        <time>2022-05-10T12:19:16Z</time>
      </trkpt>
      <trkpt lat="44.27517" lon="6.42937">
        <ele>1605.54</ele>
        <time>2022-05-10T12:19:23Z</time>
      </trkpt>
      <trkpt lat="44.27525" lon="6.42929">
        <ele>1602.17</ele>
        <time>2022-05-10T12:19:35Z</time>
      </trkpt>
      <trkpt lat="44.27529" lon="6.42917">
        <ele>1599.29</ele>
        <time>2022-05-10T12:19:46Z</time>
      </trkpt>
      <trkpt lat="44.27538" lon="6.42916">
        <ele>1595.93</ele>
        <time>2022-05-10T12:20:01Z</time>
      </trkpt>
      <trkpt lat="44.27544" lon="6.42922">
        <ele>1592.56</ele>
        <time>2022-05-10T12:20:13Z</time>
      </trkpt>
      <trkpt lat="44.27552" lon="6.42923">
        <ele>1589.2</ele>
        <time>2022-05-10T12:20:23Z</time>
      </trkpt>
      <trkpt lat="44.27561" lon="6.42918">
        <ele>1587.27</ele>
        <time>2022-05-10T12:20:38Z</time>
      </trkpt>
      <trkpt lat="44.27568" lon="6.42915">
        <ele>1585.83</ele>
        <time>2022-05-10T12:20:45Z</time>
      </trkpt>
      <trkpt lat="44.27579" lon="6.42912">
        <ele>1582.47</ele>
        <time>2022-05-10T12:20:56Z</time>
      </trkpt>
      <trkpt lat="44.27593" lon="6.42909">
        <ele>1580.06</ele>
        <time>2022-05-10T12:21:10Z</time>
      </trkpt>
      <trkpt lat="44.276" lon="6.42917">
        <ele>1576.7</ele>
        <time>2022-05-10T12:21:21Z</time>
      </trkpt>
      <trkpt lat="44.27619" lon="6.42922">
        <ele>1573.82</ele>
        <time>2022-05-10T12:21:39Z</time>
      </trkpt>
      <trkpt lat="44.2763" lon="6.42925">
        <ele>1572.85</ele>
        <time>2022-05-10T12:21:51Z</time>
      </trkpt>
      <trkpt lat="44.27635" lon="6.42942">
        <ele>1569.97</ele>
        <time>2022-05-10T12:22:06Z</time>
      </trkpt>
      <trkpt lat="44.27626" lon="6.42955">
        <ele>1569.01</ele>
        <time>2022-05-10T12:22:22Z</time>
      </trkpt>
      <trkpt lat="44.27621" lon="6.42963">
        <ele>1568.53</ele>
        <time>2022-05-10T12:22:36Z</time>
      </trkpt>
      <trkpt lat="44.27607" lon="6.42976">
        <ele>1567.09</ele>
        <time>2022-05-10T12:22:53Z</time>
      </trkpt>
      <trkpt lat="44.27594" lon="6.43013">
        <ele>1564.2</ele>
        <time>2022-05-10T12:23:15Z</time>
      </trkpt>
      <trkpt lat="44.27591" lon="6.43024">
        <ele>1562.76</ele>
        <time>2022-05-10T12:23:24Z</time>
      </trkpt>
      <trkpt lat="44.2759" lon="6.43034">
        <ele>1562.28</ele>
        <time>2022-05-10T12:23:29Z</time>
      </trkpt>
      <trkpt lat="44.27587" lon="6.43059">
        <ele>1559.4</ele>
        <time>2022-05-10T12:23:44Z</time>
      </trkpt>
      <trkpt lat="44.27578" lon="6.43088">
        <ele>1556.51</ele>
        <time>2022-05-10T12:24:03Z</time>
      </trkpt>
      <trkpt lat="44.27569" lon="6.43109">
        <ele>1554.11</ele>
        <time>2022-05-10T12:24:19Z</time>
      </trkpt>
      <trkpt lat="44.27557" lon="6.43131">
        <ele>1551.71</ele>
        <time>2022-05-10T12:24:35Z</time>
      </trkpt>
      <trkpt lat="44.27544" lon="6.43147">
        <ele>1548.82</ele>
        <time>2022-05-10T12:24:49Z</time>
      </trkpt>
      <trkpt lat="44.27524" lon="6.4317">
        <ele>1546.42</ele>
        <time>2022-05-10T12:25:08Z</time>
      </trkpt>
      <trkpt lat="44.2752" lon="6.43189">
        <ele>1545.94</ele>
        <time>2022-05-10T12:25:27Z</time>
      </trkpt>
      <trkpt lat="44.27513" lon="6.43205">
        <ele>1544.01</ele>
        <time>2022-05-10T12:25:44Z</time>
      </trkpt>
      <trkpt lat="44.27496" lon="6.43225">
        <ele>1541.61</ele>
        <time>2022-05-10T12:26:00Z</time>
      </trkpt>
      <trkpt lat="44.27486" lon="6.43244">
        <ele>1538.25</ele>
        <time>2022-05-10T12:26:18Z</time>
      </trkpt>
      <trkpt lat="44.27476" lon="6.43264">
        <ele>1534.88</ele>
        <time>2022-05-10T12:26:32Z</time>
      </trkpt>
      <trkpt lat="44.27466" lon="6.43279">
        <ele>1532</ele>
        <time>2022-05-10T12:26:48Z</time>
      </trkpt>
      <trkpt lat="44.27455" lon="6.43291">
        <ele>1528.63</ele>
        <time>2022-05-10T12:27:02Z</time>
      </trkpt>
      <trkpt lat="44.27443" lon="6.43299">
        <ele>1525.75</ele>
        <time>2022-05-10T12:27:16Z</time>
      </trkpt>
      <trkpt lat="44.27429" lon="6.43314">
        <ele>1522.39</ele>
        <time>2022-05-10T12:27:31Z</time>
      </trkpt>
      <trkpt lat="44.27422" lon="6.43321">
        <ele>1520.94</ele>
        <time>2022-05-10T12:27:43Z</time>
      </trkpt>
      <trkpt lat="44.27416" lon="6.4333">
        <ele>1520.46</ele>
        <time>2022-05-10T12:27:59Z</time>
      </trkpt>
      <trkpt lat="44.27414" lon="6.4334">
        <ele>1520.46</ele>
        <time>2022-05-10T12:28:17Z</time>
      </trkpt>
      <trkpt lat="44.27413" lon="6.43342">
        <ele>1520.46</ele>
        <time>2022-05-10T12:28:36Z</time>
      </trkpt>
      <trkpt lat="44.27411" lon="6.43346">
        <ele>1520.46</ele>
        <time>2022-05-10T12:29:01Z</time>
      </trkpt>
      <trkpt lat="44.27412" lon="6.43337">
        <ele>1519.98</ele>
        <time>2022-05-10T12:29:16Z</time>
      </trkpt>
      <trkpt lat="44.27417" lon="6.43352">
        <ele>1519.02</ele>
        <time>2022-05-10T12:29:31Z</time>
      </trkpt>
      <trkpt lat="44.27417" lon="6.4335">
        <ele>1519.02</ele>
        <time>2022-05-10T12:29:33Z</time>
      </trkpt>
      <trkpt lat="44.27424" lon="6.43324">
        <ele>1521.42</ele>
        <time>2022-05-10T12:29:51Z</time>
      </trkpt>
      <trkpt lat="44.2743" lon="6.43319">
        <ele>1522.87</ele>
        <time>2022-05-10T12:29:57Z</time>
      </trkpt>
      <trkpt lat="44.27433" lon="6.43318">
        <ele>1523.35</ele>
        <time>2022-05-10T12:29:59Z</time>
      </trkpt>
      <trkpt lat="44.27446" lon="6.43306">
        <ele>1526.23</ele>
        <time>2022-05-10T12:30:14Z</time>
      </trkpt>
      <trkpt lat="44.27448" lon="6.43304">
        <ele>1526.23</ele>
        <time>2022-05-10T12:30:17Z</time>
      </trkpt>
      <trkpt lat="44.27461" lon="6.43295">
        <ele>1529.59</ele>
        <time>2022-05-10T12:30:34Z</time>
      </trkpt>
      <trkpt lat="44.27464" lon="6.43289">
        <ele>1530.56</ele>
        <time>2022-05-10T12:30:41Z</time>
      </trkpt>
      <trkpt lat="44.27468" lon="6.43282">
        <ele>1532</ele>
        <time>2022-05-10T12:30:48Z</time>
      </trkpt>
      <trkpt lat="44.27479" lon="6.43268">
        <ele>1534.4</ele>
        <time>2022-05-10T12:31:04Z</time>
      </trkpt>
      <trkpt lat="44.27488" lon="6.43249">
        <ele>1537.29</ele>
        <time>2022-05-10T12:31:21Z</time>
      </trkpt>
      <trkpt lat="44.27485" lon="6.43253">
        <ele>1537.77</ele>
        <time>2022-05-10T12:31:39Z</time>
      </trkpt>
      <trkpt lat="44.27486" lon="6.43249">
        <ele>1538.25</ele>
        <time>2022-05-10T12:31:56Z</time>
      </trkpt>
      <trkpt lat="44.27496" lon="6.43237">
        <ele>1539.21</ele>
        <time>2022-05-10T12:32:11Z</time>
      </trkpt>
      <trkpt lat="44.27506" lon="6.43224">
        <ele>1541.13</ele>
        <time>2022-05-10T12:32:25Z</time>
      </trkpt>
      <trkpt lat="44.27509" lon="6.4322">
        <ele>1542.09</ele>
        <time>2022-05-10T12:32:29Z</time>
      </trkpt>
      <trkpt lat="44.27519" lon="6.43203">
        <ele>1543.53</ele>
        <time>2022-05-10T12:32:42Z</time>
      </trkpt>
      <trkpt lat="44.27528" lon="6.43187">
        <ele>1544.98</ele>
        <time>2022-05-10T12:32:56Z</time>
      </trkpt>
      <trkpt lat="44.27542" lon="6.43169">
        <ele>1547.38</ele>
        <time>2022-05-10T12:33:15Z</time>
      </trkpt>
      <trkpt lat="44.27548" lon="6.43157">
        <ele>1549.3</ele>
        <time>2022-05-10T12:33:30Z</time>
      </trkpt>
      <trkpt lat="44.27557" lon="6.43142">
        <ele>1550.74</ele>
        <time>2022-05-10T12:33:42Z</time>
      </trkpt>
      <trkpt lat="44.27563" lon="6.43126">
        <ele>1551.71</ele>
        <time>2022-05-10T12:33:53Z</time>
      </trkpt>
      <trkpt lat="44.27571" lon="6.431">
        <ele>1553.63</ele>
        <time>2022-05-10T12:34:09Z</time>
      </trkpt>
      <trkpt lat="44.27578" lon="6.43073">
        <ele>1555.55</ele>
        <time>2022-05-10T12:34:27Z</time>
      </trkpt>
      <trkpt lat="44.27587" lon="6.43049">
        <ele>1557.95</ele>
        <time>2022-05-10T12:34:43Z</time>
      </trkpt>
      <trkpt lat="44.27587" lon="6.43046">
        <ele>1558.92</ele>
        <time>2022-05-10T12:34:46Z</time>
      </trkpt>
      <trkpt lat="44.27592" lon="6.43025">
        <ele>1560.36</ele>
        <time>2022-05-10T12:35:01Z</time>
      </trkpt>
      <trkpt lat="44.27602" lon="6.43005">
        <ele>1562.76</ele>
        <time>2022-05-10T12:35:18Z</time>
      </trkpt>
      <trkpt lat="44.2761" lon="6.42979">
        <ele>1563.72</ele>
        <time>2022-05-10T12:35:34Z</time>
      </trkpt>
      <trkpt lat="44.27616" lon="6.42974">
        <ele>1565.16</ele>
        <time>2022-05-10T12:35:51Z</time>
      </trkpt>
      <trkpt lat="44.27624" lon="6.42964">
        <ele>1565.16</ele>
        <time>2022-05-10T12:36:09Z</time>
      </trkpt>
      <trkpt lat="44.27639" lon="6.42949">
        <ele>1564.2</ele>
        <time>2022-05-10T12:36:24Z</time>
      </trkpt>
      <trkpt lat="44.2766" lon="6.4294">
        <ele>1562.76</ele>
        <time>2022-05-10T12:36:41Z</time>
      </trkpt>
      <trkpt lat="44.27679" lon="6.42934">
        <ele>1561.8</ele>
        <time>2022-05-10T12:36:55Z</time>
      </trkpt>
      <trkpt lat="44.27701" lon="6.42915">
        <ele>1558.92</ele>
        <time>2022-05-10T12:37:15Z</time>
      </trkpt>
      <trkpt lat="44.27712" lon="6.42901">
        <ele>1557.95</ele>
        <time>2022-05-10T12:37:27Z</time>
      </trkpt>
      <trkpt lat="44.27716" lon="6.42896">
        <ele>1556.99</ele>
        <time>2022-05-10T12:37:33Z</time>
      </trkpt>
      <trkpt lat="44.27717" lon="6.42894">
        <ele>1556.99</ele>
        <time>2022-05-10T12:37:35Z</time>
      </trkpt>
      <trkpt lat="44.2773" lon="6.42877">
        <ele>1557.95</ele>
        <time>2022-05-10T12:37:49Z</time>
      </trkpt>
      <trkpt lat="44.27739" lon="6.42865">
        <ele>1556.51</ele>
        <time>2022-05-10T12:37:59Z</time>
      </trkpt>
      <trkpt lat="44.2776" lon="6.42837">
        <ele>1555.55</ele>
        <time>2022-05-10T12:38:23Z</time>
      </trkpt>
      <trkpt lat="44.27761" lon="6.42834">
        <ele>1555.07</ele>
        <time>2022-05-10T12:38:25Z</time>
      </trkpt>
      <trkpt lat="44.27774" lon="6.4281">
        <ele>1552.67</ele>
        <time>2022-05-10T12:38:43Z</time>
      </trkpt>
      <trkpt lat="44.27788" lon="6.42785">
        <ele>1550.26</ele>
        <time>2022-05-10T12:39:01Z</time>
      </trkpt>
      <trkpt lat="44.278" lon="6.42763">
        <ele>1548.34</ele>
        <time>2022-05-10T12:39:16Z</time>
      </trkpt>
      <trkpt lat="44.2782" lon="6.4274">
        <ele>1545.46</ele>
        <time>2022-05-10T12:39:35Z</time>
      </trkpt>
      <trkpt lat="44.27833" lon="6.42713">
        <ele>1543.05</ele>
        <time>2022-05-10T12:39:54Z</time>
      </trkpt>
      <trkpt lat="44.27845" lon="6.42692">
        <ele>1540.65</ele>
        <time>2022-05-10T12:40:09Z</time>
      </trkpt>
      <trkpt lat="44.27864" lon="6.4267">
        <ele>1537.77</ele>
        <time>2022-05-10T12:40:27Z</time>
      </trkpt>
      <trkpt lat="44.27866" lon="6.42658">
        <ele>1537.29</ele>
        <time>2022-05-10T12:40:40Z</time>
      </trkpt>
      <trkpt lat="44.27871" lon="6.42629">
        <ele>1534.88</ele>
        <time>2022-05-10T12:40:57Z</time>
      </trkpt>
      <trkpt lat="44.27878" lon="6.42614">
        <ele>1533.44</ele>
        <time>2022-05-10T12:41:07Z</time>
      </trkpt>
      <trkpt lat="44.27891" lon="6.42593">
        <ele>1531.52</ele>
        <time>2022-05-10T12:41:24Z</time>
      </trkpt>
      <trkpt lat="44.27913" lon="6.42578">
        <ele>1529.11</ele>
        <time>2022-05-10T12:41:41Z</time>
      </trkpt>
      <trkpt lat="44.2792" lon="6.42572">
        <ele>1528.15</ele>
        <time>2022-05-10T12:41:48Z</time>
      </trkpt>
      <trkpt lat="44.27934" lon="6.42562">
        <ele>1526.71</ele>
        <time>2022-05-10T12:42:02Z</time>
      </trkpt>
      <trkpt lat="44.27927" lon="6.42559">
        <ele>1526.23</ele>
        <time>2022-05-10T12:42:15Z</time>
      </trkpt>
      <trkpt lat="44.27909" lon="6.42553">
        <ele>1524.79</ele>
        <time>2022-05-10T12:42:31Z</time>
      </trkpt>
      <trkpt lat="44.27906" lon="6.42541">
        <ele>1521.42</ele>
        <time>2022-05-10T12:42:43Z</time>
      </trkpt>
      <trkpt lat="44.27905" lon="6.42537">
        <ele>1519.98</ele>
        <time>2022-05-10T12:42:48Z</time>
      </trkpt>
      <trkpt lat="44.279" lon="6.42525">
        <ele>1516.14</ele>
        <time>2022-05-10T12:43:00Z</time>
      </trkpt>
      <trkpt lat="44.27899" lon="6.42521">
        <ele>1515.18</ele>
        <time>2022-05-10T12:43:03Z</time>
      </trkpt>
      <trkpt lat="44.27888" lon="6.42501">
        <ele>1510.85</ele>
        <time>2022-05-10T12:43:18Z</time>
      </trkpt>
      <trkpt lat="44.27887" lon="6.42499">
        <ele>1509.89</ele>
        <time>2022-05-10T12:43:20Z</time>
      </trkpt>
      <trkpt lat="44.27885" lon="6.42492">
        <ele>1507.97</ele>
        <time>2022-05-10T12:43:25Z</time>
      </trkpt>
      <trkpt lat="44.27884" lon="6.42477">
        <ele>1505.08</ele>
        <time>2022-05-10T12:43:35Z</time>
      </trkpt>
      <trkpt lat="44.2789" lon="6.42463">
        <ele>1501.24</ele>
        <time>2022-05-10T12:43:46Z</time>
      </trkpt>
      <trkpt lat="44.2789" lon="6.42461">
        <ele>1501.24</ele>
        <time>2022-05-10T12:43:47Z</time>
      </trkpt>
      <trkpt lat="44.27892" lon="6.42447">
        <ele>1497.87</ele>
        <time>2022-05-10T12:43:58Z</time>
      </trkpt>
      <trkpt lat="44.27895" lon="6.42441">
        <ele>1495.95</ele>
        <time>2022-05-10T12:44:04Z</time>
      </trkpt>
      <trkpt lat="44.27897" lon="6.4243">
        <ele>1493.06</ele>
        <time>2022-05-10T12:44:13Z</time>
      </trkpt>
      <trkpt lat="44.279" lon="6.4242">
        <ele>1490.66</ele>
        <time>2022-05-10T12:44:25Z</time>
      </trkpt>
      <trkpt lat="44.27902" lon="6.42414">
        <ele>1490.66</ele>
        <time>2022-05-10T12:44:29Z</time>
      </trkpt>
      <trkpt lat="44.27904" lon="6.42399">
        <ele>1486.82</ele>
        <time>2022-05-10T12:44:39Z</time>
      </trkpt>
      <trkpt lat="44.27906" lon="6.42386">
        <ele>1483.93</ele>
        <time>2022-05-10T12:44:52Z</time>
      </trkpt>
      <trkpt lat="44.27907" lon="6.42374">
        <ele>1480.09</ele>
        <time>2022-05-10T12:45:03Z</time>
      </trkpt>
      <trkpt lat="44.27906" lon="6.42367">
        <ele>1478.16</ele>
        <time>2022-05-10T12:45:10Z</time>
      </trkpt>
      <trkpt lat="44.27907" lon="6.42356">
        <ele>1475.28</ele>
        <time>2022-05-10T12:45:20Z</time>
      </trkpt>
      <trkpt lat="44.27907" lon="6.42344">
        <ele>1471.92</ele>
        <time>2022-05-10T12:45:34Z</time>
      </trkpt>
      <trkpt lat="44.27907" lon="6.42342">
        <ele>1470.47</ele>
        <time>2022-05-10T12:45:37Z</time>
      </trkpt>
      <trkpt lat="44.27907" lon="6.42338">
        <ele>1469.99</ele>
        <time>2022-05-10T12:45:42Z</time>
      </trkpt>
      <trkpt lat="44.27905" lon="6.42323">
        <ele>1468.55</ele>
        <time>2022-05-10T12:45:50Z</time>
      </trkpt>
      <trkpt lat="44.27904" lon="6.42316">
        <ele>1468.07</ele>
        <time>2022-05-10T12:45:55Z</time>
      </trkpt>
      <trkpt lat="44.27896" lon="6.42305">
        <ele>1467.11</ele>
        <time>2022-05-10T12:46:10Z</time>
      </trkpt>
      <trkpt lat="44.27895" lon="6.42301">
        <ele>1465.67</ele>
        <time>2022-05-10T12:46:15Z</time>
      </trkpt>
      <trkpt lat="44.27892" lon="6.42293">
        <ele>1462.78</ele>
        <time>2022-05-10T12:46:23Z</time>
      </trkpt>
      <trkpt lat="44.27887" lon="6.42287">
        <ele>1460.86</ele>
        <time>2022-05-10T12:46:30Z</time>
      </trkpt>
      <trkpt lat="44.27884" lon="6.42277">
        <ele>1457.98</ele>
        <time>2022-05-10T12:46:37Z</time>
      </trkpt>
      <trkpt lat="44.27881" lon="6.42261">
        <ele>1454.13</ele>
        <time>2022-05-10T12:46:49Z</time>
      </trkpt>
      <trkpt lat="44.2788" lon="6.42245">
        <ele>1450.77</ele>
        <time>2022-05-10T12:47:00Z</time>
      </trkpt>
      <trkpt lat="44.27879" lon="6.42232">
        <ele>1447.88</ele>
        <time>2022-05-10T12:47:09Z</time>
      </trkpt>
      <trkpt lat="44.27876" lon="6.42215">
        <ele>1445</ele>
        <time>2022-05-10T12:47:20Z</time>
      </trkpt>
      <trkpt lat="44.27874" lon="6.42199">
        <ele>1442.11</ele>
        <time>2022-05-10T12:47:36Z</time>
      </trkpt>
      <trkpt lat="44.27875" lon="6.42197">
        <ele>1440.67</ele>
        <time>2022-05-10T12:47:38Z</time>
      </trkpt>
      <trkpt lat="44.27875" lon="6.42186">
        <ele>1439.23</ele>
        <time>2022-05-10T12:47:45Z</time>
      </trkpt>
      <trkpt lat="44.27873" lon="6.4218">
        <ele>1438.27</ele>
        <time>2022-05-10T12:48:03Z</time>
      </trkpt>
      <trkpt lat="44.27872" lon="6.42182">
        <ele>1437.79</ele>
        <time>2022-05-10T12:48:50Z</time>
      </trkpt>
      <trkpt lat="44.27874" lon="6.42182">
        <ele>1438.27</ele>
        <time>2022-05-10T12:49:25Z</time>
      </trkpt>
      <trkpt lat="44.27876" lon="6.42176">
        <ele>1438.27</ele>
        <time>2022-05-10T12:49:47Z</time>
      </trkpt>
      <trkpt lat="44.27876" lon="6.42173">
        <ele>1436.83</ele>
        <time>2022-05-10T12:49:49Z</time>
      </trkpt>
      <trkpt lat="44.27871" lon="6.42155">
        <ele>1433.94</ele>
        <time>2022-05-10T12:50:01Z</time>
      </trkpt>
      <trkpt lat="44.2787" lon="6.42152">
        <ele>1432.98</ele>
        <time>2022-05-10T12:50:03Z</time>
      </trkpt>
      <trkpt lat="44.27872" lon="6.42138">
        <ele>1430.1</ele>
        <time>2022-05-10T12:50:13Z</time>
      </trkpt>
      <trkpt lat="44.27874" lon="6.42125">
        <ele>1427.21</ele>
        <time>2022-05-10T12:50:24Z</time>
      </trkpt>
      <trkpt lat="44.27881" lon="6.42115">
        <ele>1423.85</ele>
        <time>2022-05-10T12:50:35Z</time>
      </trkpt>
      <trkpt lat="44.27884" lon="6.42099">
        <ele>1420</ele>
        <time>2022-05-10T12:50:48Z</time>
      </trkpt>
      <trkpt lat="44.27888" lon="6.42086">
        <ele>1416.64</ele>
        <time>2022-05-10T12:50:59Z</time>
      </trkpt>
      <trkpt lat="44.2789" lon="6.4207">
        <ele>1413.28</ele>
        <time>2022-05-10T12:51:10Z</time>
      </trkpt>
      <trkpt lat="44.2789" lon="6.42067">
        <ele>1413.28</ele>
        <time>2022-05-10T12:51:12Z</time>
      </trkpt>
      <trkpt lat="44.27889" lon="6.42053">
        <ele>1409.91</ele>
        <time>2022-05-10T12:51:23Z</time>
      </trkpt>
      <trkpt lat="44.27886" lon="6.42043">
        <ele>1407.99</ele>
        <time>2022-05-10T12:51:30Z</time>
      </trkpt>
      <trkpt lat="44.27891" lon="6.42036">
        <ele>1405.58</ele>
        <time>2022-05-10T12:51:37Z</time>
      </trkpt>
      <trkpt lat="44.27899" lon="6.42037">
        <ele>1405.1</ele>
        <time>2022-05-10T12:51:43Z</time>
      </trkpt>
      <trkpt lat="44.27904" lon="6.42031">
        <ele>1404.62</ele>
        <time>2022-05-10T12:51:57Z</time>
      </trkpt>
      <trkpt lat="44.27904" lon="6.42032">
        <ele>1404.62</ele>
        <time>2022-05-10T12:52:11Z</time>
      </trkpt>
      <trkpt lat="44.2791" lon="6.42055">
        <ele>1402.7</ele>
        <time>2022-05-10T12:52:24Z</time>
      </trkpt>
      <trkpt lat="44.27917" lon="6.42064">
        <ele>1400.78</ele>
        <time>2022-05-10T12:52:32Z</time>
      </trkpt>
      <trkpt lat="44.27924" lon="6.42069">
        <ele>1400.3</ele>
        <time>2022-05-10T12:52:39Z</time>
      </trkpt>
      <trkpt lat="44.27929" lon="6.42075">
        <ele>1399.82</ele>
        <time>2022-05-10T12:52:43Z</time>
      </trkpt>
      <trkpt lat="44.27937" lon="6.42093">
        <ele>1397.41</ele>
        <time>2022-05-10T12:52:54Z</time>
      </trkpt>
      <trkpt lat="44.27945" lon="6.42129">
        <ele>1395.01</ele>
        <time>2022-05-10T12:53:11Z</time>
      </trkpt>
      <trkpt lat="44.27948" lon="6.42135">
        <ele>1394.05</ele>
        <time>2022-05-10T12:53:20Z</time>
      </trkpt>
      <trkpt lat="44.27957" lon="6.42139">
        <ele>1392.61</ele>
        <time>2022-05-10T12:53:28Z</time>
      </trkpt>
      <trkpt lat="44.27963" lon="6.42142">
        <ele>1391.65</ele>
        <time>2022-05-10T12:53:33Z</time>
      </trkpt>
      <trkpt lat="44.27971" lon="6.42145">
        <ele>1391.17</ele>
        <time>2022-05-10T12:53:38Z</time>
      </trkpt>
      <trkpt lat="44.27974" lon="6.42147">
        <ele>1390.68</ele>
        <time>2022-05-10T12:53:41Z</time>
      </trkpt>
      <trkpt lat="44.27978" lon="6.42152">
        <ele>1389.24</ele>
        <time>2022-05-10T12:53:45Z</time>
      </trkpt>
      <trkpt lat="44.27984" lon="6.42156">
        <ele>1388.76</ele>
        <time>2022-05-10T12:53:50Z</time>
      </trkpt>
      <trkpt lat="44.27995" lon="6.42168">
        <ele>1386.84</ele>
        <time>2022-05-10T12:54:01Z</time>
      </trkpt>
      <trkpt lat="44.27997" lon="6.42175">
        <ele>1385.88</ele>
        <time>2022-05-10T12:54:05Z</time>
      </trkpt>
      <trkpt lat="44.28008" lon="6.422">
        <ele>1382.51</ele>
        <time>2022-05-10T12:54:20Z</time>
      </trkpt>
      <trkpt lat="44.28022" lon="6.4221">
        <ele>1380.59</ele>
        <time>2022-05-10T12:54:33Z</time>
      </trkpt>
      <trkpt lat="44.28024" lon="6.42184">
        <ele>1377.71</ele>
        <time>2022-05-10T12:54:48Z</time>
      </trkpt>
      <trkpt lat="44.28013" lon="6.42157">
        <ele>1375.3</ele>
        <time>2022-05-10T12:55:02Z</time>
      </trkpt>
      <trkpt lat="44.28003" lon="6.42136">
        <ele>1371.94</ele>
        <time>2022-05-10T12:55:15Z</time>
      </trkpt>
      <trkpt lat="44.28001" lon="6.42132">
        <ele>1371.94</ele>
        <time>2022-05-10T12:55:17Z</time>
      </trkpt>
      <trkpt lat="44.2799" lon="6.42104">
        <ele>1369.54</ele>
        <time>2022-05-10T12:55:33Z</time>
      </trkpt>
      <trkpt lat="44.27982" lon="6.42081">
        <ele>1368.09</ele>
        <time>2022-05-10T12:55:48Z</time>
      </trkpt>
      <trkpt lat="44.27975" lon="6.42057">
        <ele>1365.21</ele>
        <time>2022-05-10T12:56:04Z</time>
      </trkpt>
      <trkpt lat="44.27975" lon="6.42055">
        <ele>1364.73</ele>
        <time>2022-05-10T12:56:05Z</time>
      </trkpt>
      <trkpt lat="44.27972" lon="6.42033">
        <ele>1363.29</ele>
        <time>2022-05-10T12:56:15Z</time>
      </trkpt>
      <trkpt lat="44.27967" lon="6.42001">
        <ele>1359.92</ele>
        <time>2022-05-10T12:56:33Z</time>
      </trkpt>
      <trkpt lat="44.27961" lon="6.41967">
        <ele>1357.04</ele>
        <time>2022-05-10T12:56:50Z</time>
      </trkpt>
      <trkpt lat="44.27962" lon="6.41929">
        <ele>1351.27</ele>
        <time>2022-05-10T12:57:08Z</time>
      </trkpt>
      <trkpt lat="44.27962" lon="6.41927">
        <ele>1355.12</ele>
        <time>2022-05-10T12:57:09Z</time>
      </trkpt>
      <trkpt lat="44.27962" lon="6.41923">
        <ele>1352.23</ele>
        <time>2022-05-10T12:57:11Z</time>
      </trkpt>
      <trkpt lat="44.27961" lon="6.41916">
        <ele>1351.75</ele>
        <time>2022-05-10T12:57:15Z</time>
      </trkpt>
      <trkpt lat="44.2796" lon="6.41904">
        <ele>1350.79</ele>
        <time>2022-05-10T12:57:22Z</time>
      </trkpt>
      <trkpt lat="44.27957" lon="6.41891">
        <ele>1349.35</ele>
        <time>2022-05-10T12:57:29Z</time>
      </trkpt>
      <trkpt lat="44.27949" lon="6.41861">
        <ele>1347.43</ele>
        <time>2022-05-10T12:57:43Z</time>
      </trkpt>
      <trkpt lat="44.2793" lon="6.41844">
        <ele>1344.54</ele>
        <time>2022-05-10T12:57:59Z</time>
      </trkpt>
      <trkpt lat="44.27924" lon="6.4184">
        <ele>1343.58</ele>
        <time>2022-05-10T12:58:04Z</time>
      </trkpt>
      <trkpt lat="44.27902" lon="6.41839">
        <ele>1340.22</ele>
        <time>2022-05-10T12:58:20Z</time>
      </trkpt>
      <trkpt lat="44.279" lon="6.41835">
        <ele>1339.73</ele>
        <time>2022-05-10T12:58:23Z</time>
      </trkpt>
      <trkpt lat="44.27911" lon="6.41818">
        <ele>1337.81</ele>
        <time>2022-05-10T12:58:38Z</time>
      </trkpt>
      <trkpt lat="44.27913" lon="6.41818">
        <ele>1337.81</ele>
        <time>2022-05-10T12:58:40Z</time>
      </trkpt>
      <trkpt lat="44.27929" lon="6.41815">
        <ele>1335.89</ele>
        <time>2022-05-10T12:58:54Z</time>
      </trkpt>
      <trkpt lat="44.27952" lon="6.41809">
        <ele>1332.52</ele>
        <time>2022-05-10T12:59:11Z</time>
      </trkpt>
      <trkpt lat="44.27975" lon="6.4179">
        <ele>1330.12</ele>
        <time>2022-05-10T12:59:29Z</time>
      </trkpt>
      <trkpt lat="44.27986" lon="6.41763">
        <ele>1328.68</ele>
        <time>2022-05-10T12:59:45Z</time>
      </trkpt>
      <trkpt lat="44.2799" lon="6.41735">
        <ele>1326.76</ele>
        <time>2022-05-10T13:00:00Z</time>
      </trkpt>
      <trkpt lat="44.27982" lon="6.41704">
        <ele>1324.35</ele>
        <time>2022-05-10T13:00:17Z</time>
      </trkpt>
      <trkpt lat="44.27971" lon="6.41682">
        <ele>1323.87</ele>
        <time>2022-05-10T13:00:29Z</time>
      </trkpt>
      <trkpt lat="44.2797" lon="6.41671">
        <ele>1323.39</ele>
        <time>2022-05-10T13:00:35Z</time>
      </trkpt>
      <trkpt lat="44.27968" lon="6.41662">
        <ele>1323.39</ele>
        <time>2022-05-10T13:00:40Z</time>
      </trkpt>
      <trkpt lat="44.27969" lon="6.41659">
        <ele>1322.91</ele>
        <time>2022-05-10T13:00:42Z</time>
      </trkpt>
      <trkpt lat="44.2797" lon="6.41634">
        <ele>1321.95</ele>
        <time>2022-05-10T13:00:54Z</time>
      </trkpt>
      <trkpt lat="44.27969" lon="6.41613">
        <ele>1320.99</ele>
        <time>2022-05-10T13:01:04Z</time>
      </trkpt>
      <trkpt lat="44.27968" lon="6.416">
        <ele>1320.03</ele>
        <time>2022-05-10T13:01:10Z</time>
      </trkpt>
      <trkpt lat="44.27971" lon="6.41573">
        <ele>1317.62</ele>
        <time>2022-05-10T13:01:25Z</time>
      </trkpt>
      <trkpt lat="44.27974" lon="6.41553">
        <ele>1315.22</ele>
        <time>2022-05-10T13:01:38Z</time>
      </trkpt>
      <trkpt lat="44.27979" lon="6.41522">
        <ele>1312.34</ele>
        <time>2022-05-10T13:01:53Z</time>
      </trkpt>
      <trkpt lat="44.27984" lon="6.4149">
        <ele>1309.45</ele>
        <time>2022-05-10T13:02:10Z</time>
      </trkpt>
      <trkpt lat="44.27983" lon="6.41484">
        <ele>1308.97</ele>
        <time>2022-05-10T13:02:13Z</time>
      </trkpt>
      <trkpt lat="44.27973" lon="6.41454">
        <ele>1307.05</ele>
        <time>2022-05-10T13:02:30Z</time>
      </trkpt>
      <trkpt lat="44.27962" lon="6.41417">
        <ele>1305.13</ele>
        <time>2022-05-10T13:02:48Z</time>
      </trkpt>
      <trkpt lat="44.27957" lon="6.41385">
        <ele>1302.24</ele>
        <time>2022-05-10T13:03:05Z</time>
      </trkpt>
      <trkpt lat="44.27951" lon="6.41366">
        <ele>1300.8</ele>
        <time>2022-05-10T13:03:14Z</time>
      </trkpt>
      <trkpt lat="44.27944" lon="6.41341">
        <ele>1298.88</ele>
        <time>2022-05-10T13:03:29Z</time>
      </trkpt>
      <trkpt lat="44.27935" lon="6.41319">
        <ele>1296.96</ele>
        <time>2022-05-10T13:03:45Z</time>
      </trkpt>
      <trkpt lat="44.27929" lon="6.41288">
        <ele>1295.51</ele>
        <time>2022-05-10T13:03:58Z</time>
      </trkpt>
      <trkpt lat="44.27922" lon="6.4126">
        <ele>1295.03</ele>
        <time>2022-05-10T13:04:12Z</time>
      </trkpt>
      <trkpt lat="44.27918" lon="6.41231">
        <ele>1293.11</ele>
        <time>2022-05-10T13:04:28Z</time>
      </trkpt>
      <trkpt lat="44.27918" lon="6.41223">
        <ele>1292.63</ele>
        <time>2022-05-10T13:04:33Z</time>
      </trkpt>
      <trkpt lat="44.27925" lon="6.41193">
        <ele>1291.19</ele>
        <time>2022-05-10T13:04:49Z</time>
      </trkpt>
      <trkpt lat="44.27939" lon="6.41169">
        <ele>1289.75</ele>
        <time>2022-05-10T13:05:08Z</time>
      </trkpt>
      <trkpt lat="44.27942" lon="6.41168">
        <ele>1289.75</ele>
        <time>2022-05-10T13:05:10Z</time>
      </trkpt>
      <trkpt lat="44.27964" lon="6.41156">
        <ele>1287.82</ele>
        <time>2022-05-10T13:05:28Z</time>
      </trkpt>
      <trkpt lat="44.27979" lon="6.41148">
        <ele>1286.86</ele>
        <time>2022-05-10T13:05:41Z</time>
      </trkpt>
      <trkpt lat="44.27997" lon="6.41142">
        <ele>1285.42</ele>
        <time>2022-05-10T13:05:56Z</time>
      </trkpt>
      <trkpt lat="44.28017" lon="6.41137">
        <ele>1284.46</ele>
        <time>2022-05-10T13:06:12Z</time>
      </trkpt>
      <trkpt lat="44.28053" lon="6.41132">
        <ele>1283.5</ele>
        <time>2022-05-10T13:06:32Z</time>
      </trkpt>
      <trkpt lat="44.28076" lon="6.41128">
        <ele>1283.02</ele>
        <time>2022-05-10T13:06:48Z</time>
      </trkpt>
      <trkpt lat="44.28094" lon="6.41121">
        <ele>1283.02</ele>
        <time>2022-05-10T13:07:05Z</time>
      </trkpt>
      <trkpt lat="44.2811" lon="6.41113">
        <ele>1282.54</ele>
        <time>2022-05-10T13:07:19Z</time>
      </trkpt>
      <trkpt lat="44.28132" lon="6.41106">
        <ele>1282.54</ele>
        <time>2022-05-10T13:07:37Z</time>
      </trkpt>
      <trkpt lat="44.28142" lon="6.41097">
        <ele>1282.54</ele>
        <time>2022-05-10T13:07:47Z</time>
      </trkpt>
      <trkpt lat="44.28133" lon="6.41073">
        <ele>1283.02</ele>
        <time>2022-05-10T13:08:05Z</time>
      </trkpt>
      <trkpt lat="44.28129" lon="6.41069">
        <ele>1281.57</ele>
        <time>2022-05-10T13:08:11Z</time>
      </trkpt>
      <trkpt lat="44.28122" lon="6.41061">
        <ele>1281.57</ele>
        <time>2022-05-10T13:08:26Z</time>
      </trkpt>
      <trkpt lat="44.28121" lon="6.41061">
        <ele>1281.09</ele>
        <time>2022-05-10T13:08:27Z</time>
      </trkpt>
      <trkpt lat="44.28103" lon="6.41047">
        <ele>1281.09</ele>
        <time>2022-05-10T13:08:44Z</time>
      </trkpt>
      <trkpt lat="44.28085" lon="6.41022">
        <ele>1279.17</ele>
        <time>2022-05-10T13:09:01Z</time>
      </trkpt>
      <trkpt lat="44.28068" lon="6.41004">
        <ele>1278.69</ele>
        <time>2022-05-10T13:09:16Z</time>
      </trkpt>
      <trkpt lat="44.28047" lon="6.40982">
        <ele>1277.73</ele>
        <time>2022-05-10T13:09:33Z</time>
      </trkpt>
      <trkpt lat="44.28033" lon="6.40965">
        <ele>1277.25</ele>
        <time>2022-05-10T13:09:47Z</time>
      </trkpt>
      <trkpt lat="44.28018" lon="6.40953">
        <ele>1275.81</ele>
        <time>2022-05-10T13:10:04Z</time>
      </trkpt>
      <trkpt lat="44.27998" lon="6.40933">
        <ele>1275.33</ele>
        <time>2022-05-10T13:10:23Z</time>
      </trkpt>
      <trkpt lat="44.2798" lon="6.40916">
        <ele>1275.33</ele>
        <time>2022-05-10T13:10:39Z</time>
      </trkpt>
      <trkpt lat="44.27967" lon="6.40901">
        <ele>1274.36</ele>
        <time>2022-05-10T13:10:52Z</time>
      </trkpt>
      <trkpt lat="44.27951" lon="6.40882">
        <ele>1274.36</ele>
        <time>2022-05-10T13:11:08Z</time>
      </trkpt>
      <trkpt lat="44.27939" lon="6.40863">
        <ele>1274.36</ele>
        <time>2022-05-10T13:11:23Z</time>
      </trkpt>
      <trkpt lat="44.27938" lon="6.40861">
        <ele>1274.36</ele>
        <time>2022-05-10T13:11:25Z</time>
      </trkpt>
      <trkpt lat="44.27929" lon="6.40845">
        <ele>1275.33</ele>
        <time>2022-05-10T13:11:38Z</time>
      </trkpt>
      <trkpt lat="44.27913" lon="6.40818">
        <ele>1276.29</ele>
        <time>2022-05-10T13:11:56Z</time>
      </trkpt>
      <trkpt lat="44.27904" lon="6.40807">
        <ele>1276.29</ele>
        <time>2022-05-10T13:12:11Z</time>
      </trkpt>
      <trkpt lat="44.27897" lon="6.40784">
        <ele>1275.33</ele>
        <time>2022-05-10T13:12:25Z</time>
      </trkpt>
      <trkpt lat="44.2789" lon="6.40761">
        <ele>1274.36</ele>
        <time>2022-05-10T13:12:41Z</time>
      </trkpt>
      <trkpt lat="44.27876" lon="6.40744">
        <ele>1273.88</ele>
        <time>2022-05-10T13:12:57Z</time>
      </trkpt>
      <trkpt lat="44.27866" lon="6.40737">
        <ele>1275.81</ele>
        <time>2022-05-10T13:13:10Z</time>
      </trkpt>
      <trkpt lat="44.27864" lon="6.40736">
        <ele>1275.81</ele>
        <time>2022-05-10T13:13:33Z</time>
      </trkpt>
    </trkseg>
  </trk>
</gpx>